<?xml version="1.0" encoding="UTF-8" ?>
<gpx version="1.1" xmlns:xsi="http://www.w3.org/2001/XMLSchema-instance" 
    xmlns="http://www.topografix.com/GPX/1/1"
    xsi:schemaLocation="http://www.topografix.com/GPX/1/1 http://www.topografix.com/GPX/1/1/gpx.xsd" 
    creator="Openrunner - https://www.openrunner.com" >	<trk>
	                   <name>ECLA, Parcours 2, dimanche 17 Août 2025-22220987</name>
						<trkseg>
					<trkpt lat="45.825420" lon="4.608380">
						<ele>229</ele>
						<time>2025-08-15T13:05:35Z</time>
					</trkpt>
					<trkpt lat="45.825370" lon="4.608340">
						<ele>230</ele>
						<time>2025-08-15T13:05:36Z</time>
					</trkpt>
					<trkpt lat="45.825310" lon="4.608380">
						<ele>230</ele>
						<time>2025-08-15T13:05:37Z</time>
					</trkpt>
					<trkpt lat="45.825280" lon="4.608440">
						<ele>230</ele>
						<time>2025-08-15T13:05:38Z</time>
					</trkpt>
					<trkpt lat="45.825430" lon="4.608640">
						<ele>229</ele>
						<time>2025-08-15T13:05:42Z</time>
					</trkpt>
					<trkpt lat="45.825520" lon="4.608610">
						<ele>229</ele>
						<time>2025-08-15T13:05:43Z</time>
					</trkpt>
					<trkpt lat="45.826330" lon="4.610220">
						<ele>228</ele>
						<time>2025-08-15T13:06:08Z</time>
					</trkpt>
					<trkpt lat="45.826510" lon="4.610420">
						<ele>228</ele>
						<time>2025-08-15T13:06:12Z</time>
					</trkpt>
					<trkpt lat="45.827020" lon="4.610870">
						<ele>228</ele>
						<time>2025-08-15T13:06:23Z</time>
					</trkpt>
					<trkpt lat="45.827410" lon="4.611150">
						<ele>228</ele>
						<time>2025-08-15T13:06:30Z</time>
					</trkpt>
					<trkpt lat="45.828220" lon="4.609040">
						<ele>231</ele>
						<time>2025-08-15T13:07:00Z</time>
					</trkpt>
					<trkpt lat="45.829150" lon="4.609540">
						<ele>233</ele>
						<time>2025-08-15T13:07:18Z</time>
					</trkpt>
					<trkpt lat="45.832260" lon="4.612820">
						<ele>232</ele>
						<time>2025-08-15T13:08:27Z</time>
					</trkpt>
					<trkpt lat="45.833720" lon="4.614410">
						<ele>234</ele>
						<time>2025-08-15T13:08:59Z</time>
					</trkpt>
					<trkpt lat="45.834120" lon="4.614900">
						<ele>231</ele>
						<time>2025-08-15T13:09:09Z</time>
					</trkpt>
					<trkpt lat="45.835240" lon="4.616450">
						<ele>232</ele>
						<time>2025-08-15T13:09:36Z</time>
					</trkpt>
					<trkpt lat="45.835200" lon="4.616680">
						<ele>232</ele>
						<time>2025-08-15T13:09:39Z</time>
					</trkpt>
					<trkpt lat="45.835200" lon="4.617370">
						<ele>229</ele>
						<time>2025-08-15T13:09:48Z</time>
					</trkpt>
					<trkpt lat="45.835240" lon="4.617930">
						<ele>228</ele>
						<time>2025-08-15T13:09:55Z</time>
					</trkpt>
					<trkpt lat="45.835200" lon="4.618120">
						<ele>227</ele>
						<time>2025-08-15T13:09:57Z</time>
					</trkpt>
					<trkpt lat="45.834750" lon="4.619390">
						<ele>227</ele>
						<time>2025-08-15T13:10:15Z</time>
					</trkpt>
					<trkpt lat="45.834750" lon="4.619710">
						<ele>228</ele>
						<time>2025-08-15T13:10:19Z</time>
					</trkpt>
					<trkpt lat="45.834810" lon="4.620010">
						<ele>228</ele>
						<time>2025-08-15T13:10:23Z</time>
					</trkpt>
					<trkpt lat="45.834960" lon="4.620270">
						<ele>231</ele>
						<time>2025-08-15T13:10:27Z</time>
					</trkpt>
					<trkpt lat="45.835450" lon="4.620780">
						<ele>232</ele>
						<time>2025-08-15T13:10:38Z</time>
					</trkpt>
					<trkpt lat="45.835730" lon="4.621000">
						<ele>231</ele>
						<time>2025-08-15T13:10:43Z</time>
					</trkpt>
					<trkpt lat="45.836380" lon="4.621420">
						<ele>232</ele>
						<time>2025-08-15T13:10:56Z</time>
					</trkpt>
					<trkpt lat="45.837300" lon="4.621960">
						<ele>233</ele>
						<time>2025-08-15T13:11:14Z</time>
					</trkpt>
					<trkpt lat="45.837470" lon="4.622090">
						<ele>234</ele>
						<time>2025-08-15T13:11:17Z</time>
					</trkpt>
					<trkpt lat="45.837640" lon="4.622070">
						<ele>232</ele>
						<time>2025-08-15T13:11:20Z</time>
					</trkpt>
					<trkpt lat="45.837790" lon="4.622130">
						<ele>232</ele>
						<time>2025-08-15T13:11:23Z</time>
					</trkpt>
					<trkpt lat="45.837860" lon="4.622110">
						<ele>231</ele>
						<time>2025-08-15T13:11:24Z</time>
					</trkpt>
					<trkpt lat="45.837940" lon="4.622000">
						<ele>229</ele>
						<time>2025-08-15T13:11:26Z</time>
					</trkpt>
					<trkpt lat="45.837990" lon="4.621850">
						<ele>228</ele>
						<time>2025-08-15T13:11:28Z</time>
					</trkpt>
					<trkpt lat="45.838200" lon="4.621680">
						<ele>226</ele>
						<time>2025-08-15T13:11:33Z</time>
					</trkpt>
					<trkpt lat="45.838670" lon="4.621680">
						<ele>227</ele>
						<time>2025-08-15T13:11:41Z</time>
					</trkpt>
					<trkpt lat="45.839210" lon="4.621750">
						<ele>229</ele>
						<time>2025-08-15T13:11:51Z</time>
					</trkpt>
					<trkpt lat="45.839680" lon="4.622000">
						<ele>230</ele>
						<time>2025-08-15T13:12:00Z</time>
					</trkpt>
					<trkpt lat="45.840070" lon="4.622390">
						<ele>227</ele>
						<time>2025-08-15T13:12:08Z</time>
					</trkpt>
					<trkpt lat="45.840350" lon="4.622950">
						<ele>226</ele>
						<time>2025-08-15T13:12:17Z</time>
					</trkpt>
					<trkpt lat="45.840430" lon="4.623250">
						<ele>225</ele>
						<time>2025-08-15T13:12:21Z</time>
					</trkpt>
					<trkpt lat="45.840450" lon="4.623400">
						<ele>226</ele>
						<time>2025-08-15T13:12:22Z</time>
					</trkpt>
					<trkpt lat="45.840450" lon="4.624390">
						<ele>228</ele>
						<time>2025-08-15T13:12:35Z</time>
					</trkpt>
					<trkpt lat="45.840540" lon="4.624860">
						<ele>228</ele>
						<time>2025-08-15T13:12:41Z</time>
					</trkpt>
					<trkpt lat="45.840970" lon="4.626190">
						<ele>229</ele>
						<time>2025-08-15T13:12:59Z</time>
					</trkpt>
					<trkpt lat="45.841010" lon="4.626770">
						<ele>231</ele>
						<time>2025-08-15T13:13:06Z</time>
					</trkpt>
					<trkpt lat="45.840670" lon="4.628610">
						<ele>230</ele>
						<time>2025-08-15T13:13:30Z</time>
					</trkpt>
					<trkpt lat="45.840600" lon="4.629790">
						<ele>225</ele>
						<time>2025-08-15T13:13:44Z</time>
					</trkpt>
					<trkpt lat="45.840580" lon="4.630500">
						<ele>224</ele>
						<time>2025-08-15T13:13:53Z</time>
					</trkpt>
					<trkpt lat="45.840600" lon="4.631020">
						<ele>224</ele>
						<time>2025-08-15T13:14:00Z</time>
					</trkpt>
					<trkpt lat="45.840780" lon="4.631530">
						<ele>224</ele>
						<time>2025-08-15T13:14:07Z</time>
					</trkpt>
					<trkpt lat="45.841930" lon="4.633590">
						<ele>225</ele>
						<time>2025-08-15T13:14:39Z</time>
					</trkpt>
					<trkpt lat="45.842390" lon="4.634060">
						<ele>224</ele>
						<time>2025-08-15T13:14:50Z</time>
					</trkpt>
					<trkpt lat="45.842710" lon="4.634260">
						<ele>223</ele>
						<time>2025-08-15T13:14:56Z</time>
					</trkpt>
					<trkpt lat="45.842960" lon="4.634280">
						<ele>221</ele>
						<time>2025-08-15T13:15:00Z</time>
					</trkpt>
					<trkpt lat="45.843290" lon="4.634190">
						<ele>220</ele>
						<time>2025-08-15T13:15:06Z</time>
					</trkpt>
					<trkpt lat="45.843800" lon="4.633850">
						<ele>222</ele>
						<time>2025-08-15T13:15:16Z</time>
					</trkpt>
					<trkpt lat="45.843950" lon="4.633780">
						<ele>222</ele>
						<time>2025-08-15T13:15:19Z</time>
					</trkpt>
					<trkpt lat="45.844300" lon="4.633680">
						<ele>222</ele>
						<time>2025-08-15T13:15:25Z</time>
					</trkpt>
					<trkpt lat="45.844870" lon="4.633590">
						<ele>223</ele>
						<time>2025-08-15T13:15:36Z</time>
					</trkpt>
					<trkpt lat="45.845130" lon="4.633630">
						<ele>222</ele>
						<time>2025-08-15T13:15:40Z</time>
					</trkpt>
					<trkpt lat="45.845560" lon="4.633910">
						<ele>219</ele>
						<time>2025-08-15T13:15:49Z</time>
					</trkpt>
					<trkpt lat="45.846550" lon="4.634730">
						<ele>220</ele>
						<time>2025-08-15T13:16:09Z</time>
					</trkpt>
					<trkpt lat="45.846700" lon="4.634920">
						<ele>219</ele>
						<time>2025-08-15T13:16:12Z</time>
					</trkpt>
					<trkpt lat="45.846850" lon="4.635350">
						<ele>220</ele>
						<time>2025-08-15T13:16:18Z</time>
					</trkpt>
					<trkpt lat="45.846960" lon="4.636100">
						<ele>220</ele>
						<time>2025-08-15T13:16:28Z</time>
					</trkpt>
					<trkpt lat="45.847060" lon="4.636510">
						<ele>219</ele>
						<time>2025-08-15T13:16:33Z</time>
					</trkpt>
					<trkpt lat="45.847150" lon="4.636620">
						<ele>219</ele>
						<time>2025-08-15T13:16:35Z</time>
					</trkpt>
					<trkpt lat="45.848070" lon="4.637280">
						<ele>226</ele>
						<time>2025-08-15T13:16:54Z</time>
					</trkpt>
					<trkpt lat="45.848330" lon="4.637540">
						<ele>227</ele>
						<time>2025-08-15T13:16:59Z</time>
					</trkpt>
					<trkpt lat="45.848740" lon="4.638230">
						<ele>229</ele>
						<time>2025-08-15T13:17:11Z</time>
					</trkpt>
					<trkpt lat="45.848890" lon="4.638660">
						<ele>231</ele>
						<time>2025-08-15T13:17:17Z</time>
					</trkpt>
					<trkpt lat="45.848930" lon="4.639150">
						<ele>230</ele>
						<time>2025-08-15T13:17:23Z</time>
					</trkpt>
					<trkpt lat="45.848670" lon="4.640110">
						<ele>228</ele>
						<time>2025-08-15T13:17:35Z</time>
					</trkpt>
					<trkpt lat="45.848650" lon="4.640560">
						<ele>227</ele>
						<time>2025-08-15T13:17:41Z</time>
					</trkpt>
					<trkpt lat="45.848740" lon="4.641830">
						<ele>226</ele>
						<time>2025-08-15T13:17:57Z</time>
					</trkpt>
					<trkpt lat="45.848840" lon="4.642260">
						<ele>224</ele>
						<time>2025-08-15T13:18:02Z</time>
					</trkpt>
					<trkpt lat="45.849080" lon="4.642650">
						<ele>223</ele>
						<time>2025-08-15T13:18:09Z</time>
					</trkpt>
					<trkpt lat="45.850090" lon="4.643590">
						<ele>224</ele>
						<time>2025-08-15T13:18:30Z</time>
					</trkpt>
					<trkpt lat="45.850390" lon="4.644000">
						<ele>226</ele>
						<time>2025-08-15T13:18:38Z</time>
					</trkpt>
					<trkpt lat="45.851160" lon="4.645500">
						<ele>226</ele>
						<time>2025-08-15T13:19:01Z</time>
					</trkpt>
					<trkpt lat="45.851310" lon="4.646420">
						<ele>225</ele>
						<time>2025-08-15T13:19:12Z</time>
					</trkpt>
					<trkpt lat="45.851600" lon="4.647510">
						<ele>219</ele>
						<time>2025-08-15T13:19:27Z</time>
					</trkpt>
					<trkpt lat="45.851680" lon="4.647730">
						<ele>218</ele>
						<time>2025-08-15T13:19:30Z</time>
					</trkpt>
					<trkpt lat="45.852280" lon="4.648850">
						<ele>217</ele>
						<time>2025-08-15T13:19:48Z</time>
					</trkpt>
					<trkpt lat="45.852790" lon="4.649620">
						<ele>217</ele>
						<time>2025-08-15T13:20:01Z</time>
					</trkpt>
					<trkpt lat="45.853140" lon="4.650050">
						<ele>217</ele>
						<time>2025-08-15T13:20:09Z</time>
					</trkpt>
					<trkpt lat="45.855300" lon="4.652040">
						<ele>214</ele>
						<time>2025-08-15T13:20:55Z</time>
					</trkpt>
					<trkpt lat="45.856380" lon="4.652620">
						<ele>215</ele>
						<time>2025-08-15T13:21:15Z</time>
					</trkpt>
					<trkpt lat="45.856650" lon="4.652860">
						<ele>214</ele>
						<time>2025-08-15T13:21:21Z</time>
					</trkpt>
					<trkpt lat="45.856980" lon="4.653200">
						<ele>215</ele>
						<time>2025-08-15T13:21:28Z</time>
					</trkpt>
					<trkpt lat="45.857210" lon="4.653630">
						<ele>215</ele>
						<time>2025-08-15T13:21:35Z</time>
					</trkpt>
					<trkpt lat="45.857600" lon="4.654790">
						<ele>212</ele>
						<time>2025-08-15T13:21:51Z</time>
					</trkpt>
					<trkpt lat="45.858010" lon="4.655670">
						<ele>214</ele>
						<time>2025-08-15T13:22:04Z</time>
					</trkpt>
					<trkpt lat="45.858650" lon="4.656890">
						<ele>209</ele>
						<time>2025-08-15T13:22:23Z</time>
					</trkpt>
					<trkpt lat="45.858760" lon="4.657410">
						<ele>207</ele>
						<time>2025-08-15T13:22:29Z</time>
					</trkpt>
					<trkpt lat="45.858760" lon="4.657880">
						<ele>209</ele>
						<time>2025-08-15T13:22:35Z</time>
					</trkpt>
					<trkpt lat="45.858670" lon="4.658330">
						<ele>211</ele>
						<time>2025-08-15T13:22:41Z</time>
					</trkpt>
					<trkpt lat="45.858500" lon="4.658700">
						<ele>218</ele>
						<time>2025-08-15T13:22:47Z</time>
					</trkpt>
					<trkpt lat="45.858350" lon="4.658910">
						<ele>219</ele>
						<time>2025-08-15T13:22:50Z</time>
					</trkpt>
					<trkpt lat="45.857640" lon="4.659620">
						<ele>218</ele>
						<time>2025-08-15T13:23:06Z</time>
					</trkpt>
					<trkpt lat="45.857490" lon="4.659810">
						<ele>216</ele>
						<time>2025-08-15T13:23:09Z</time>
					</trkpt>
					<trkpt lat="45.857380" lon="4.660050">
						<ele>216</ele>
						<time>2025-08-15T13:23:13Z</time>
					</trkpt>
					<trkpt lat="45.856870" lon="4.662520">
						<ele>218</ele>
						<time>2025-08-15T13:23:45Z</time>
					</trkpt>
					<trkpt lat="45.856740" lon="4.663010">
						<ele>216</ele>
						<time>2025-08-15T13:23:51Z</time>
					</trkpt>
					<trkpt lat="45.856420" lon="4.663950">
						<ele>216</ele>
						<time>2025-08-15T13:24:04Z</time>
					</trkpt>
					<trkpt lat="45.856350" lon="4.664360">
						<ele>216</ele>
						<time>2025-08-15T13:24:09Z</time>
					</trkpt>
					<trkpt lat="45.856160" lon="4.666310">
						<ele>212</ele>
						<time>2025-08-15T13:24:34Z</time>
					</trkpt>
					<trkpt lat="45.856180" lon="4.667190">
						<ele>211</ele>
						<time>2025-08-15T13:24:45Z</time>
					</trkpt>
					<trkpt lat="45.856270" lon="4.667790">
						<ele>211</ele>
						<time>2025-08-15T13:24:52Z</time>
					</trkpt>
					<trkpt lat="45.856350" lon="4.668120">
						<ele>211</ele>
						<time>2025-08-15T13:24:57Z</time>
					</trkpt>
					<trkpt lat="45.856480" lon="4.668330">
						<ele>212</ele>
						<time>2025-08-15T13:25:00Z</time>
					</trkpt>
					<trkpt lat="45.856910" lon="4.668760">
						<ele>213</ele>
						<time>2025-08-15T13:25:09Z</time>
					</trkpt>
					<trkpt lat="45.856960" lon="4.668890">
						<ele>212</ele>
						<time>2025-08-15T13:25:11Z</time>
					</trkpt>
					<trkpt lat="45.856960" lon="4.669150">
						<ele>210</ele>
						<time>2025-08-15T13:25:15Z</time>
					</trkpt>
					<trkpt lat="45.857580" lon="4.669360">
						<ele>212</ele>
						<time>2025-08-15T13:25:26Z</time>
					</trkpt>
					<trkpt lat="45.857680" lon="4.669380">
						<ele>212</ele>
						<time>2025-08-15T13:25:28Z</time>
					</trkpt>
					<trkpt lat="45.858180" lon="4.669360">
						<ele>210</ele>
						<time>2025-08-15T13:25:37Z</time>
					</trkpt>
					<trkpt lat="45.858740" lon="4.669510">
						<ele>207</ele>
						<time>2025-08-15T13:25:47Z</time>
					</trkpt>
					<trkpt lat="45.858950" lon="4.669680">
						<ele>207</ele>
						<time>2025-08-15T13:25:51Z</time>
					</trkpt>
					<trkpt lat="45.859010" lon="4.669880">
						<ele>206</ele>
						<time>2025-08-15T13:25:54Z</time>
					</trkpt>
					<trkpt lat="45.859120" lon="4.669920">
						<ele>206</ele>
						<time>2025-08-15T13:25:56Z</time>
					</trkpt>
					<trkpt lat="45.859230" lon="4.669850">
						<ele>207</ele>
						<time>2025-08-15T13:25:58Z</time>
					</trkpt>
					<trkpt lat="45.859250" lon="4.669620">
						<ele>207</ele>
						<time>2025-08-15T13:26:01Z</time>
					</trkpt>
					<trkpt lat="45.859210" lon="4.669580">
						<ele>207</ele>
						<time>2025-08-15T13:26:02Z</time>
					</trkpt>
					<trkpt lat="45.859210" lon="4.669230">
						<ele>207</ele>
						<time>2025-08-15T13:26:06Z</time>
					</trkpt>
					<trkpt lat="45.859400" lon="4.668440">
						<ele>210</ele>
						<time>2025-08-15T13:26:16Z</time>
					</trkpt>
					<trkpt lat="45.859700" lon="4.667490">
						<ele>216</ele>
						<time>2025-08-15T13:26:29Z</time>
					</trkpt>
					<trkpt lat="45.859850" lon="4.667150">
						<ele>215</ele>
						<time>2025-08-15T13:26:34Z</time>
					</trkpt>
					<trkpt lat="45.860020" lon="4.666850">
						<ele>213</ele>
						<time>2025-08-15T13:26:39Z</time>
					</trkpt>
					<trkpt lat="45.860300" lon="4.666490">
						<ele>214</ele>
						<time>2025-08-15T13:26:46Z</time>
					</trkpt>
					<trkpt lat="45.860730" lon="4.666120">
						<ele>214</ele>
						<time>2025-08-15T13:26:55Z</time>
					</trkpt>
					<trkpt lat="45.861310" lon="4.665730">
						<ele>216</ele>
						<time>2025-08-15T13:27:06Z</time>
					</trkpt>
					<trkpt lat="45.861610" lon="4.665410">
						<ele>215</ele>
						<time>2025-08-15T13:27:13Z</time>
					</trkpt>
					<trkpt lat="45.862580" lon="4.663550">
						<ele>213</ele>
						<time>2025-08-15T13:27:41Z</time>
					</trkpt>
					<trkpt lat="45.862830" lon="4.663140">
						<ele>214</ele>
						<time>2025-08-15T13:27:48Z</time>
					</trkpt>
					<trkpt lat="45.863110" lon="4.662750">
						<ele>214</ele>
						<time>2025-08-15T13:27:55Z</time>
					</trkpt>
					<trkpt lat="45.863440" lon="4.662470">
						<ele>214</ele>
						<time>2025-08-15T13:28:02Z</time>
					</trkpt>
					<trkpt lat="45.863690" lon="4.662300">
						<ele>214</ele>
						<time>2025-08-15T13:28:07Z</time>
					</trkpt>
					<trkpt lat="45.864700" lon="4.661980">
						<ele>217</ele>
						<time>2025-08-15T13:28:25Z</time>
					</trkpt>
					<trkpt lat="45.865040" lon="4.661850">
						<ele>218</ele>
						<time>2025-08-15T13:28:32Z</time>
					</trkpt>
					<trkpt lat="45.865500" lon="4.661530">
						<ele>220</ele>
						<time>2025-08-15T13:28:41Z</time>
					</trkpt>
					<trkpt lat="45.866070" lon="4.660990">
						<ele>216</ele>
						<time>2025-08-15T13:28:53Z</time>
					</trkpt>
					<trkpt lat="45.867060" lon="4.660610">
						<ele>225</ele>
						<time>2025-08-15T13:29:11Z</time>
					</trkpt>
					<trkpt lat="45.867360" lon="4.660390">
						<ele>225</ele>
						<time>2025-08-15T13:29:17Z</time>
					</trkpt>
					<trkpt lat="45.867660" lon="4.660090">
						<ele>222</ele>
						<time>2025-08-15T13:29:23Z</time>
					</trkpt>
					<trkpt lat="45.867960" lon="4.659710">
						<ele>224</ele>
						<time>2025-08-15T13:29:31Z</time>
					</trkpt>
					<trkpt lat="45.868350" lon="4.659000">
						<ele>220</ele>
						<time>2025-08-15T13:29:42Z</time>
					</trkpt>
					<trkpt lat="45.868610" lon="4.658440">
						<ele>221</ele>
						<time>2025-08-15T13:29:50Z</time>
					</trkpt>
					<trkpt lat="45.868820" lon="4.657560">
						<ele>222</ele>
						<time>2025-08-15T13:30:02Z</time>
					</trkpt>
					<trkpt lat="45.868890" lon="4.656470">
						<ele>224</ele>
						<time>2025-08-15T13:30:15Z</time>
					</trkpt>
					<trkpt lat="45.868950" lon="4.656040">
						<ele>224</ele>
						<time>2025-08-15T13:30:21Z</time>
					</trkpt>
					<trkpt lat="45.869120" lon="4.655440">
						<ele>222</ele>
						<time>2025-08-15T13:30:29Z</time>
					</trkpt>
					<trkpt lat="45.869250" lon="4.655110">
						<ele>221</ele>
						<time>2025-08-15T13:30:33Z</time>
					</trkpt>
					<trkpt lat="45.869550" lon="4.654600">
						<ele>222</ele>
						<time>2025-08-15T13:30:42Z</time>
					</trkpt>
					<trkpt lat="45.870170" lon="4.653850">
						<ele>221</ele>
						<time>2025-08-15T13:30:56Z</time>
					</trkpt>
					<trkpt lat="45.870430" lon="4.653460">
						<ele>221</ele>
						<time>2025-08-15T13:31:03Z</time>
					</trkpt>
					<trkpt lat="45.870990" lon="4.652350">
						<ele>217</ele>
						<time>2025-08-15T13:31:20Z</time>
					</trkpt>
					<trkpt lat="45.871760" lon="4.650950">
						<ele>212</ele>
						<time>2025-08-15T13:31:42Z</time>
					</trkpt>
					<trkpt lat="45.875040" lon="4.645890">
						<ele>213</ele>
						<time>2025-08-15T13:33:08Z</time>
					</trkpt>
					<trkpt lat="45.875260" lon="4.645610">
						<ele>212</ele>
						<time>2025-08-15T13:33:13Z</time>
					</trkpt>
					<trkpt lat="45.876070" lon="4.644190">
						<ele>213</ele>
						<time>2025-08-15T13:33:35Z</time>
					</trkpt>
					<trkpt lat="45.876570" lon="4.643250">
						<ele>209</ele>
						<time>2025-08-15T13:33:50Z</time>
					</trkpt>
					<trkpt lat="45.877190" lon="4.642200">
						<ele>212</ele>
						<time>2025-08-15T13:34:07Z</time>
					</trkpt>
					<trkpt lat="45.880150" lon="4.637370">
						<ele>213</ele>
						<time>2025-08-15T13:35:27Z</time>
					</trkpt>
					<trkpt lat="45.880560" lon="4.636640">
						<ele>215</ele>
						<time>2025-08-15T13:35:39Z</time>
					</trkpt>
					<trkpt lat="45.880880" lon="4.635890">
						<ele>216</ele>
						<time>2025-08-15T13:35:49Z</time>
					</trkpt>
					<trkpt lat="45.881090" lon="4.635260">
						<ele>217</ele>
						<time>2025-08-15T13:35:58Z</time>
					</trkpt>
					<trkpt lat="45.881290" lon="4.634540">
						<ele>216</ele>
						<time>2025-08-15T13:36:08Z</time>
					</trkpt>
					<trkpt lat="45.881520" lon="4.633290">
						<ele>216</ele>
						<time>2025-08-15T13:36:24Z</time>
					</trkpt>
					<trkpt lat="45.882040" lon="4.630990">
						<ele>217</ele>
						<time>2025-08-15T13:36:54Z</time>
					</trkpt>
					<trkpt lat="45.882250" lon="4.630370">
						<ele>217</ele>
						<time>2025-08-15T13:37:02Z</time>
					</trkpt>
					<trkpt lat="45.882530" lon="4.629750">
						<ele>217</ele>
						<time>2025-08-15T13:37:11Z</time>
					</trkpt>
					<trkpt lat="45.882980" lon="4.628910">
						<ele>218</ele>
						<time>2025-08-15T13:37:24Z</time>
					</trkpt>
					<trkpt lat="45.883580" lon="4.627970">
						<ele>218</ele>
						<time>2025-08-15T13:37:40Z</time>
					</trkpt>
					<trkpt lat="45.884010" lon="4.627090">
						<ele>218</ele>
						<time>2025-08-15T13:37:54Z</time>
					</trkpt>
					<trkpt lat="45.884250" lon="4.626510">
						<ele>219</ele>
						<time>2025-08-15T13:38:02Z</time>
					</trkpt>
					<trkpt lat="45.885210" lon="4.623740">
						<ele>220</ele>
						<time>2025-08-15T13:38:40Z</time>
					</trkpt>
					<trkpt lat="45.886180" lon="4.621340">
						<ele>223</ele>
						<time>2025-08-15T13:39:15Z</time>
					</trkpt>
					<trkpt lat="45.885670" lon="4.620910">
						<ele>221</ele>
						<time>2025-08-15T13:39:25Z</time>
					</trkpt>
					<trkpt lat="45.884910" lon="4.620200">
						<ele>221</ele>
						<time>2025-08-15T13:39:41Z</time>
					</trkpt>
					<trkpt lat="45.884080" lon="4.619510">
						<ele>221</ele>
						<time>2025-08-15T13:39:58Z</time>
					</trkpt>
					<trkpt lat="45.883880" lon="4.619430">
						<ele>222</ele>
						<time>2025-08-15T13:40:02Z</time>
					</trkpt>
					<trkpt lat="45.883690" lon="4.619410">
						<ele>223</ele>
						<time>2025-08-15T13:40:05Z</time>
					</trkpt>
					<trkpt lat="45.883310" lon="4.619320">
						<ele>226</ele>
						<time>2025-08-15T13:40:12Z</time>
					</trkpt>
					<trkpt lat="45.883110" lon="4.619600">
						<ele>229</ele>
						<time>2025-08-15T13:40:17Z</time>
					</trkpt>
					<trkpt lat="45.882830" lon="4.620220">
						<ele>232</ele>
						<time>2025-08-15T13:40:26Z</time>
					</trkpt>
					<trkpt lat="45.882730" lon="4.620390">
						<ele>233</ele>
						<time>2025-08-15T13:40:29Z</time>
					</trkpt>
					<trkpt lat="45.881930" lon="4.621250">
						<ele>244</ele>
						<time>2025-08-15T13:40:47Z</time>
					</trkpt>
					<trkpt lat="45.881760" lon="4.621360">
						<ele>247</ele>
						<time>2025-08-15T13:40:50Z</time>
					</trkpt>
					<trkpt lat="45.881370" lon="4.621450">
						<ele>256</ele>
						<time>2025-08-15T13:40:57Z</time>
					</trkpt>
					<trkpt lat="45.881200" lon="4.621550">
						<ele>259</ele>
						<time>2025-08-15T13:41:01Z</time>
					</trkpt>
					<trkpt lat="45.880470" lon="4.622430">
						<ele>267</ele>
						<time>2025-08-15T13:41:18Z</time>
					</trkpt>
					<trkpt lat="45.879890" lon="4.623030">
						<ele>270</ele>
						<time>2025-08-15T13:41:30Z</time>
					</trkpt>
					<trkpt lat="45.879310" lon="4.623510">
						<ele>271</ele>
						<time>2025-08-15T13:41:42Z</time>
					</trkpt>
					<trkpt lat="45.878930" lon="4.624000">
						<ele>269</ele>
						<time>2025-08-15T13:41:51Z</time>
					</trkpt>
					<trkpt lat="45.878560" lon="4.624880">
						<ele>276</ele>
						<time>2025-08-15T13:42:04Z</time>
					</trkpt>
					<trkpt lat="45.878370" lon="4.625140">
						<ele>280</ele>
						<time>2025-08-15T13:42:09Z</time>
					</trkpt>
					<trkpt lat="45.878090" lon="4.625090">
						<ele>283</ele>
						<time>2025-08-15T13:42:14Z</time>
					</trkpt>
					<trkpt lat="45.876910" lon="4.624210">
						<ele>296</ele>
						<time>2025-08-15T13:42:37Z</time>
					</trkpt>
					<trkpt lat="45.876740" lon="4.624130">
						<ele>298</ele>
						<time>2025-08-15T13:42:40Z</time>
					</trkpt>
					<trkpt lat="45.876420" lon="4.624110">
						<ele>300</ele>
						<time>2025-08-15T13:42:46Z</time>
					</trkpt>
					<trkpt lat="45.876070" lon="4.624040">
						<ele>303</ele>
						<time>2025-08-15T13:42:52Z</time>
					</trkpt>
					<trkpt lat="45.875410" lon="4.623790">
						<ele>308</ele>
						<time>2025-08-15T13:43:05Z</time>
					</trkpt>
					<trkpt lat="45.875260" lon="4.623630">
						<ele>310</ele>
						<time>2025-08-15T13:43:08Z</time>
					</trkpt>
					<trkpt lat="45.875090" lon="4.623360">
						<ele>313</ele>
						<time>2025-08-15T13:43:12Z</time>
					</trkpt>
					<trkpt lat="45.874920" lon="4.623160">
						<ele>316</ele>
						<time>2025-08-15T13:43:16Z</time>
					</trkpt>
					<trkpt lat="45.873950" lon="4.622710">
						<ele>319</ele>
						<time>2025-08-15T13:43:34Z</time>
					</trkpt>
					<trkpt lat="45.873500" lon="4.622630">
						<ele>320</ele>
						<time>2025-08-15T13:43:43Z</time>
					</trkpt>
					<trkpt lat="45.873310" lon="4.622650">
						<ele>320</ele>
						<time>2025-08-15T13:43:46Z</time>
					</trkpt>
					<trkpt lat="45.871760" lon="4.623230">
						<ele>319</ele>
						<time>2025-08-15T13:44:14Z</time>
					</trkpt>
					<trkpt lat="45.871570" lon="4.623250">
						<ele>319</ele>
						<time>2025-08-15T13:44:18Z</time>
					</trkpt>
					<trkpt lat="45.871310" lon="4.623180">
						<ele>318</ele>
						<time>2025-08-15T13:44:23Z</time>
					</trkpt>
					<trkpt lat="45.870410" lon="4.622690">
						<ele>318</ele>
						<time>2025-08-15T13:44:40Z</time>
					</trkpt>
					<trkpt lat="45.869570" lon="4.621960">
						<ele>318</ele>
						<time>2025-08-15T13:44:57Z</time>
					</trkpt>
					<trkpt lat="45.869040" lon="4.621680">
						<ele>317</ele>
						<time>2025-08-15T13:45:07Z</time>
					</trkpt>
					<trkpt lat="45.868610" lon="4.621600">
						<ele>317</ele>
						<time>2025-08-15T13:45:15Z</time>
					</trkpt>
					<trkpt lat="45.868460" lon="4.621490">
						<ele>318</ele>
						<time>2025-08-15T13:45:18Z</time>
					</trkpt>
					<trkpt lat="45.868110" lon="4.621210">
						<ele>318</ele>
						<time>2025-08-15T13:45:25Z</time>
					</trkpt>
					<trkpt lat="45.867710" lon="4.620520">
						<ele>320</ele>
						<time>2025-08-15T13:45:36Z</time>
					</trkpt>
					<trkpt lat="45.866930" lon="4.619840">
						<ele>316</ele>
						<time>2025-08-15T13:45:52Z</time>
					</trkpt>
					<trkpt lat="45.866500" lon="4.619580">
						<ele>314</ele>
						<time>2025-08-15T13:46:01Z</time>
					</trkpt>
					<trkpt lat="45.865730" lon="4.619390">
						<ele>313</ele>
						<time>2025-08-15T13:46:15Z</time>
					</trkpt>
					<trkpt lat="45.865410" lon="4.619340">
						<ele>315</ele>
						<time>2025-08-15T13:46:20Z</time>
					</trkpt>
					<trkpt lat="45.865020" lon="4.619150">
						<ele>319</ele>
						<time>2025-08-15T13:46:28Z</time>
					</trkpt>
					<trkpt lat="45.864140" lon="4.617630">
						<ele>323</ele>
						<time>2025-08-15T13:46:52Z</time>
					</trkpt>
					<trkpt lat="45.863890" lon="4.617500">
						<ele>323</ele>
						<time>2025-08-15T13:46:57Z</time>
					</trkpt>
					<trkpt lat="45.863260" lon="4.617330">
						<ele>324</ele>
						<time>2025-08-15T13:47:08Z</time>
					</trkpt>
					<trkpt lat="45.863130" lon="4.617260">
						<ele>325</ele>
						<time>2025-08-15T13:47:11Z</time>
					</trkpt>
					<trkpt lat="45.862470" lon="4.616620">
						<ele>323</ele>
						<time>2025-08-15T13:47:25Z</time>
					</trkpt>
					<trkpt lat="45.861550" lon="4.616150">
						<ele>319</ele>
						<time>2025-08-15T13:47:42Z</time>
					</trkpt>
					<trkpt lat="45.861440" lon="4.616040">
						<ele>318</ele>
						<time>2025-08-15T13:47:45Z</time>
					</trkpt>
					<trkpt lat="45.861530" lon="4.615870">
						<ele>319</ele>
						<time>2025-08-15T13:47:47Z</time>
					</trkpt>
					<trkpt lat="45.861610" lon="4.615780">
						<ele>319</ele>
						<time>2025-08-15T13:47:49Z</time>
					</trkpt>
					<trkpt lat="45.861950" lon="4.615570">
						<ele>321</ele>
						<time>2025-08-15T13:47:56Z</time>
					</trkpt>
					<trkpt lat="45.862130" lon="4.615400">
						<ele>322</ele>
						<time>2025-08-15T13:48:00Z</time>
					</trkpt>
					<trkpt lat="45.862280" lon="4.615030">
						<ele>323</ele>
						<time>2025-08-15T13:48:05Z</time>
					</trkpt>
					<trkpt lat="45.862620" lon="4.614110">
						<ele>327</ele>
						<time>2025-08-15T13:48:18Z</time>
					</trkpt>
					<trkpt lat="45.862830" lon="4.612840">
						<ele>329</ele>
						<time>2025-08-15T13:48:34Z</time>
					</trkpt>
					<trkpt lat="45.863070" lon="4.611960">
						<ele>332</ele>
						<time>2025-08-15T13:48:46Z</time>
					</trkpt>
					<trkpt lat="45.863820" lon="4.609790">
						<ele>335</ele>
						<time>2025-08-15T13:49:16Z</time>
					</trkpt>
					<trkpt lat="45.863910" lon="4.609410">
						<ele>337</ele>
						<time>2025-08-15T13:49:21Z</time>
					</trkpt>
					<trkpt lat="45.863890" lon="4.609090">
						<ele>338</ele>
						<time>2025-08-15T13:49:25Z</time>
					</trkpt>
					<trkpt lat="45.863800" lon="4.608790">
						<ele>340</ele>
						<time>2025-08-15T13:49:29Z</time>
					</trkpt>
					<trkpt lat="45.863630" lon="4.608590">
						<ele>341</ele>
						<time>2025-08-15T13:49:33Z</time>
					</trkpt>
					<trkpt lat="45.863310" lon="4.608400">
						<ele>341</ele>
						<time>2025-08-15T13:49:39Z</time>
					</trkpt>
					<trkpt lat="45.862810" lon="4.608190">
						<ele>340</ele>
						<time>2025-08-15T13:49:48Z</time>
					</trkpt>
					<trkpt lat="45.862580" lon="4.607930">
						<ele>340</ele>
						<time>2025-08-15T13:49:53Z</time>
					</trkpt>
					<trkpt lat="45.862450" lon="4.607710">
						<ele>341</ele>
						<time>2025-08-15T13:49:57Z</time>
					</trkpt>
					<trkpt lat="45.862380" lon="4.607480">
						<ele>341</ele>
						<time>2025-08-15T13:50:00Z</time>
					</trkpt>
					<trkpt lat="45.862300" lon="4.607010">
						<ele>341</ele>
						<time>2025-08-15T13:50:06Z</time>
					</trkpt>
					<trkpt lat="45.862280" lon="4.606150">
						<ele>342</ele>
						<time>2025-08-15T13:50:17Z</time>
					</trkpt>
					<trkpt lat="45.862340" lon="4.605330">
						<ele>342</ele>
						<time>2025-08-15T13:50:27Z</time>
					</trkpt>
					<trkpt lat="45.862470" lon="4.604770">
						<ele>342</ele>
						<time>2025-08-15T13:50:34Z</time>
					</trkpt>
					<trkpt lat="45.862730" lon="4.603290">
						<ele>343</ele>
						<time>2025-08-15T13:50:53Z</time>
					</trkpt>
					<trkpt lat="45.862880" lon="4.602160">
						<ele>344</ele>
						<time>2025-08-15T13:51:07Z</time>
					</trkpt>
					<trkpt lat="45.863370" lon="4.600680">
						<ele>342</ele>
						<time>2025-08-15T13:51:28Z</time>
					</trkpt>
					<trkpt lat="45.863610" lon="4.600120">
						<ele>344</ele>
						<time>2025-08-15T13:51:36Z</time>
					</trkpt>
					<trkpt lat="45.863990" lon="4.599650">
						<ele>346</ele>
						<time>2025-08-15T13:51:45Z</time>
					</trkpt>
					<trkpt lat="45.864400" lon="4.599280">
						<ele>349</ele>
						<time>2025-08-15T13:51:53Z</time>
					</trkpt>
					<trkpt lat="45.866290" lon="4.597800">
						<ele>353</ele>
						<time>2025-08-15T13:52:32Z</time>
					</trkpt>
					<trkpt lat="45.866590" lon="4.597430">
						<ele>354</ele>
						<time>2025-08-15T13:52:39Z</time>
					</trkpt>
					<trkpt lat="45.866850" lon="4.597050">
						<ele>354</ele>
						<time>2025-08-15T13:52:45Z</time>
					</trkpt>
					<trkpt lat="45.867020" lon="4.596660">
						<ele>355</ele>
						<time>2025-08-15T13:52:51Z</time>
					</trkpt>
					<trkpt lat="45.868050" lon="4.593290">
						<ele>357</ele>
						<time>2025-08-15T13:53:36Z</time>
					</trkpt>
					<trkpt lat="45.868560" lon="4.592540">
						<ele>359</ele>
						<time>2025-08-15T13:53:49Z</time>
					</trkpt>
					<trkpt lat="45.869720" lon="4.591130">
						<ele>367</ele>
						<time>2025-08-15T13:54:17Z</time>
					</trkpt>
					<trkpt lat="45.870240" lon="4.590440">
						<ele>370</ele>
						<time>2025-08-15T13:54:29Z</time>
					</trkpt>
					<trkpt lat="45.870800" lon="4.589430">
						<ele>373</ele>
						<time>2025-08-15T13:54:45Z</time>
					</trkpt>
					<trkpt lat="45.872360" lon="4.586000">
						<ele>378</ele>
						<time>2025-08-15T13:55:36Z</time>
					</trkpt>
					<trkpt lat="45.872700" lon="4.585590">
						<ele>381</ele>
						<time>2025-08-15T13:55:44Z</time>
					</trkpt>
					<trkpt lat="45.872980" lon="4.585400">
						<ele>384</ele>
						<time>2025-08-15T13:55:49Z</time>
					</trkpt>
					<trkpt lat="45.873240" lon="4.585270">
						<ele>386</ele>
						<time>2025-08-15T13:55:54Z</time>
					</trkpt>
					<trkpt lat="45.873540" lon="4.585160">
						<ele>389</ele>
						<time>2025-08-15T13:56:00Z</time>
					</trkpt>
					<trkpt lat="45.873890" lon="4.585140">
						<ele>390</ele>
						<time>2025-08-15T13:56:06Z</time>
					</trkpt>
					<trkpt lat="45.874460" lon="4.584950">
						<ele>393</ele>
						<time>2025-08-15T13:56:16Z</time>
					</trkpt>
					<trkpt lat="45.875020" lon="4.584650">
						<ele>394</ele>
						<time>2025-08-15T13:56:27Z</time>
					</trkpt>
					<trkpt lat="45.875620" lon="4.584520">
						<ele>396</ele>
						<time>2025-08-15T13:56:38Z</time>
					</trkpt>
					<trkpt lat="45.875770" lon="4.584320">
						<ele>397</ele>
						<time>2025-08-15T13:56:41Z</time>
					</trkpt>
					<trkpt lat="45.875840" lon="4.584150">
						<ele>398</ele>
						<time>2025-08-15T13:56:44Z</time>
					</trkpt>
					<trkpt lat="45.875840" lon="4.583870">
						<ele>398</ele>
						<time>2025-08-15T13:56:47Z</time>
					</trkpt>
					<trkpt lat="45.875770" lon="4.583590">
						<ele>398</ele>
						<time>2025-08-15T13:56:51Z</time>
					</trkpt>
					<trkpt lat="45.875450" lon="4.583080">
						<ele>401</ele>
						<time>2025-08-15T13:56:59Z</time>
					</trkpt>
					<trkpt lat="45.875370" lon="4.582910">
						<ele>402</ele>
						<time>2025-08-15T13:57:02Z</time>
					</trkpt>
					<trkpt lat="45.875320" lon="4.582480">
						<ele>402</ele>
						<time>2025-08-15T13:57:07Z</time>
					</trkpt>
					<trkpt lat="45.875340" lon="4.581000">
						<ele>398</ele>
						<time>2025-08-15T13:57:26Z</time>
					</trkpt>
					<trkpt lat="45.875280" lon="4.579860">
						<ele>396</ele>
						<time>2025-08-15T13:57:40Z</time>
					</trkpt>
					<trkpt lat="45.875300" lon="4.579410">
						<ele>397</ele>
						<time>2025-08-15T13:57:46Z</time>
					</trkpt>
					<trkpt lat="45.875430" lon="4.579000">
						<ele>398</ele>
						<time>2025-08-15T13:57:51Z</time>
					</trkpt>
					<trkpt lat="45.875730" lon="4.578400">
						<ele>401</ele>
						<time>2025-08-15T13:58:00Z</time>
					</trkpt>
					<trkpt lat="45.875820" lon="4.578120">
						<ele>402</ele>
						<time>2025-08-15T13:58:04Z</time>
					</trkpt>
					<trkpt lat="45.875970" lon="4.576860">
						<ele>401</ele>
						<time>2025-08-15T13:58:20Z</time>
					</trkpt>
					<trkpt lat="45.875990" lon="4.576340">
						<ele>399</ele>
						<time>2025-08-15T13:58:26Z</time>
					</trkpt>
					<trkpt lat="45.875950" lon="4.575330">
						<ele>396</ele>
						<time>2025-08-15T13:58:39Z</time>
					</trkpt>
					<trkpt lat="45.875900" lon="4.574800">
						<ele>395</ele>
						<time>2025-08-15T13:58:46Z</time>
					</trkpt>
					<trkpt lat="45.875790" lon="4.572690">
						<ele>404</ele>
						<time>2025-08-15T13:59:12Z</time>
					</trkpt>
					<trkpt lat="45.875620" lon="4.571660">
						<ele>409</ele>
						<time>2025-08-15T13:59:25Z</time>
					</trkpt>
					<trkpt lat="45.875470" lon="4.571260">
						<ele>410</ele>
						<time>2025-08-15T13:59:30Z</time>
					</trkpt>
					<trkpt lat="45.875040" lon="4.570570">
						<ele>407</ele>
						<time>2025-08-15T13:59:42Z</time>
					</trkpt>
					<trkpt lat="45.874980" lon="4.570180">
						<ele>407</ele>
						<time>2025-08-15T13:59:47Z</time>
					</trkpt>
					<trkpt lat="45.875000" lon="4.569990">
						<ele>407</ele>
						<time>2025-08-15T13:59:49Z</time>
					</trkpt>
					<trkpt lat="45.875190" lon="4.569480">
						<ele>408</ele>
						<time>2025-08-15T13:59:56Z</time>
					</trkpt>
					<trkpt lat="45.876440" lon="4.566510">
						<ele>397</ele>
						<time>2025-08-15T14:00:39Z</time>
					</trkpt>
					<trkpt lat="45.876780" lon="4.565570">
						<ele>400</ele>
						<time>2025-08-15T14:00:53Z</time>
					</trkpt>
					<trkpt lat="45.876850" lon="4.565270">
						<ele>399</ele>
						<time>2025-08-15T14:00:56Z</time>
					</trkpt>
					<trkpt lat="45.876870" lon="4.564860">
						<ele>397</ele>
						<time>2025-08-15T14:01:02Z</time>
					</trkpt>
					<trkpt lat="45.876930" lon="4.564580">
						<ele>395</ele>
						<time>2025-08-15T14:01:05Z</time>
					</trkpt>
					<trkpt lat="45.877080" lon="4.564410">
						<ele>394</ele>
						<time>2025-08-15T14:01:09Z</time>
					</trkpt>
					<trkpt lat="45.877300" lon="4.564260">
						<ele>393</ele>
						<time>2025-08-15T14:01:13Z</time>
					</trkpt>
					<trkpt lat="45.878220" lon="4.563720">
						<ele>389</ele>
						<time>2025-08-15T14:01:31Z</time>
					</trkpt>
					<trkpt lat="45.879740" lon="4.563340">
						<ele>381</ele>
						<time>2025-08-15T14:01:58Z</time>
					</trkpt>
					<trkpt lat="45.879980" lon="4.563230">
						<ele>380</ele>
						<time>2025-08-15T14:02:03Z</time>
					</trkpt>
					<trkpt lat="45.880240" lon="4.563040">
						<ele>379</ele>
						<time>2025-08-15T14:02:08Z</time>
					</trkpt>
					<trkpt lat="45.881270" lon="4.561920">
						<ele>374</ele>
						<time>2025-08-15T14:02:31Z</time>
					</trkpt>
					<trkpt lat="45.881370" lon="4.561750">
						<ele>373</ele>
						<time>2025-08-15T14:02:33Z</time>
					</trkpt>
					<trkpt lat="45.881440" lon="4.561540">
						<ele>372</ele>
						<time>2025-08-15T14:02:36Z</time>
					</trkpt>
					<trkpt lat="45.881400" lon="4.561260">
						<ele>369</ele>
						<time>2025-08-15T14:02:40Z</time>
					</trkpt>
					<trkpt lat="45.881140" lon="4.560700">
						<ele>365</ele>
						<time>2025-08-15T14:02:48Z</time>
					</trkpt>
					<trkpt lat="45.880970" lon="4.560480">
						<ele>364</ele>
						<time>2025-08-15T14:02:52Z</time>
					</trkpt>
					<trkpt lat="45.880340" lon="4.560100">
						<ele>365</ele>
						<time>2025-08-15T14:03:04Z</time>
					</trkpt>
					<trkpt lat="45.879850" lon="4.559990">
						<ele>366</ele>
						<time>2025-08-15T14:03:13Z</time>
					</trkpt>
					<trkpt lat="45.879660" lon="4.559800">
						<ele>365</ele>
						<time>2025-08-15T14:03:17Z</time>
					</trkpt>
					<trkpt lat="45.879120" lon="4.559130">
						<ele>363</ele>
						<time>2025-08-15T14:03:30Z</time>
					</trkpt>
					<trkpt lat="45.878990" lon="4.558450">
						<ele>361</ele>
						<time>2025-08-15T14:03:39Z</time>
					</trkpt>
					<trkpt lat="45.878930" lon="4.557820">
						<ele>359</ele>
						<time>2025-08-15T14:03:47Z</time>
					</trkpt>
					<trkpt lat="45.878930" lon="4.557200">
						<ele>357</ele>
						<time>2025-08-15T14:03:54Z</time>
					</trkpt>
					<trkpt lat="45.878540" lon="4.556990">
						<ele>359</ele>
						<time>2025-08-15T14:04:02Z</time>
					</trkpt>
					<trkpt lat="45.876740" lon="4.555720">
						<ele>351</ele>
						<time>2025-08-15T14:04:37Z</time>
					</trkpt>
					<trkpt lat="45.875520" lon="4.554820">
						<ele>346</ele>
						<time>2025-08-15T14:05:02Z</time>
					</trkpt>
					<trkpt lat="45.872080" lon="4.552400">
						<ele>334</ele>
						<time>2025-08-15T14:06:10Z</time>
					</trkpt>
					<trkpt lat="45.867020" lon="4.546280">
						<ele>313</ele>
						<time>2025-08-15T14:08:08Z</time>
					</trkpt>
					<trkpt lat="45.866220" lon="4.545570">
						<ele>310</ele>
						<time>2025-08-15T14:08:24Z</time>
					</trkpt>
					<trkpt lat="45.865650" lon="4.545120">
						<ele>307</ele>
						<time>2025-08-15T14:08:36Z</time>
					</trkpt>
					<trkpt lat="45.865240" lon="4.544930">
						<ele>302</ele>
						<time>2025-08-15T14:08:44Z</time>
					</trkpt>
					<trkpt lat="45.864830" lon="4.544780">
						<ele>298</ele>
						<time>2025-08-15T14:08:51Z</time>
					</trkpt>
					<trkpt lat="45.863480" lon="4.544520">
						<ele>296</ele>
						<time>2025-08-15T14:09:15Z</time>
					</trkpt>
					<trkpt lat="45.862980" lon="4.544350">
						<ele>300</ele>
						<time>2025-08-15T14:09:25Z</time>
					</trkpt>
					<trkpt lat="45.862430" lon="4.544050">
						<ele>307</ele>
						<time>2025-08-15T14:09:35Z</time>
					</trkpt>
					<trkpt lat="45.862000" lon="4.543730">
						<ele>311</ele>
						<time>2025-08-15T14:09:44Z</time>
					</trkpt>
					<trkpt lat="45.861270" lon="4.543000">
						<ele>317</ele>
						<time>2025-08-15T14:10:00Z</time>
					</trkpt>
					<trkpt lat="45.861080" lon="4.542740">
						<ele>319</ele>
						<time>2025-08-15T14:10:04Z</time>
					</trkpt>
					<trkpt lat="45.860950" lon="4.542460">
						<ele>322</ele>
						<time>2025-08-15T14:10:08Z</time>
					</trkpt>
					<trkpt lat="45.861010" lon="4.542050">
						<ele>324</ele>
						<time>2025-08-15T14:10:14Z</time>
					</trkpt>
					<trkpt lat="45.861010" lon="4.541840">
						<ele>325</ele>
						<time>2025-08-15T14:10:16Z</time>
					</trkpt>
					<trkpt lat="45.860950" lon="4.541540">
						<ele>327</ele>
						<time>2025-08-15T14:10:20Z</time>
					</trkpt>
					<trkpt lat="45.860560" lon="4.539990">
						<ele>334</ele>
						<time>2025-08-15T14:10:40Z</time>
					</trkpt>
					<trkpt lat="45.860170" lon="4.538730">
						<ele>335</ele>
						<time>2025-08-15T14:10:58Z</time>
					</trkpt>
					<trkpt lat="45.859770" lon="4.536670">
						<ele>336</ele>
						<time>2025-08-15T14:11:24Z</time>
					</trkpt>
					<trkpt lat="45.859620" lon="4.536350">
						<ele>334</ele>
						<time>2025-08-15T14:11:29Z</time>
					</trkpt>
					<trkpt lat="45.859270" lon="4.535980">
						<ele>332</ele>
						<time>2025-08-15T14:11:37Z</time>
					</trkpt>
					<trkpt lat="45.858610" lon="4.535210">
						<ele>329</ele>
						<time>2025-08-15T14:11:52Z</time>
					</trkpt>
					<trkpt lat="45.858290" lon="4.534710">
						<ele>327</ele>
						<time>2025-08-15T14:12:00Z</time>
					</trkpt>
					<trkpt lat="45.858090" lon="4.534560">
						<ele>328</ele>
						<time>2025-08-15T14:12:04Z</time>
					</trkpt>
					<trkpt lat="45.857710" lon="4.534540">
						<ele>329</ele>
						<time>2025-08-15T14:12:11Z</time>
					</trkpt>
					<trkpt lat="45.856780" lon="4.534560">
						<ele>334</ele>
						<time>2025-08-15T14:12:27Z</time>
					</trkpt>
					<trkpt lat="45.856630" lon="4.534540">
						<ele>335</ele>
						<time>2025-08-15T14:12:30Z</time>
					</trkpt>
					<trkpt lat="45.854570" lon="4.533280">
						<ele>347</ele>
						<time>2025-08-15T14:13:10Z</time>
					</trkpt>
					<trkpt lat="45.854230" lon="4.533000">
						<ele>349</ele>
						<time>2025-08-15T14:13:17Z</time>
					</trkpt>
					<trkpt lat="45.852130" lon="4.529240">
						<ele>373</ele>
						<time>2025-08-15T14:14:17Z</time>
					</trkpt>
					<trkpt lat="45.851980" lon="4.529050">
						<ele>375</ele>
						<time>2025-08-15T14:14:20Z</time>
					</trkpt>
					<trkpt lat="45.851810" lon="4.529010">
						<ele>376</ele>
						<time>2025-08-15T14:14:23Z</time>
					</trkpt>
					<trkpt lat="45.851630" lon="4.529140">
						<ele>377</ele>
						<time>2025-08-15T14:14:27Z</time>
					</trkpt>
					<trkpt lat="45.851420" lon="4.530170">
						<ele>376</ele>
						<time>2025-08-15T14:14:40Z</time>
					</trkpt>
					<trkpt lat="45.851050" lon="4.531070">
						<ele>380</ele>
						<time>2025-08-15T14:14:53Z</time>
					</trkpt>
					<trkpt lat="45.850900" lon="4.531300">
						<ele>382</ele>
						<time>2025-08-15T14:14:57Z</time>
					</trkpt>
					<trkpt lat="45.850750" lon="4.531470">
						<ele>384</ele>
						<time>2025-08-15T14:15:00Z</time>
					</trkpt>
					<trkpt lat="45.850520" lon="4.531650">
						<ele>385</ele>
						<time>2025-08-15T14:15:05Z</time>
					</trkpt>
					<trkpt lat="45.849790" lon="4.531990">
						<ele>389</ele>
						<time>2025-08-15T14:15:19Z</time>
					</trkpt>
					<trkpt lat="45.849530" lon="4.532010">
						<ele>391</ele>
						<time>2025-08-15T14:15:23Z</time>
					</trkpt>
					<trkpt lat="45.849230" lon="4.531880">
						<ele>394</ele>
						<time>2025-08-15T14:15:29Z</time>
					</trkpt>
					<trkpt lat="45.848820" lon="4.531600">
						<ele>398</ele>
						<time>2025-08-15T14:15:37Z</time>
					</trkpt>
					<trkpt lat="45.848090" lon="4.531370">
						<ele>404</ele>
						<time>2025-08-15T14:15:50Z</time>
					</trkpt>
					<trkpt lat="45.847690" lon="4.531390">
						<ele>406</ele>
						<time>2025-08-15T14:15:57Z</time>
					</trkpt>
					<trkpt lat="45.847380" lon="4.531470">
						<ele>407</ele>
						<time>2025-08-15T14:16:03Z</time>
					</trkpt>
					<trkpt lat="45.847280" lon="4.531450">
						<ele>408</ele>
						<time>2025-08-15T14:16:05Z</time>
					</trkpt>
					<trkpt lat="45.847260" lon="4.531350">
						<ele>408</ele>
						<time>2025-08-15T14:16:06Z</time>
					</trkpt>
					<trkpt lat="45.847260" lon="4.530660">
						<ele>413</ele>
						<time>2025-08-15T14:16:15Z</time>
					</trkpt>
					<trkpt lat="45.848290" lon="4.530530">
						<ele>413</ele>
						<time>2025-08-15T14:16:33Z</time>
					</trkpt>
					<trkpt lat="45.848520" lon="4.530420">
						<ele>413</ele>
						<time>2025-08-15T14:16:37Z</time>
					</trkpt>
					<trkpt lat="45.848910" lon="4.529970">
						<ele>414</ele>
						<time>2025-08-15T14:16:46Z</time>
					</trkpt>
					<trkpt lat="45.849040" lon="4.529760">
						<ele>415</ele>
						<time>2025-08-15T14:16:50Z</time>
					</trkpt>
					<trkpt lat="45.849190" lon="4.529410">
						<ele>417</ele>
						<time>2025-08-15T14:16:55Z</time>
					</trkpt>
					<trkpt lat="45.849320" lon="4.529030">
						<ele>418</ele>
						<time>2025-08-15T14:17:00Z</time>
					</trkpt>
					<trkpt lat="45.849360" lon="4.528450">
						<ele>418</ele>
						<time>2025-08-15T14:17:07Z</time>
					</trkpt>
					<trkpt lat="45.849210" lon="4.526900">
						<ele>418</ele>
						<time>2025-08-15T14:17:27Z</time>
					</trkpt>
					<trkpt lat="45.849190" lon="4.526370">
						<ele>418</ele>
						<time>2025-08-15T14:17:33Z</time>
					</trkpt>
					<trkpt lat="45.849380" lon="4.525020">
						<ele>417</ele>
						<time>2025-08-15T14:17:50Z</time>
					</trkpt>
					<trkpt lat="45.849510" lon="4.524650">
						<ele>417</ele>
						<time>2025-08-15T14:17:56Z</time>
					</trkpt>
					<trkpt lat="45.849770" lon="4.524310">
						<ele>417</ele>
						<time>2025-08-15T14:18:02Z</time>
					</trkpt>
					<trkpt lat="45.850130" lon="4.524050">
						<ele>415</ele>
						<time>2025-08-15T14:18:09Z</time>
					</trkpt>
					<trkpt lat="45.850930" lon="4.523600">
						<ele>409</ele>
						<time>2025-08-15T14:18:24Z</time>
					</trkpt>
					<trkpt lat="45.851050" lon="4.523470">
						<ele>407</ele>
						<time>2025-08-15T14:18:27Z</time>
					</trkpt>
					<trkpt lat="45.851120" lon="4.523260">
						<ele>405</ele>
						<time>2025-08-15T14:18:30Z</time>
					</trkpt>
					<trkpt lat="45.851120" lon="4.522980">
						<ele>403</ele>
						<time>2025-08-15T14:18:33Z</time>
					</trkpt>
					<trkpt lat="45.850930" lon="4.521600">
						<ele>399</ele>
						<time>2025-08-15T14:18:51Z</time>
					</trkpt>
					<trkpt lat="45.850930" lon="4.521280">
						<ele>400</ele>
						<time>2025-08-15T14:18:55Z</time>
					</trkpt>
					<trkpt lat="45.850970" lon="4.521050">
						<ele>400</ele>
						<time>2025-08-15T14:18:58Z</time>
					</trkpt>
					<trkpt lat="45.851030" lon="4.520900">
						<ele>400</ele>
						<time>2025-08-15T14:19:00Z</time>
					</trkpt>
					<trkpt lat="45.851380" lon="4.520700">
						<ele>397</ele>
						<time>2025-08-15T14:19:06Z</time>
					</trkpt>
					<trkpt lat="45.851740" lon="4.520360">
						<ele>396</ele>
						<time>2025-08-15T14:19:14Z</time>
					</trkpt>
					<trkpt lat="45.851870" lon="4.520320">
						<ele>397</ele>
						<time>2025-08-15T14:19:16Z</time>
					</trkpt>
					<trkpt lat="45.852060" lon="4.520340">
						<ele>396</ele>
						<time>2025-08-15T14:19:20Z</time>
					</trkpt>
					<trkpt lat="45.852360" lon="4.520440">
						<ele>395</ele>
						<time>2025-08-15T14:19:25Z</time>
					</trkpt>
					<trkpt lat="45.853220" lon="4.520920">
						<ele>391</ele>
						<time>2025-08-15T14:19:42Z</time>
					</trkpt>
					<trkpt lat="45.853390" lon="4.520980">
						<ele>391</ele>
						<time>2025-08-15T14:19:45Z</time>
					</trkpt>
					<trkpt lat="45.853800" lon="4.521000">
						<ele>390</ele>
						<time>2025-08-15T14:19:52Z</time>
					</trkpt>
					<trkpt lat="45.853930" lon="4.520960">
						<ele>390</ele>
						<time>2025-08-15T14:19:55Z</time>
					</trkpt>
					<trkpt lat="45.854400" lon="4.520660">
						<ele>389</ele>
						<time>2025-08-15T14:20:04Z</time>
					</trkpt>
					<trkpt lat="45.854510" lon="4.520530">
						<ele>389</ele>
						<time>2025-08-15T14:20:06Z</time>
					</trkpt>
					<trkpt lat="45.855410" lon="4.518560">
						<ele>382</ele>
						<time>2025-08-15T14:20:35Z</time>
					</trkpt>
					<trkpt lat="45.855650" lon="4.517780">
						<ele>379</ele>
						<time>2025-08-15T14:20:46Z</time>
					</trkpt>
					<trkpt lat="45.855750" lon="4.517230">
						<ele>379</ele>
						<time>2025-08-15T14:20:53Z</time>
					</trkpt>
					<trkpt lat="45.855880" lon="4.516710">
						<ele>378</ele>
						<time>2025-08-15T14:21:00Z</time>
					</trkpt>
					<trkpt lat="45.856200" lon="4.516130">
						<ele>379</ele>
						<time>2025-08-15T14:21:09Z</time>
					</trkpt>
					<trkpt lat="45.857450" lon="4.514110">
						<ele>378</ele>
						<time>2025-08-15T14:21:43Z</time>
					</trkpt>
					<trkpt lat="45.857750" lon="4.513810">
						<ele>378</ele>
						<time>2025-08-15T14:21:49Z</time>
					</trkpt>
					<trkpt lat="45.857990" lon="4.513790">
						<ele>378</ele>
						<time>2025-08-15T14:21:53Z</time>
					</trkpt>
					<trkpt lat="45.858610" lon="4.514030">
						<ele>379</ele>
						<time>2025-08-15T14:22:05Z</time>
					</trkpt>
					<trkpt lat="45.858860" lon="4.514310">
						<ele>381</ele>
						<time>2025-08-15T14:22:10Z</time>
					</trkpt>
					<trkpt lat="45.859120" lon="4.514720">
						<ele>382</ele>
						<time>2025-08-15T14:22:17Z</time>
					</trkpt>
					<trkpt lat="45.859100" lon="4.514440">
						<ele>382</ele>
						<time>2025-08-15T14:22:21Z</time>
					</trkpt>
					<trkpt lat="45.858950" lon="4.513690">
						<ele>382</ele>
						<time>2025-08-15T14:22:30Z</time>
					</trkpt>
					<trkpt lat="45.858910" lon="4.512270">
						<ele>383</ele>
						<time>2025-08-15T14:22:48Z</time>
					</trkpt>
					<trkpt lat="45.858930" lon="4.511670">
						<ele>385</ele>
						<time>2025-08-15T14:22:55Z</time>
					</trkpt>
					<trkpt lat="45.858560" lon="4.510400">
						<ele>389</ele>
						<time>2025-08-15T14:23:13Z</time>
					</trkpt>
					<trkpt lat="45.858480" lon="4.509890">
						<ele>391</ele>
						<time>2025-08-15T14:23:19Z</time>
					</trkpt>
					<trkpt lat="45.857880" lon="4.508410">
						<ele>397</ele>
						<time>2025-08-15T14:23:40Z</time>
					</trkpt>
					<trkpt lat="45.857770" lon="4.507700">
						<ele>399</ele>
						<time>2025-08-15T14:23:49Z</time>
					</trkpt>
					<trkpt lat="45.857490" lon="4.506750">
						<ele>398</ele>
						<time>2025-08-15T14:24:02Z</time>
					</trkpt>
					<trkpt lat="45.857450" lon="4.506520">
						<ele>400</ele>
						<time>2025-08-15T14:24:05Z</time>
					</trkpt>
					<trkpt lat="45.857470" lon="4.506220">
						<ele>401</ele>
						<time>2025-08-15T14:24:09Z</time>
					</trkpt>
					<trkpt lat="45.857620" lon="4.505720">
						<ele>406</ele>
						<time>2025-08-15T14:24:15Z</time>
					</trkpt>
					<trkpt lat="45.857750" lon="4.505470">
						<ele>410</ele>
						<time>2025-08-15T14:24:19Z</time>
					</trkpt>
					<trkpt lat="45.857830" lon="4.504690">
						<ele>417</ele>
						<time>2025-08-15T14:24:29Z</time>
					</trkpt>
					<trkpt lat="45.857810" lon="4.504540">
						<ele>418</ele>
						<time>2025-08-15T14:24:31Z</time>
					</trkpt>
					<trkpt lat="45.857750" lon="4.504420">
						<ele>418</ele>
						<time>2025-08-15T14:24:33Z</time>
					</trkpt>
					<trkpt lat="45.857660" lon="4.504420">
						<ele>416</ele>
						<time>2025-08-15T14:24:34Z</time>
					</trkpt>
					<trkpt lat="45.857410" lon="4.504780">
						<ele>411</ele>
						<time>2025-08-15T14:24:41Z</time>
					</trkpt>
					<trkpt lat="45.857320" lon="4.504800">
						<ele>410</ele>
						<time>2025-08-15T14:24:42Z</time>
					</trkpt>
					<trkpt lat="45.857080" lon="4.504760">
						<ele>411</ele>
						<time>2025-08-15T14:24:47Z</time>
					</trkpt>
					<trkpt lat="45.856630" lon="4.504240">
						<ele>417</ele>
						<time>2025-08-15T14:24:57Z</time>
					</trkpt>
					<trkpt lat="45.856400" lon="4.504030">
						<ele>419</ele>
						<time>2025-08-15T14:25:02Z</time>
					</trkpt>
					<trkpt lat="45.856080" lon="4.503510">
						<ele>426</ele>
						<time>2025-08-15T14:25:10Z</time>
					</trkpt>
					<trkpt lat="45.855950" lon="4.503360">
						<ele>427</ele>
						<time>2025-08-15T14:25:13Z</time>
					</trkpt>
					<trkpt lat="45.855470" lon="4.503130">
						<ele>428</ele>
						<time>2025-08-15T14:25:22Z</time>
					</trkpt>
					<trkpt lat="45.855130" lon="4.502870">
						<ele>431</ele>
						<time>2025-08-15T14:25:29Z</time>
					</trkpt>
					<trkpt lat="45.854830" lon="4.502530">
						<ele>434</ele>
						<time>2025-08-15T14:25:36Z</time>
					</trkpt>
					<trkpt lat="45.854510" lon="4.502060">
						<ele>437</ele>
						<time>2025-08-15T14:25:44Z</time>
					</trkpt>
					<trkpt lat="45.854340" lon="4.501730">
						<ele>439</ele>
						<time>2025-08-15T14:25:49Z</time>
					</trkpt>
					<trkpt lat="45.853990" lon="4.501410">
						<ele>440</ele>
						<time>2025-08-15T14:25:57Z</time>
					</trkpt>
					<trkpt lat="45.853180" lon="4.500830">
						<ele>445</ele>
						<time>2025-08-15T14:26:13Z</time>
					</trkpt>
					<trkpt lat="45.852530" lon="4.500150">
						<ele>450</ele>
						<time>2025-08-15T14:26:27Z</time>
					</trkpt>
					<trkpt lat="45.851930" lon="4.500040">
						<ele>448</ele>
						<time>2025-08-15T14:26:38Z</time>
					</trkpt>
					<trkpt lat="45.851330" lon="4.499700">
						<ele>450</ele>
						<time>2025-08-15T14:26:49Z</time>
					</trkpt>
					<trkpt lat="45.850280" lon="4.498110">
						<ele>452</ele>
						<time>2025-08-15T14:27:16Z</time>
					</trkpt>
					<trkpt lat="45.850300" lon="4.498020">
						<ele>453</ele>
						<time>2025-08-15T14:27:18Z</time>
					</trkpt>
					<trkpt lat="45.850300" lon="4.497680">
						<ele>455</ele>
						<time>2025-08-15T14:27:22Z</time>
					</trkpt>
					<trkpt lat="45.850260" lon="4.497550">
						<ele>456</ele>
						<time>2025-08-15T14:27:24Z</time>
					</trkpt>
					<trkpt lat="45.849870" lon="4.497140">
						<ele>458</ele>
						<time>2025-08-15T14:27:32Z</time>
					</trkpt>
					<trkpt lat="45.849490" lon="4.496970">
						<ele>461</ele>
						<time>2025-08-15T14:27:39Z</time>
					</trkpt>
					<trkpt lat="45.849440" lon="4.496880">
						<ele>462</ele>
						<time>2025-08-15T14:27:41Z</time>
					</trkpt>
					<trkpt lat="45.849790" lon="4.496730">
						<ele>463</ele>
						<time>2025-08-15T14:27:47Z</time>
					</trkpt>
					<trkpt lat="45.849870" lon="4.496670">
						<ele>463</ele>
						<time>2025-08-15T14:27:49Z</time>
					</trkpt>
					<trkpt lat="45.849920" lon="4.496540">
						<ele>464</ele>
						<time>2025-08-15T14:27:51Z</time>
					</trkpt>
					<trkpt lat="45.849830" lon="4.495790">
						<ele>471</ele>
						<time>2025-08-15T14:28:00Z</time>
					</trkpt>
					<trkpt lat="45.849900" lon="4.495080">
						<ele>477</ele>
						<time>2025-08-15T14:28:09Z</time>
					</trkpt>
					<trkpt lat="45.850000" lon="4.494670">
						<ele>480</ele>
						<time>2025-08-15T14:28:14Z</time>
					</trkpt>
					<trkpt lat="45.850020" lon="4.494440">
						<ele>482</ele>
						<time>2025-08-15T14:28:17Z</time>
					</trkpt>
					<trkpt lat="45.849960" lon="4.494250">
						<ele>483</ele>
						<time>2025-08-15T14:28:20Z</time>
					</trkpt>
					<trkpt lat="45.849490" lon="4.493430">
						<ele>491</ele>
						<time>2025-08-15T14:28:33Z</time>
					</trkpt>
					<trkpt lat="45.849470" lon="4.493320">
						<ele>492</ele>
						<time>2025-08-15T14:28:34Z</time>
					</trkpt>
					<trkpt lat="45.849790" lon="4.493430">
						<ele>488</ele>
						<time>2025-08-15T14:28:40Z</time>
					</trkpt>
					<trkpt lat="45.849940" lon="4.493410">
						<ele>487</ele>
						<time>2025-08-15T14:28:43Z</time>
					</trkpt>
					<trkpt lat="45.850130" lon="4.493280">
						<ele>486</ele>
						<time>2025-08-15T14:28:47Z</time>
					</trkpt>
					<trkpt lat="45.850260" lon="4.493040">
						<ele>486</ele>
						<time>2025-08-15T14:28:50Z</time>
					</trkpt>
					<trkpt lat="45.850320" lon="4.492490">
						<ele>485</ele>
						<time>2025-08-15T14:28:57Z</time>
					</trkpt>
					<trkpt lat="45.850390" lon="4.492270">
						<ele>485</ele>
						<time>2025-08-15T14:29:00Z</time>
					</trkpt>
					<trkpt lat="45.850710" lon="4.491880">
						<ele>481</ele>
						<time>2025-08-15T14:29:08Z</time>
					</trkpt>
					<trkpt lat="45.851010" lon="4.491610">
						<ele>477</ele>
						<time>2025-08-15T14:29:14Z</time>
					</trkpt>
					<trkpt lat="45.851160" lon="4.491370">
						<ele>476</ele>
						<time>2025-08-15T14:29:18Z</time>
					</trkpt>
					<trkpt lat="45.851480" lon="4.490660">
						<ele>473</ele>
						<time>2025-08-15T14:29:29Z</time>
					</trkpt>
					<trkpt lat="45.852040" lon="4.489970">
						<ele>467</ele>
						<time>2025-08-15T14:29:42Z</time>
					</trkpt>
					<trkpt lat="45.852210" lon="4.489630">
						<ele>466</ele>
						<time>2025-08-15T14:29:47Z</time>
					</trkpt>
					<trkpt lat="45.852880" lon="4.487460">
						<ele>456</ele>
						<time>2025-08-15T14:30:16Z</time>
					</trkpt>
					<trkpt lat="45.853010" lon="4.486890">
						<ele>454</ele>
						<time>2025-08-15T14:30:24Z</time>
					</trkpt>
					<trkpt lat="45.852960" lon="4.485470">
						<ele>453</ele>
						<time>2025-08-15T14:30:41Z</time>
					</trkpt>
					<trkpt lat="45.852900" lon="4.484930">
						<ele>451</ele>
						<time>2025-08-15T14:30:48Z</time>
					</trkpt>
					<trkpt lat="45.852790" lon="4.484440">
						<ele>448</ele>
						<time>2025-08-15T14:30:54Z</time>
					</trkpt>
					<trkpt lat="45.852470" lon="4.483390">
						<ele>445</ele>
						<time>2025-08-15T14:31:09Z</time>
					</trkpt>
					<trkpt lat="45.852510" lon="4.483000">
						<ele>444</ele>
						<time>2025-08-15T14:31:14Z</time>
					</trkpt>
					<trkpt lat="45.852580" lon="4.482790">
						<ele>443</ele>
						<time>2025-08-15T14:31:16Z</time>
					</trkpt>
					<trkpt lat="45.852750" lon="4.482570">
						<ele>441</ele>
						<time>2025-08-15T14:31:21Z</time>
					</trkpt>
					<trkpt lat="45.852990" lon="4.482340">
						<ele>439</ele>
						<time>2025-08-15T14:31:26Z</time>
					</trkpt>
					<trkpt lat="45.853160" lon="4.482080">
						<ele>438</ele>
						<time>2025-08-15T14:31:30Z</time>
					</trkpt>
					<trkpt lat="45.853330" lon="4.481630">
						<ele>437</ele>
						<time>2025-08-15T14:31:36Z</time>
					</trkpt>
					<trkpt lat="45.853480" lon="4.481070">
						<ele>434</ele>
						<time>2025-08-15T14:31:44Z</time>
					</trkpt>
					<trkpt lat="45.853520" lon="4.480680">
						<ele>432</ele>
						<time>2025-08-15T14:31:49Z</time>
					</trkpt>
					<trkpt lat="45.853520" lon="4.480380">
						<ele>431</ele>
						<time>2025-08-15T14:31:52Z</time>
					</trkpt>
					<trkpt lat="45.853390" lon="4.479480">
						<ele>425</ele>
						<time>2025-08-15T14:32:04Z</time>
					</trkpt>
					<trkpt lat="45.853260" lon="4.479120">
						<ele>422</ele>
						<time>2025-08-15T14:32:09Z</time>
					</trkpt>
					<trkpt lat="45.853070" lon="4.478970">
						<ele>422</ele>
						<time>2025-08-15T14:32:13Z</time>
					</trkpt>
					<trkpt lat="45.852730" lon="4.478840">
						<ele>422</ele>
						<time>2025-08-15T14:32:19Z</time>
					</trkpt>
					<trkpt lat="45.852210" lon="4.478920">
						<ele>426</ele>
						<time>2025-08-15T14:32:28Z</time>
					</trkpt>
					<trkpt lat="45.852080" lon="4.478920">
						<ele>426</ele>
						<time>2025-08-15T14:32:31Z</time>
					</trkpt>
					<trkpt lat="45.852000" lon="4.478880">
						<ele>426</ele>
						<time>2025-08-15T14:32:32Z</time>
					</trkpt>
					<trkpt lat="45.851910" lon="4.478580">
						<ele>424</ele>
						<time>2025-08-15T14:32:36Z</time>
					</trkpt>
					<trkpt lat="45.851910" lon="4.478280">
						<ele>422</ele>
						<time>2025-08-15T14:32:40Z</time>
					</trkpt>
					<trkpt lat="45.852000" lon="4.477980">
						<ele>421</ele>
						<time>2025-08-15T14:32:44Z</time>
					</trkpt>
					<trkpt lat="45.852110" lon="4.477830">
						<ele>421</ele>
						<time>2025-08-15T14:32:47Z</time>
					</trkpt>
					<trkpt lat="45.852190" lon="4.477770">
						<ele>420</ele>
						<time>2025-08-15T14:32:48Z</time>
					</trkpt>
					<trkpt lat="45.852880" lon="4.477850">
						<ele>418</ele>
						<time>2025-08-15T14:33:01Z</time>
					</trkpt>
					<trkpt lat="45.853350" lon="4.477770">
						<ele>418</ele>
						<time>2025-08-15T14:33:09Z</time>
					</trkpt>
					<trkpt lat="45.853740" lon="4.477920">
						<ele>415</ele>
						<time>2025-08-15T14:33:16Z</time>
					</trkpt>
					<trkpt lat="45.854490" lon="4.478320">
						<ele>406</ele>
						<time>2025-08-15T14:33:30Z</time>
					</trkpt>
					<trkpt lat="45.855730" lon="4.479050">
						<ele>397</ele>
						<time>2025-08-15T14:33:54Z</time>
					</trkpt>
					<trkpt lat="45.856200" lon="4.479120">
						<ele>393</ele>
						<time>2025-08-15T14:34:03Z</time>
					</trkpt>
					<trkpt lat="45.856530" lon="4.479120">
						<ele>390</ele>
						<time>2025-08-15T14:34:09Z</time>
					</trkpt>
					<trkpt lat="45.856780" lon="4.479030">
						<ele>388</ele>
						<time>2025-08-15T14:34:13Z</time>
					</trkpt>
					<trkpt lat="45.857320" lon="4.478710">
						<ele>383</ele>
						<time>2025-08-15T14:34:23Z</time>
					</trkpt>
					<trkpt lat="45.857470" lon="4.478560">
						<ele>382</ele>
						<time>2025-08-15T14:34:27Z</time>
					</trkpt>
					<trkpt lat="45.857530" lon="4.478450">
						<ele>383</ele>
						<time>2025-08-15T14:34:28Z</time>
					</trkpt>
					<trkpt lat="45.857560" lon="4.478300">
						<ele>383</ele>
						<time>2025-08-15T14:34:30Z</time>
					</trkpt>
					<trkpt lat="45.857510" lon="4.477920">
						<ele>381</ele>
						<time>2025-08-15T14:34:35Z</time>
					</trkpt>
					<trkpt lat="45.857230" lon="4.477210">
						<ele>382</ele>
						<time>2025-08-15T14:34:45Z</time>
					</trkpt>
					<trkpt lat="45.857230" lon="4.475680">
						<ele>378</ele>
						<time>2025-08-15T14:35:04Z</time>
					</trkpt>
					<trkpt lat="45.857000" lon="4.474680">
						<ele>382</ele>
						<time>2025-08-15T14:35:17Z</time>
					</trkpt>
					<trkpt lat="45.857040" lon="4.474440">
						<ele>382</ele>
						<time>2025-08-15T14:35:20Z</time>
					</trkpt>
					<trkpt lat="45.858890" lon="4.470490">
						<ele>394</ele>
						<time>2025-08-15T14:36:19Z</time>
					</trkpt>
					<trkpt lat="45.859120" lon="4.469700">
						<ele>386</ele>
						<time>2025-08-15T14:36:30Z</time>
					</trkpt>
					<trkpt lat="45.859510" lon="4.469870">
						<ele>385</ele>
						<time>2025-08-15T14:36:37Z</time>
					</trkpt>
					<trkpt lat="45.859770" lon="4.469950">
						<ele>385</ele>
						<time>2025-08-15T14:36:42Z</time>
					</trkpt>
					<trkpt lat="45.859620" lon="4.468170">
						<ele>390</ele>
						<time>2025-08-15T14:37:04Z</time>
					</trkpt>
					<trkpt lat="45.859530" lon="4.467850">
						<ele>390</ele>
						<time>2025-08-15T14:37:08Z</time>
					</trkpt>
					<trkpt lat="45.859940" lon="4.465040">
						<ele>401</ele>
						<time>2025-08-15T14:37:44Z</time>
					</trkpt>
					<trkpt lat="45.860130" lon="4.464290">
						<ele>404</ele>
						<time>2025-08-15T14:37:54Z</time>
					</trkpt>
					<trkpt lat="45.860770" lon="4.462530">
						<ele>409</ele>
						<time>2025-08-15T14:38:19Z</time>
					</trkpt>
					<trkpt lat="45.861290" lon="4.461800">
						<ele>416</ele>
						<time>2025-08-15T14:38:31Z</time>
					</trkpt>
					<trkpt lat="45.861890" lon="4.460790">
						<ele>418</ele>
						<time>2025-08-15T14:38:48Z</time>
					</trkpt>
					<trkpt lat="45.862900" lon="4.459590">
						<ele>424</ele>
						<time>2025-08-15T14:39:11Z</time>
					</trkpt>
					<trkpt lat="45.863310" lon="4.459180">
						<ele>424</ele>
						<time>2025-08-15T14:39:20Z</time>
					</trkpt>
					<trkpt lat="45.863480" lon="4.458630">
						<ele>425</ele>
						<time>2025-08-15T14:39:28Z</time>
					</trkpt>
					<trkpt lat="45.863970" lon="4.456820">
						<ele>432</ele>
						<time>2025-08-15T14:39:52Z</time>
					</trkpt>
					<trkpt lat="45.864060" lon="4.456160">
						<ele>434</ele>
						<time>2025-08-15T14:40:00Z</time>
					</trkpt>
					<trkpt lat="45.863930" lon="4.453710">
						<ele>450</ele>
						<time>2025-08-15T14:40:30Z</time>
					</trkpt>
					<trkpt lat="45.863860" lon="4.453370">
						<ele>450</ele>
						<time>2025-08-15T14:40:35Z</time>
					</trkpt>
					<trkpt lat="45.863650" lon="4.452620">
						<ele>448</ele>
						<time>2025-08-15T14:40:45Z</time>
					</trkpt>
					<trkpt lat="45.863030" lon="4.451420">
						<ele>452</ele>
						<time>2025-08-15T14:41:03Z</time>
					</trkpt>
					<trkpt lat="45.862640" lon="4.450860">
						<ele>456</ele>
						<time>2025-08-15T14:41:13Z</time>
					</trkpt>
					<trkpt lat="45.862190" lon="4.450410">
						<ele>463</ele>
						<time>2025-08-15T14:41:23Z</time>
					</trkpt>
					<trkpt lat="45.862020" lon="4.450150">
						<ele>464</ele>
						<time>2025-08-15T14:41:27Z</time>
					</trkpt>
					<trkpt lat="45.861950" lon="4.450020">
						<ele>463</ele>
						<time>2025-08-15T14:41:29Z</time>
					</trkpt>
					<trkpt lat="45.861550" lon="4.448970">
						<ele>469</ele>
						<time>2025-08-15T14:41:44Z</time>
					</trkpt>
					<trkpt lat="45.861310" lon="4.448540">
						<ele>472</ele>
						<time>2025-08-15T14:41:51Z</time>
					</trkpt>
					<trkpt lat="45.860600" lon="4.447620">
						<ele>482</ele>
						<time>2025-08-15T14:42:08Z</time>
					</trkpt>
					<trkpt lat="45.860020" lon="4.446310">
						<ele>490</ele>
						<time>2025-08-15T14:42:27Z</time>
					</trkpt>
					<trkpt lat="45.859960" lon="4.445920">
						<ele>495</ele>
						<time>2025-08-15T14:42:32Z</time>
					</trkpt>
					<trkpt lat="45.859770" lon="4.445040">
						<ele>503</ele>
						<time>2025-08-15T14:42:44Z</time>
					</trkpt>
					<trkpt lat="45.859720" lon="4.444310">
						<ele>507</ele>
						<time>2025-08-15T14:42:53Z</time>
					</trkpt>
					<trkpt lat="45.859830" lon="4.442940">
						<ele>513</ele>
						<time>2025-08-15T14:43:10Z</time>
					</trkpt>
					<trkpt lat="45.859570" lon="4.442080">
						<ele>514</ele>
						<time>2025-08-15T14:43:21Z</time>
					</trkpt>
					<trkpt lat="45.859230" lon="4.441390">
						<ele>511</ele>
						<time>2025-08-15T14:43:32Z</time>
					</trkpt>
					<trkpt lat="45.859080" lon="4.440430">
						<ele>520</ele>
						<time>2025-08-15T14:43:44Z</time>
					</trkpt>
					<trkpt lat="45.858460" lon="4.437880">
						<ele>526</ele>
						<time>2025-08-15T14:44:18Z</time>
					</trkpt>
					<trkpt lat="45.858390" lon="4.437360">
						<ele>527</ele>
						<time>2025-08-15T14:44:24Z</time>
					</trkpt>
					<trkpt lat="45.858460" lon="4.437000">
						<ele>530</ele>
						<time>2025-08-15T14:44:29Z</time>
					</trkpt>
					<trkpt lat="45.858740" lon="4.436270">
						<ele>539</ele>
						<time>2025-08-15T14:44:39Z</time>
					</trkpt>
					<trkpt lat="45.858970" lon="4.434940">
						<ele>545</ele>
						<time>2025-08-15T14:44:56Z</time>
					</trkpt>
					<trkpt lat="45.859060" lon="4.434570">
						<ele>546</ele>
						<time>2025-08-15T14:45:01Z</time>
					</trkpt>
					<trkpt lat="45.859830" lon="4.432380">
						<ele>557</ele>
						<time>2025-08-15T14:45:31Z</time>
					</trkpt>
					<trkpt lat="45.859960" lon="4.432150">
						<ele>557</ele>
						<time>2025-08-15T14:45:35Z</time>
					</trkpt>
					<trkpt lat="45.860240" lon="4.431850">
						<ele>560</ele>
						<time>2025-08-15T14:45:41Z</time>
					</trkpt>
					<trkpt lat="45.860730" lon="4.431550">
						<ele>566</ele>
						<time>2025-08-15T14:45:51Z</time>
					</trkpt>
					<trkpt lat="45.861440" lon="4.431160">
						<ele>575</ele>
						<time>2025-08-15T14:46:04Z</time>
					</trkpt>
					<trkpt lat="45.861550" lon="4.431070">
						<ele>576</ele>
						<time>2025-08-15T14:46:06Z</time>
					</trkpt>
					<trkpt lat="45.861610" lon="4.430900">
						<ele>575</ele>
						<time>2025-08-15T14:46:09Z</time>
					</trkpt>
					<trkpt lat="45.861590" lon="4.430750">
						<ele>576</ele>
						<time>2025-08-15T14:46:11Z</time>
					</trkpt>
					<trkpt lat="45.861480" lon="4.430640">
						<ele>578</ele>
						<time>2025-08-15T14:46:13Z</time>
					</trkpt>
					<trkpt lat="45.861140" lon="4.430640">
						<ele>574</ele>
						<time>2025-08-15T14:46:19Z</time>
					</trkpt>
					<trkpt lat="45.860900" lon="4.430540">
						<ele>573</ele>
						<time>2025-08-15T14:46:24Z</time>
					</trkpt>
					<trkpt lat="45.860800" lon="4.430410">
						<ele>574</ele>
						<time>2025-08-15T14:46:26Z</time>
					</trkpt>
					<trkpt lat="45.860730" lon="4.430260">
						<ele>575</ele>
						<time>2025-08-15T14:46:28Z</time>
					</trkpt>
					<trkpt lat="45.860670" lon="4.429980">
						<ele>578</ele>
						<time>2025-08-15T14:46:32Z</time>
					</trkpt>
					<trkpt lat="45.860500" lon="4.428670">
						<ele>586</ele>
						<time>2025-08-15T14:46:48Z</time>
					</trkpt>
					<trkpt lat="45.860600" lon="4.427730">
						<ele>593</ele>
						<time>2025-08-15T14:47:00Z</time>
					</trkpt>
					<trkpt lat="45.860580" lon="4.427340">
						<ele>594</ele>
						<time>2025-08-15T14:47:05Z</time>
					</trkpt>
					<trkpt lat="45.860170" lon="4.425950">
						<ele>600</ele>
						<time>2025-08-15T14:47:24Z</time>
					</trkpt>
					<trkpt lat="45.859740" lon="4.424790">
						<ele>610</ele>
						<time>2025-08-15T14:47:40Z</time>
					</trkpt>
					<trkpt lat="45.859530" lon="4.423820">
						<ele>615</ele>
						<time>2025-08-15T14:47:53Z</time>
					</trkpt>
					<trkpt lat="45.859420" lon="4.422860">
						<ele>620</ele>
						<time>2025-08-15T14:48:05Z</time>
					</trkpt>
					<trkpt lat="45.859440" lon="4.422680">
						<ele>623</ele>
						<time>2025-08-15T14:48:07Z</time>
					</trkpt>
					<trkpt lat="45.859400" lon="4.422430">
						<ele>624</ele>
						<time>2025-08-15T14:48:10Z</time>
					</trkpt>
					<trkpt lat="45.858670" lon="4.419440">
						<ele>652</ele>
						<time>2025-08-15T14:48:49Z</time>
					</trkpt>
					<trkpt lat="45.858630" lon="4.419340">
						<ele>651</ele>
						<time>2025-08-15T14:48:51Z</time>
					</trkpt>
					<trkpt lat="45.858540" lon="4.419360">
						<ele>649</ele>
						<time>2025-08-15T14:48:52Z</time>
					</trkpt>
					<trkpt lat="45.858480" lon="4.419490">
						<ele>647</ele>
						<time>2025-08-15T14:48:54Z</time>
					</trkpt>
					<trkpt lat="45.857790" lon="4.422980">
						<ele>654</ele>
						<time>2025-08-15T14:49:39Z</time>
					</trkpt>
					<trkpt lat="45.857710" lon="4.423280">
						<ele>657</ele>
						<time>2025-08-15T14:49:43Z</time>
					</trkpt>
					<trkpt lat="45.857560" lon="4.423500">
						<ele>662</ele>
						<time>2025-08-15T14:49:47Z</time>
					</trkpt>
					<trkpt lat="45.857380" lon="4.423650">
						<ele>667</ele>
						<time>2025-08-15T14:49:51Z</time>
					</trkpt>
					<trkpt lat="45.857190" lon="4.423890">
						<ele>670</ele>
						<time>2025-08-15T14:49:55Z</time>
					</trkpt>
					<trkpt lat="45.857170" lon="4.423990">
						<ele>669</ele>
						<time>2025-08-15T14:49:57Z</time>
					</trkpt>
					<trkpt lat="45.857210" lon="4.424960">
						<ele>665</ele>
						<time>2025-08-15T14:50:09Z</time>
					</trkpt>
					<trkpt lat="45.857300" lon="4.425640">
						<ele>663</ele>
						<time>2025-08-15T14:50:17Z</time>
					</trkpt>
					<trkpt lat="45.857320" lon="4.426030">
						<ele>663</ele>
						<time>2025-08-15T14:50:22Z</time>
					</trkpt>
					<trkpt lat="45.857300" lon="4.426550">
						<ele>664</ele>
						<time>2025-08-15T14:50:28Z</time>
					</trkpt>
					<trkpt lat="45.857230" lon="4.426780">
						<ele>665</ele>
						<time>2025-08-15T14:50:32Z</time>
					</trkpt>
					<trkpt lat="45.857110" lon="4.427150">
						<ele>666</ele>
						<time>2025-08-15T14:50:37Z</time>
					</trkpt>
					<trkpt lat="45.856160" lon="4.428310">
						<ele>680</ele>
						<time>2025-08-15T14:50:59Z</time>
					</trkpt>
					<trkpt lat="45.855900" lon="4.428710">
						<ele>683</ele>
						<time>2025-08-15T14:51:06Z</time>
					</trkpt>
					<trkpt lat="45.855690" lon="4.429440">
						<ele>679</ele>
						<time>2025-08-15T14:51:15Z</time>
					</trkpt>
					<trkpt lat="45.855520" lon="4.429870">
						<ele>677</ele>
						<time>2025-08-15T14:51:22Z</time>
					</trkpt>
					<trkpt lat="45.855240" lon="4.430260">
						<ele>676</ele>
						<time>2025-08-15T14:51:28Z</time>
					</trkpt>
					<trkpt lat="45.855150" lon="4.430300">
						<ele>676</ele>
						<time>2025-08-15T14:51:30Z</time>
					</trkpt>
					<trkpt lat="45.854920" lon="4.430240">
						<ele>679</ele>
						<time>2025-08-15T14:51:34Z</time>
					</trkpt>
					<trkpt lat="45.854740" lon="4.430070">
						<ele>680</ele>
						<time>2025-08-15T14:51:38Z</time>
					</trkpt>
					<trkpt lat="45.854530" lon="4.429700">
						<ele>685</ele>
						<time>2025-08-15T14:51:44Z</time>
					</trkpt>
					<trkpt lat="45.854250" lon="4.429120">
						<ele>696</ele>
						<time>2025-08-15T14:51:53Z</time>
					</trkpt>
					<trkpt lat="45.853820" lon="4.428500">
						<ele>704</ele>
						<time>2025-08-15T14:52:04Z</time>
					</trkpt>
					<trkpt lat="45.853500" lon="4.428110">
						<ele>707</ele>
						<time>2025-08-15T14:52:11Z</time>
					</trkpt>
					<trkpt lat="45.853350" lon="4.428050">
						<ele>706</ele>
						<time>2025-08-15T14:52:14Z</time>
					</trkpt>
					<trkpt lat="45.853220" lon="4.428070">
						<ele>707</ele>
						<time>2025-08-15T14:52:16Z</time>
					</trkpt>
					<trkpt lat="45.852960" lon="4.428180">
						<ele>708</ele>
						<time>2025-08-15T14:52:21Z</time>
					</trkpt>
					<trkpt lat="45.851570" lon="4.428950">
						<ele>717</ele>
						<time>2025-08-15T14:52:48Z</time>
					</trkpt>
					<trkpt lat="45.851030" lon="4.429100">
						<ele>722</ele>
						<time>2025-08-15T14:52:57Z</time>
					</trkpt>
					<trkpt lat="45.850860" lon="4.429190">
						<ele>722</ele>
						<time>2025-08-15T14:53:01Z</time>
					</trkpt>
					<trkpt lat="45.850450" lon="4.429640">
						<ele>719</ele>
						<time>2025-08-15T14:53:10Z</time>
					</trkpt>
					<trkpt lat="45.849960" lon="4.430340">
						<ele>720</ele>
						<time>2025-08-15T14:53:22Z</time>
					</trkpt>
					<trkpt lat="45.849790" lon="4.430520">
						<ele>719</ele>
						<time>2025-08-15T14:53:26Z</time>
					</trkpt>
					<trkpt lat="45.849380" lon="4.430790">
						<ele>718</ele>
						<time>2025-08-15T14:53:34Z</time>
					</trkpt>
					<trkpt lat="45.849140" lon="4.430860">
						<ele>719</ele>
						<time>2025-08-15T14:53:38Z</time>
					</trkpt>
					<trkpt lat="45.848990" lon="4.430840">
						<ele>718</ele>
						<time>2025-08-15T14:53:41Z</time>
					</trkpt>
					<trkpt lat="45.848800" lon="4.430730">
						<ele>718</ele>
						<time>2025-08-15T14:53:45Z</time>
					</trkpt>
					<trkpt lat="45.848440" lon="4.429980">
						<ele>724</ele>
						<time>2025-08-15T14:53:56Z</time>
					</trkpt>
					<trkpt lat="45.848180" lon="4.429270">
						<ele>730</ele>
						<time>2025-08-15T14:54:06Z</time>
					</trkpt>
					<trkpt lat="45.847770" lon="4.428780">
						<ele>732</ele>
						<time>2025-08-15T14:54:15Z</time>
					</trkpt>
					<trkpt lat="45.847690" lon="4.428730">
						<ele>732</ele>
						<time>2025-08-15T14:54:17Z</time>
					</trkpt>
					<trkpt lat="45.846720" lon="4.428520">
						<ele>730</ele>
						<time>2025-08-15T14:54:34Z</time>
					</trkpt>
					<trkpt lat="45.846330" lon="4.428220">
						<ele>729</ele>
						<time>2025-08-15T14:54:42Z</time>
					</trkpt>
					<trkpt lat="45.846050" lon="4.427340">
						<ele>727</ele>
						<time>2025-08-15T14:54:54Z</time>
					</trkpt>
					<trkpt lat="45.845970" lon="4.426420">
						<ele>727</ele>
						<time>2025-08-15T14:55:06Z</time>
					</trkpt>
					<trkpt lat="45.846100" lon="4.424570">
						<ele>733</ele>
						<time>2025-08-15T14:55:29Z</time>
					</trkpt>
					<trkpt lat="45.846100" lon="4.424290">
						<ele>734</ele>
						<time>2025-08-15T14:55:32Z</time>
					</trkpt>
					<trkpt lat="45.845990" lon="4.423990">
						<ele>735</ele>
						<time>2025-08-15T14:55:36Z</time>
					</trkpt>
					<trkpt lat="45.845880" lon="4.423950">
						<ele>733</ele>
						<time>2025-08-15T14:55:38Z</time>
					</trkpt>
					<trkpt lat="45.845520" lon="4.424140">
						<ele>730</ele>
						<time>2025-08-15T14:55:45Z</time>
					</trkpt>
					<trkpt lat="45.845220" lon="4.424210">
						<ele>729</ele>
						<time>2025-08-15T14:55:51Z</time>
					</trkpt>
					<trkpt lat="45.844790" lon="4.424120">
						<ele>734</ele>
						<time>2025-08-15T14:55:58Z</time>
					</trkpt>
					<trkpt lat="45.844400" lon="4.423970">
						<ele>740</ele>
						<time>2025-08-15T14:56:05Z</time>
					</trkpt>
					<trkpt lat="45.844100" lon="4.424040">
						<ele>741</ele>
						<time>2025-08-15T14:56:11Z</time>
					</trkpt>
					<trkpt lat="45.843890" lon="4.424140">
						<ele>745</ele>
						<time>2025-08-15T14:56:15Z</time>
					</trkpt>
					<trkpt lat="45.843370" lon="4.424590">
						<ele>748</ele>
						<time>2025-08-15T14:56:26Z</time>
					</trkpt>
					<trkpt lat="45.841930" lon="4.426030">
						<ele>752</ele>
						<time>2025-08-15T14:56:57Z</time>
					</trkpt>
					<trkpt lat="45.841480" lon="4.426610">
						<ele>751</ele>
						<time>2025-08-15T14:57:08Z</time>
					</trkpt>
					<trkpt lat="45.841250" lon="4.426720">
						<ele>750</ele>
						<time>2025-08-15T14:57:12Z</time>
					</trkpt>
					<trkpt lat="45.841140" lon="4.426720">
						<ele>750</ele>
						<time>2025-08-15T14:57:14Z</time>
					</trkpt>
					<trkpt lat="45.841010" lon="4.426630">
						<ele>752</ele>
						<time>2025-08-15T14:57:16Z</time>
					</trkpt>
					<trkpt lat="45.840710" lon="4.426180">
						<ele>756</ele>
						<time>2025-08-15T14:57:24Z</time>
					</trkpt>
					<trkpt lat="45.840410" lon="4.425430">
						<ele>764</ele>
						<time>2025-08-15T14:57:35Z</time>
					</trkpt>
					<trkpt lat="45.839770" lon="4.424190">
						<ele>774</ele>
						<time>2025-08-15T14:57:54Z</time>
					</trkpt>
					<trkpt lat="45.839570" lon="4.423710">
						<ele>775</ele>
						<time>2025-08-15T14:58:01Z</time>
					</trkpt>
					<trkpt lat="45.839380" lon="4.422550">
						<ele>781</ele>
						<time>2025-08-15T14:58:16Z</time>
					</trkpt>
					<trkpt lat="45.839300" lon="4.421500">
						<ele>789</ele>
						<time>2025-08-15T14:58:29Z</time>
					</trkpt>
					<trkpt lat="45.839170" lon="4.420240">
						<ele>791</ele>
						<time>2025-08-15T14:58:45Z</time>
					</trkpt>
					<trkpt lat="45.839170" lon="4.419890">
						<ele>792</ele>
						<time>2025-08-15T14:58:49Z</time>
					</trkpt>
					<trkpt lat="45.839270" lon="4.419190">
						<ele>797</ele>
						<time>2025-08-15T14:58:58Z</time>
					</trkpt>
					<trkpt lat="45.839400" lon="4.418860">
						<ele>797</ele>
						<time>2025-08-15T14:59:03Z</time>
					</trkpt>
					<trkpt lat="45.840580" lon="4.417640">
						<ele>804</ele>
						<time>2025-08-15T14:59:28Z</time>
					</trkpt>
					<trkpt lat="45.840880" lon="4.416930">
						<ele>801</ele>
						<time>2025-08-15T14:59:39Z</time>
					</trkpt>
					<trkpt lat="45.841010" lon="4.416460">
						<ele>803</ele>
						<time>2025-08-15T14:59:45Z</time>
					</trkpt>
					<trkpt lat="45.841030" lon="4.416250">
						<ele>804</ele>
						<time>2025-08-15T14:59:48Z</time>
					</trkpt>
					<trkpt lat="45.840990" lon="4.415990">
						<ele>803</ele>
						<time>2025-08-15T14:59:51Z</time>
					</trkpt>
					<trkpt lat="45.840860" lon="4.415620">
						<ele>800</ele>
						<time>2025-08-15T14:59:56Z</time>
					</trkpt>
					<trkpt lat="45.840540" lon="4.415240">
						<ele>791</ele>
						<time>2025-08-15T15:00:03Z</time>
					</trkpt>
					<trkpt lat="45.840500" lon="4.415110">
						<ele>790</ele>
						<time>2025-08-15T15:00:05Z</time>
					</trkpt>
					<trkpt lat="45.840480" lon="4.414890">
						<ele>790</ele>
						<time>2025-08-15T15:00:08Z</time>
					</trkpt>
					<trkpt lat="45.840650" lon="4.414100">
						<ele>790</ele>
						<time>2025-08-15T15:00:18Z</time>
					</trkpt>
					<trkpt lat="45.841270" lon="4.411740">
						<ele>788</ele>
						<time>2025-08-15T15:00:49Z</time>
					</trkpt>
					<trkpt lat="45.841400" lon="4.411480">
						<ele>788</ele>
						<time>2025-08-15T15:00:53Z</time>
					</trkpt>
					<trkpt lat="45.842430" lon="4.410220">
						<ele>790</ele>
						<time>2025-08-15T15:01:17Z</time>
					</trkpt>
					<trkpt lat="45.843010" lon="4.409400">
						<ele>789</ele>
						<time>2025-08-15T15:01:32Z</time>
					</trkpt>
					<trkpt lat="45.843330" lon="4.408860">
						<ele>787</ele>
						<time>2025-08-15T15:01:41Z</time>
					</trkpt>
					<trkpt lat="45.843910" lon="4.407640">
						<ele>785</ele>
						<time>2025-08-15T15:01:59Z</time>
					</trkpt>
					<trkpt lat="45.844020" lon="4.406760">
						<ele>780</ele>
						<time>2025-08-15T15:02:10Z</time>
					</trkpt>
					<trkpt lat="45.844120" lon="4.406480">
						<ele>779</ele>
						<time>2025-08-15T15:02:14Z</time>
					</trkpt>
					<trkpt lat="45.843990" lon="4.405800">
						<ele>772</ele>
						<time>2025-08-15T15:02:23Z</time>
					</trkpt>
					<trkpt lat="45.844300" lon="4.405520">
						<ele>777</ele>
						<time>2025-08-15T15:02:29Z</time>
					</trkpt>
					<trkpt lat="45.844380" lon="4.405390">
						<ele>779</ele>
						<time>2025-08-15T15:02:31Z</time>
					</trkpt>
					<trkpt lat="45.844490" lon="4.405020">
						<ele>781</ele>
						<time>2025-08-15T15:02:36Z</time>
					</trkpt>
					<trkpt lat="45.844530" lon="4.404590">
						<ele>784</ele>
						<time>2025-08-15T15:02:42Z</time>
					</trkpt>
					<trkpt lat="45.844450" lon="4.403500">
						<ele>787</ele>
						<time>2025-08-15T15:02:55Z</time>
					</trkpt>
					<trkpt lat="45.844490" lon="4.403090">
						<ele>788</ele>
						<time>2025-08-15T15:03:01Z</time>
					</trkpt>
					<trkpt lat="45.844600" lon="4.402750">
						<ele>790</ele>
						<time>2025-08-15T15:03:05Z</time>
					</trkpt>
					<trkpt lat="45.844850" lon="4.402470">
						<ele>795</ele>
						<time>2025-08-15T15:03:11Z</time>
					</trkpt>
					<trkpt lat="45.845200" lon="4.401960">
						<ele>801</ele>
						<time>2025-08-15T15:03:20Z</time>
					</trkpt>
					<trkpt lat="45.845990" lon="4.400280">
						<ele>807</ele>
						<time>2025-08-15T15:03:45Z</time>
					</trkpt>
					<trkpt lat="45.846290" lon="4.399900">
						<ele>810</ele>
						<time>2025-08-15T15:03:52Z</time>
					</trkpt>
					<trkpt lat="45.846610" lon="4.399660">
						<ele>813</ele>
						<time>2025-08-15T15:03:58Z</time>
					</trkpt>
					<trkpt lat="45.846740" lon="4.399620">
						<ele>814</ele>
						<time>2025-08-15T15:04:01Z</time>
					</trkpt>
					<trkpt lat="45.846870" lon="4.399490">
						<ele>813</ele>
						<time>2025-08-15T15:04:04Z</time>
					</trkpt>
					<trkpt lat="45.847260" lon="4.398870">
						<ele>814</ele>
						<time>2025-08-15T15:04:14Z</time>
					</trkpt>
					<trkpt lat="45.847000" lon="4.398440">
						<ele>813</ele>
						<time>2025-08-15T15:04:21Z</time>
					</trkpt>
					<trkpt lat="45.846550" lon="4.397860">
						<ele>820</ele>
						<time>2025-08-15T15:04:32Z</time>
					</trkpt>
					<trkpt lat="45.846270" lon="4.397560">
						<ele>822</ele>
						<time>2025-08-15T15:04:38Z</time>
					</trkpt>
					<trkpt lat="45.845000" lon="4.396780">
						<ele>829</ele>
						<time>2025-08-15T15:05:02Z</time>
					</trkpt>
					<trkpt lat="45.844550" lon="4.396420">
						<ele>826</ele>
						<time>2025-08-15T15:05:12Z</time>
					</trkpt>
					<trkpt lat="45.844300" lon="4.396030">
						<ele>826</ele>
						<time>2025-08-15T15:05:18Z</time>
					</trkpt>
					<trkpt lat="45.843930" lon="4.395090">
						<ele>830</ele>
						<time>2025-08-15T15:05:32Z</time>
					</trkpt>
					<trkpt lat="45.843840" lon="4.394940">
						<ele>830</ele>
						<time>2025-08-15T15:05:34Z</time>
					</trkpt>
					<trkpt lat="45.843330" lon="4.394360">
						<ele>829</ele>
						<time>2025-08-15T15:05:46Z</time>
					</trkpt>
					<trkpt lat="45.842170" lon="4.393650">
						<ele>836</ele>
						<time>2025-08-15T15:06:08Z</time>
					</trkpt>
					<trkpt lat="45.841680" lon="4.393440">
						<ele>838</ele>
						<time>2025-08-15T15:06:17Z</time>
					</trkpt>
					<trkpt lat="45.841420" lon="4.393460">
						<ele>842</ele>
						<time>2025-08-15T15:06:22Z</time>
					</trkpt>
					<trkpt lat="45.841290" lon="4.393500">
						<ele>844</ele>
						<time>2025-08-15T15:06:24Z</time>
					</trkpt>
					<trkpt lat="45.841100" lon="4.393650">
						<ele>844</ele>
						<time>2025-08-15T15:06:28Z</time>
					</trkpt>
					<trkpt lat="45.840240" lon="4.394490">
						<ele>840</ele>
						<time>2025-08-15T15:06:47Z</time>
					</trkpt>
					<trkpt lat="45.839960" lon="4.394790">
						<ele>838</ele>
						<time>2025-08-15T15:06:53Z</time>
					</trkpt>
					<trkpt lat="45.839600" lon="4.395450">
						<ele>837</ele>
						<time>2025-08-15T15:07:03Z</time>
					</trkpt>
					<trkpt lat="45.839300" lon="4.395820">
						<ele>841</ele>
						<time>2025-08-15T15:07:10Z</time>
					</trkpt>
					<trkpt lat="45.839100" lon="4.395900">
						<ele>845</ele>
						<time>2025-08-15T15:07:14Z</time>
					</trkpt>
					<trkpt lat="45.838740" lon="4.395950">
						<ele>845</ele>
						<time>2025-08-15T15:07:20Z</time>
					</trkpt>
					<trkpt lat="45.837770" lon="4.395840">
						<ele>846</ele>
						<time>2025-08-15T15:07:38Z</time>
					</trkpt>
					<trkpt lat="45.837430" lon="4.395750">
						<ele>846</ele>
						<time>2025-08-15T15:07:44Z</time>
					</trkpt>
					<trkpt lat="45.836960" lon="4.395500">
						<ele>845</ele>
						<time>2025-08-15T15:07:53Z</time>
					</trkpt>
					<trkpt lat="45.836810" lon="4.395350">
						<ele>845</ele>
						<time>2025-08-15T15:07:56Z</time>
					</trkpt>
					<trkpt lat="45.836660" lon="4.395090">
						<ele>845</ele>
						<time>2025-08-15T15:08:00Z</time>
					</trkpt>
					<trkpt lat="45.836590" lon="4.394900">
						<ele>845</ele>
						<time>2025-08-15T15:08:03Z</time>
					</trkpt>
					<trkpt lat="45.836570" lon="4.394450">
						<ele>842</ele>
						<time>2025-08-15T15:08:08Z</time>
					</trkpt>
					<trkpt lat="45.836660" lon="4.394060">
						<ele>841</ele>
						<time>2025-08-15T15:08:13Z</time>
					</trkpt>
					<trkpt lat="45.837280" lon="4.392770">
						<ele>839</ele>
						<time>2025-08-15T15:08:33Z</time>
					</trkpt>
					<trkpt lat="45.837340" lon="4.392390">
						<ele>838</ele>
						<time>2025-08-15T15:08:38Z</time>
					</trkpt>
					<trkpt lat="45.837320" lon="4.392190">
						<ele>837</ele>
						<time>2025-08-15T15:08:40Z</time>
					</trkpt>
					<trkpt lat="45.837240" lon="4.391870">
						<ele>836</ele>
						<time>2025-08-15T15:08:44Z</time>
					</trkpt>
					<trkpt lat="45.837040" lon="4.391590">
						<ele>836</ele>
						<time>2025-08-15T15:08:49Z</time>
					</trkpt>
					<trkpt lat="45.836810" lon="4.391420">
						<ele>837</ele>
						<time>2025-08-15T15:08:54Z</time>
					</trkpt>
					<trkpt lat="45.836660" lon="4.391400">
						<ele>837</ele>
						<time>2025-08-15T15:08:57Z</time>
					</trkpt>
					<trkpt lat="45.836440" lon="4.391460">
						<ele>841</ele>
						<time>2025-08-15T15:09:01Z</time>
					</trkpt>
					<trkpt lat="45.836290" lon="4.391550">
						<ele>844</ele>
						<time>2025-08-15T15:09:04Z</time>
					</trkpt>
					<trkpt lat="45.835840" lon="4.391930">
						<ele>847</ele>
						<time>2025-08-15T15:09:13Z</time>
					</trkpt>
					<trkpt lat="45.834940" lon="4.392510">
						<ele>851</ele>
						<time>2025-08-15T15:09:30Z</time>
					</trkpt>
					<trkpt lat="45.834620" lon="4.392540">
						<ele>852</ele>
						<time>2025-08-15T15:09:36Z</time>
					</trkpt>
					<trkpt lat="45.834060" lon="4.392450">
						<ele>858</ele>
						<time>2025-08-15T15:09:46Z</time>
					</trkpt>
					<trkpt lat="45.833820" lon="4.392490">
						<ele>862</ele>
						<time>2025-08-15T15:09:50Z</time>
					</trkpt>
					<trkpt lat="45.833720" lon="4.392560">
						<ele>862</ele>
						<time>2025-08-15T15:09:52Z</time>
					</trkpt>
					<trkpt lat="45.833520" lon="4.392770">
						<ele>862</ele>
						<time>2025-08-15T15:09:57Z</time>
					</trkpt>
					<trkpt lat="45.833220" lon="4.393460">
						<ele>858</ele>
						<time>2025-08-15T15:10:07Z</time>
					</trkpt>
					<trkpt lat="45.832970" lon="4.393870">
						<ele>858</ele>
						<time>2025-08-15T15:10:14Z</time>
					</trkpt>
					<trkpt lat="45.832660" lon="4.394150">
						<ele>861</ele>
						<time>2025-08-15T15:10:20Z</time>
					</trkpt>
					<trkpt lat="45.832020" lon="4.394550">
						<ele>860</ele>
						<time>2025-08-15T15:10:33Z</time>
					</trkpt>
					<trkpt lat="45.831440" lon="4.394850">
						<ele>860</ele>
						<time>2025-08-15T15:10:44Z</time>
					</trkpt>
					<trkpt lat="45.831210" lon="4.394940">
						<ele>859</ele>
						<time>2025-08-15T15:10:48Z</time>
					</trkpt>
					<trkpt lat="45.830710" lon="4.394960">
						<ele>859</ele>
						<time>2025-08-15T15:10:57Z</time>
					</trkpt>
					<trkpt lat="45.830030" lon="4.394900">
						<ele>856</ele>
						<time>2025-08-15T15:11:09Z</time>
					</trkpt>
					<trkpt lat="45.828500" lon="4.394510">
						<ele>854</ele>
						<time>2025-08-15T15:11:37Z</time>
					</trkpt>
					<trkpt lat="45.827730" lon="4.394120">
						<ele>846</ele>
						<time>2025-08-15T15:11:51Z</time>
					</trkpt>
					<trkpt lat="45.826980" lon="4.394120">
						<ele>844</ele>
						<time>2025-08-15T15:12:04Z</time>
					</trkpt>
					<trkpt lat="45.826230" lon="4.393740">
						<ele>841</ele>
						<time>2025-08-15T15:12:19Z</time>
					</trkpt>
					<trkpt lat="45.825840" lon="4.393480">
						<ele>840</ele>
						<time>2025-08-15T15:12:26Z</time>
					</trkpt>
					<trkpt lat="45.825540" lon="4.393240">
						<ele>840</ele>
						<time>2025-08-15T15:12:32Z</time>
					</trkpt>
					<trkpt lat="45.824490" lon="4.391780">
						<ele>827</ele>
						<time>2025-08-15T15:12:58Z</time>
					</trkpt>
					<trkpt lat="45.824020" lon="4.391010">
						<ele>822</ele>
						<time>2025-08-15T15:13:11Z</time>
					</trkpt>
					<trkpt lat="45.823820" lon="4.390580">
						<ele>820</ele>
						<time>2025-08-15T15:13:17Z</time>
					</trkpt>
					<trkpt lat="45.823550" lon="4.389900">
						<ele>816</ele>
						<time>2025-08-15T15:13:27Z</time>
					</trkpt>
					<trkpt lat="45.823310" lon="4.388740">
						<ele>810</ele>
						<time>2025-08-15T15:13:42Z</time>
					</trkpt>
					<trkpt lat="45.823050" lon="4.388090">
						<ele>808</ele>
						<time>2025-08-15T15:13:51Z</time>
					</trkpt>
					<trkpt lat="45.822670" lon="4.386740">
						<ele>800</ele>
						<time>2025-08-15T15:14:09Z</time>
					</trkpt>
					<trkpt lat="45.822410" lon="4.386100">
						<ele>797</ele>
						<time>2025-08-15T15:14:19Z</time>
					</trkpt>
					<trkpt lat="45.822240" lon="4.385840">
						<ele>793</ele>
						<time>2025-08-15T15:14:23Z</time>
					</trkpt>
					<trkpt lat="45.821940" lon="4.385710">
						<ele>791</ele>
						<time>2025-08-15T15:14:29Z</time>
					</trkpt>
					<trkpt lat="45.820690" lon="4.385410">
						<ele>782</ele>
						<time>2025-08-15T15:14:51Z</time>
					</trkpt>
					<trkpt lat="45.820410" lon="4.385450">
						<ele>780</ele>
						<time>2025-08-15T15:14:56Z</time>
					</trkpt>
					<trkpt lat="45.819940" lon="4.385670">
						<ele>777</ele>
						<time>2025-08-15T15:15:05Z</time>
					</trkpt>
					<trkpt lat="45.819830" lon="4.385760">
						<ele>777</ele>
						<time>2025-08-15T15:15:07Z</time>
					</trkpt>
					<trkpt lat="45.819790" lon="4.385630">
						<ele>776</ele>
						<time>2025-08-15T15:15:09Z</time>
					</trkpt>
					<trkpt lat="45.819600" lon="4.385840">
						<ele>776</ele>
						<time>2025-08-15T15:15:13Z</time>
					</trkpt>
					<trkpt lat="45.819550" lon="4.385970">
						<ele>776</ele>
						<time>2025-08-15T15:15:15Z</time>
					</trkpt>
					<trkpt lat="45.820350" lon="4.388910">
						<ele>778</ele>
						<time>2025-08-15T15:15:54Z</time>
					</trkpt>
					<trkpt lat="45.820390" lon="4.389400">
						<ele>776</ele>
						<time>2025-08-15T15:16:00Z</time>
					</trkpt>
					<trkpt lat="45.820370" lon="4.389900">
						<ele>773</ele>
						<time>2025-08-15T15:16:07Z</time>
					</trkpt>
					<trkpt lat="45.820160" lon="4.390670">
						<ele>767</ele>
						<time>2025-08-15T15:16:17Z</time>
					</trkpt>
					<trkpt lat="45.820090" lon="4.391010">
						<ele>765</ele>
						<time>2025-08-15T15:16:21Z</time>
					</trkpt>
					<trkpt lat="45.820200" lon="4.391380">
						<ele>768</ele>
						<time>2025-08-15T15:16:26Z</time>
					</trkpt>
					<trkpt lat="45.820410" lon="4.391740">
						<ele>774</ele>
						<time>2025-08-15T15:16:32Z</time>
					</trkpt>
					<trkpt lat="45.820580" lon="4.391960">
						<ele>777</ele>
						<time>2025-08-15T15:16:36Z</time>
					</trkpt>
					<trkpt lat="45.820650" lon="4.392190">
						<ele>777</ele>
						<time>2025-08-15T15:16:39Z</time>
					</trkpt>
					<trkpt lat="45.820650" lon="4.392880">
						<ele>771</ele>
						<time>2025-08-15T15:16:48Z</time>
					</trkpt>
					<trkpt lat="45.820560" lon="4.394120">
						<ele>763</ele>
						<time>2025-08-15T15:17:03Z</time>
					</trkpt>
					<trkpt lat="45.820560" lon="4.394530">
						<ele>760</ele>
						<time>2025-08-15T15:17:08Z</time>
					</trkpt>
					<trkpt lat="45.820780" lon="4.395410">
						<ele>759</ele>
						<time>2025-08-15T15:17:20Z</time>
					</trkpt>
					<trkpt lat="45.820910" lon="4.396250">
						<ele>757</ele>
						<time>2025-08-15T15:17:31Z</time>
					</trkpt>
					<trkpt lat="45.820910" lon="4.396660">
						<ele>756</ele>
						<time>2025-08-15T15:17:36Z</time>
					</trkpt>
					<trkpt lat="45.820760" lon="4.397060">
						<ele>755</ele>
						<time>2025-08-15T15:17:41Z</time>
					</trkpt>
					<trkpt lat="45.819920" lon="4.398540">
						<ele>750</ele>
						<time>2025-08-15T15:18:05Z</time>
					</trkpt>
					<trkpt lat="45.819550" lon="4.399340">
						<ele>750</ele>
						<time>2025-08-15T15:18:17Z</time>
					</trkpt>
					<trkpt lat="45.819450" lon="4.399450">
						<ele>749</ele>
						<time>2025-08-15T15:18:19Z</time>
					</trkpt>
					<trkpt lat="45.818820" lon="4.399850">
						<ele>746</ele>
						<time>2025-08-15T15:18:31Z</time>
					</trkpt>
					<trkpt lat="45.818720" lon="4.399960">
						<ele>746</ele>
						<time>2025-08-15T15:18:34Z</time>
					</trkpt>
					<trkpt lat="45.818570" lon="4.400200">
						<ele>745</ele>
						<time>2025-08-15T15:18:38Z</time>
					</trkpt>
					<trkpt lat="45.818550" lon="4.400500">
						<ele>743</ele>
						<time>2025-08-15T15:18:41Z</time>
					</trkpt>
					<trkpt lat="45.818570" lon="4.400650">
						<ele>743</ele>
						<time>2025-08-15T15:18:43Z</time>
					</trkpt>
					<trkpt lat="45.818890" lon="4.401460">
						<ele>741</ele>
						<time>2025-08-15T15:18:55Z</time>
					</trkpt>
					<trkpt lat="45.818890" lon="4.401830">
						<ele>739</ele>
						<time>2025-08-15T15:18:59Z</time>
					</trkpt>
					<trkpt lat="45.818740" lon="4.402150">
						<ele>737</ele>
						<time>2025-08-15T15:19:04Z</time>
					</trkpt>
					<trkpt lat="45.817110" lon="4.404850">
						<ele>725</ele>
						<time>2025-08-15T15:19:48Z</time>
					</trkpt>
					<trkpt lat="45.815180" lon="4.404790">
						<ele>722</ele>
						<time>2025-08-15T15:20:23Z</time>
					</trkpt>
					<trkpt lat="45.814490" lon="4.404470">
						<ele>720</ele>
						<time>2025-08-15T15:20:36Z</time>
					</trkpt>
					<trkpt lat="45.814190" lon="4.404380">
						<ele>721</ele>
						<time>2025-08-15T15:20:41Z</time>
					</trkpt>
					<trkpt lat="45.814000" lon="4.404380">
						<ele>721</ele>
						<time>2025-08-15T15:20:45Z</time>
					</trkpt>
					<trkpt lat="45.813420" lon="4.404660">
						<ele>725</ele>
						<time>2025-08-15T15:20:55Z</time>
					</trkpt>
					<trkpt lat="45.813010" lon="4.404940">
						<ele>726</ele>
						<time>2025-08-15T15:21:04Z</time>
					</trkpt>
					<trkpt lat="45.812860" lon="4.405220">
						<ele>727</ele>
						<time>2025-08-15T15:21:08Z</time>
					</trkpt>
					<trkpt lat="45.812820" lon="4.405470">
						<ele>728</ele>
						<time>2025-08-15T15:21:11Z</time>
					</trkpt>
					<trkpt lat="45.812770" lon="4.405600">
						<ele>728</ele>
						<time>2025-08-15T15:21:13Z</time>
					</trkpt>
					<trkpt lat="45.812750" lon="4.406160">
						<ele>731</ele>
						<time>2025-08-15T15:21:20Z</time>
					</trkpt>
					<trkpt lat="45.812670" lon="4.406780">
						<ele>731</ele>
						<time>2025-08-15T15:21:28Z</time>
					</trkpt>
					<trkpt lat="45.812560" lon="4.407110">
						<ele>730</ele>
						<time>2025-08-15T15:21:32Z</time>
					</trkpt>
					<trkpt lat="45.811940" lon="4.408220">
						<ele>731</ele>
						<time>2025-08-15T15:21:50Z</time>
					</trkpt>
					<trkpt lat="45.810330" lon="4.410370">
						<ele>735</ele>
						<time>2025-08-15T15:22:29Z</time>
					</trkpt>
					<trkpt lat="45.809830" lon="4.411100">
						<ele>735</ele>
						<time>2025-08-15T15:22:42Z</time>
					</trkpt>
					<trkpt lat="45.809040" lon="4.413760">
						<ele>729</ele>
						<time>2025-08-15T15:23:18Z</time>
					</trkpt>
					<trkpt lat="45.809000" lon="4.414190">
						<ele>728</ele>
						<time>2025-08-15T15:23:23Z</time>
					</trkpt>
					<trkpt lat="45.809060" lon="4.414400">
						<ele>728</ele>
						<time>2025-08-15T15:23:26Z</time>
					</trkpt>
					<trkpt lat="45.809150" lon="4.414590">
						<ele>727</ele>
						<time>2025-08-15T15:23:29Z</time>
					</trkpt>
					<trkpt lat="45.809900" lon="4.415320">
						<ele>726</ele>
						<time>2025-08-15T15:23:45Z</time>
					</trkpt>
					<trkpt lat="45.810310" lon="4.415580">
						<ele>723</ele>
						<time>2025-08-15T15:23:53Z</time>
					</trkpt>
					<trkpt lat="45.810860" lon="4.415770">
						<ele>722</ele>
						<time>2025-08-15T15:24:03Z</time>
					</trkpt>
					<trkpt lat="45.810990" lon="4.415860">
						<ele>723</ele>
						<time>2025-08-15T15:24:05Z</time>
					</trkpt>
					<trkpt lat="45.811100" lon="4.416030">
						<ele>723</ele>
						<time>2025-08-15T15:24:08Z</time>
					</trkpt>
					<trkpt lat="45.811230" lon="4.416590">
						<ele>722</ele>
						<time>2025-08-15T15:24:16Z</time>
					</trkpt>
					<trkpt lat="45.811490" lon="4.418910">
						<ele>721</ele>
						<time>2025-08-15T15:24:45Z</time>
					</trkpt>
					<trkpt lat="45.811440" lon="4.419230">
						<ele>720</ele>
						<time>2025-08-15T15:24:49Z</time>
					</trkpt>
					<trkpt lat="45.811340" lon="4.419550">
						<ele>719</ele>
						<time>2025-08-15T15:24:53Z</time>
					</trkpt>
					<trkpt lat="45.811190" lon="4.419830">
						<ele>717</ele>
						<time>2025-08-15T15:24:57Z</time>
					</trkpt>
					<trkpt lat="45.809510" lon="4.422360">
						<ele>715</ele>
						<time>2025-08-15T15:25:41Z</time>
					</trkpt>
					<trkpt lat="45.809130" lon="4.422880">
						<ele>715</ele>
						<time>2025-08-15T15:25:50Z</time>
					</trkpt>
					<trkpt lat="45.808850" lon="4.423090">
						<ele>716</ele>
						<time>2025-08-15T15:25:56Z</time>
					</trkpt>
					<trkpt lat="45.808610" lon="4.423180">
						<ele>716</ele>
						<time>2025-08-15T15:26:00Z</time>
					</trkpt>
					<trkpt lat="45.807470" lon="4.423330">
						<ele>711</ele>
						<time>2025-08-15T15:26:21Z</time>
					</trkpt>
					<trkpt lat="45.807260" lon="4.423430">
						<ele>710</ele>
						<time>2025-08-15T15:26:25Z</time>
					</trkpt>
					<trkpt lat="45.804360" lon="4.426180">
						<ele>705</ele>
						<time>2025-08-15T15:27:26Z</time>
					</trkpt>
					<trkpt lat="45.804080" lon="4.426500">
						<ele>706</ele>
						<time>2025-08-15T15:27:33Z</time>
					</trkpt>
					<trkpt lat="45.803760" lon="4.427150">
						<ele>706</ele>
						<time>2025-08-15T15:27:43Z</time>
					</trkpt>
					<trkpt lat="45.803610" lon="4.427300">
						<ele>708</ele>
						<time>2025-08-15T15:27:46Z</time>
					</trkpt>
					<trkpt lat="45.803230" lon="4.427550">
						<ele>711</ele>
						<time>2025-08-15T15:27:53Z</time>
					</trkpt>
					<trkpt lat="45.803050" lon="4.427750">
						<ele>711</ele>
						<time>2025-08-15T15:27:57Z</time>
					</trkpt>
					<trkpt lat="45.802920" lon="4.428030">
						<ele>712</ele>
						<time>2025-08-15T15:28:02Z</time>
					</trkpt>
					<trkpt lat="45.802820" lon="4.429380">
						<ele>713</ele>
						<time>2025-08-15T15:28:18Z</time>
					</trkpt>
					<trkpt lat="45.802710" lon="4.429760">
						<ele>715</ele>
						<time>2025-08-15T15:28:23Z</time>
					</trkpt>
					<trkpt lat="45.802470" lon="4.430300">
						<ele>719</ele>
						<time>2025-08-15T15:28:31Z</time>
					</trkpt>
					<trkpt lat="45.802320" lon="4.430790">
						<ele>720</ele>
						<time>2025-08-15T15:28:38Z</time>
					</trkpt>
					<trkpt lat="45.802300" lon="4.431220">
						<ele>722</ele>
						<time>2025-08-15T15:28:43Z</time>
					</trkpt>
					<trkpt lat="45.802410" lon="4.432130">
						<ele>723</ele>
						<time>2025-08-15T15:28:55Z</time>
					</trkpt>
					<trkpt lat="45.802390" lon="4.432360">
						<ele>724</ele>
						<time>2025-08-15T15:28:58Z</time>
					</trkpt>
					<trkpt lat="45.802320" lon="4.432620">
						<ele>724</ele>
						<time>2025-08-15T15:29:01Z</time>
					</trkpt>
					<trkpt lat="45.802220" lon="4.432770">
						<ele>725</ele>
						<time>2025-08-15T15:29:04Z</time>
					</trkpt>
					<trkpt lat="45.802090" lon="4.432900">
						<ele>725</ele>
						<time>2025-08-15T15:29:07Z</time>
					</trkpt>
					<trkpt lat="45.801400" lon="4.433130">
						<ele>733</ele>
						<time>2025-08-15T15:29:19Z</time>
					</trkpt>
					<trkpt lat="45.800990" lon="4.433370">
						<ele>738</ele>
						<time>2025-08-15T15:29:27Z</time>
					</trkpt>
					<trkpt lat="45.800290" lon="4.433910">
						<ele>737</ele>
						<time>2025-08-15T15:29:41Z</time>
					</trkpt>
					<trkpt lat="45.799810" lon="4.434490">
						<ele>732</ele>
						<time>2025-08-15T15:29:52Z</time>
					</trkpt>
					<trkpt lat="45.799580" lon="4.434680">
						<ele>731</ele>
						<time>2025-08-15T15:29:57Z</time>
					</trkpt>
					<trkpt lat="45.799380" lon="4.434740">
						<ele>731</ele>
						<time>2025-08-15T15:30:01Z</time>
					</trkpt>
					<trkpt lat="45.798890" lon="4.434700">
						<ele>736</ele>
						<time>2025-08-15T15:30:09Z</time>
					</trkpt>
					<trkpt lat="45.798720" lon="4.434740">
						<ele>736</ele>
						<time>2025-08-15T15:30:13Z</time>
					</trkpt>
					<trkpt lat="45.798570" lon="4.434810">
						<ele>736</ele>
						<time>2025-08-15T15:30:15Z</time>
					</trkpt>
					<trkpt lat="45.798310" lon="4.435170">
						<ele>733</ele>
						<time>2025-08-15T15:30:22Z</time>
					</trkpt>
					<trkpt lat="45.798230" lon="4.435370">
						<ele>734</ele>
						<time>2025-08-15T15:30:25Z</time>
					</trkpt>
					<trkpt lat="45.798180" lon="4.435840">
						<ele>733</ele>
						<time>2025-08-15T15:30:31Z</time>
					</trkpt>
					<trkpt lat="45.798010" lon="4.436350">
						<ele>737</ele>
						<time>2025-08-15T15:30:38Z</time>
					</trkpt>
					<trkpt lat="45.797520" lon="4.437230">
						<ele>747</ele>
						<time>2025-08-15T15:30:51Z</time>
					</trkpt>
					<trkpt lat="45.797280" lon="4.437730">
						<ele>744</ele>
						<time>2025-08-15T15:30:59Z</time>
					</trkpt>
					<trkpt lat="45.796940" lon="4.438220">
						<ele>740</ele>
						<time>2025-08-15T15:31:08Z</time>
					</trkpt>
					<trkpt lat="45.796490" lon="4.438650">
						<ele>735</ele>
						<time>2025-08-15T15:31:17Z</time>
					</trkpt>
					<trkpt lat="45.796320" lon="4.438730">
						<ele>734</ele>
						<time>2025-08-15T15:31:20Z</time>
					</trkpt>
					<trkpt lat="45.795220" lon="4.438880">
						<ele>738</ele>
						<time>2025-08-15T15:31:40Z</time>
					</trkpt>
					<trkpt lat="45.794880" lon="4.439030">
						<ele>736</ele>
						<time>2025-08-15T15:31:46Z</time>
					</trkpt>
					<trkpt lat="45.794770" lon="4.439140">
						<ele>735</ele>
						<time>2025-08-15T15:31:49Z</time>
					</trkpt>
					<trkpt lat="45.794300" lon="4.439890">
						<ele>729</ele>
						<time>2025-08-15T15:32:01Z</time>
					</trkpt>
					<trkpt lat="45.793590" lon="4.440430">
						<ele>726</ele>
						<time>2025-08-15T15:32:16Z</time>
					</trkpt>
					<trkpt lat="45.793310" lon="4.442680">
						<ele>726</ele>
						<time>2025-08-15T15:32:44Z</time>
					</trkpt>
					<trkpt lat="45.793290" lon="4.444440">
						<ele>723</ele>
						<time>2025-08-15T15:33:06Z</time>
					</trkpt>
					<trkpt lat="45.793420" lon="4.444850">
						<ele>723</ele>
						<time>2025-08-15T15:33:11Z</time>
					</trkpt>
					<trkpt lat="45.793530" lon="4.445000">
						<ele>722</ele>
						<time>2025-08-15T15:33:14Z</time>
					</trkpt>
					<trkpt lat="45.794080" lon="4.445360">
						<ele>719</ele>
						<time>2025-08-15T15:33:25Z</time>
					</trkpt>
					<trkpt lat="45.794210" lon="4.445540">
						<ele>719</ele>
						<time>2025-08-15T15:33:28Z</time>
					</trkpt>
					<trkpt lat="45.794320" lon="4.445730">
						<ele>720</ele>
						<time>2025-08-15T15:33:31Z</time>
					</trkpt>
					<trkpt lat="45.794430" lon="4.446120">
						<ele>721</ele>
						<time>2025-08-15T15:33:36Z</time>
					</trkpt>
					<trkpt lat="45.794860" lon="4.448300">
						<ele>724</ele>
						<time>2025-08-15T15:34:04Z</time>
					</trkpt>
					<trkpt lat="45.794860" lon="4.448540">
						<ele>725</ele>
						<time>2025-08-15T15:34:07Z</time>
					</trkpt>
					<trkpt lat="45.794640" lon="4.449780">
						<ele>727</ele>
						<time>2025-08-15T15:34:23Z</time>
					</trkpt>
					<trkpt lat="45.794600" lon="4.450360">
						<ele>727</ele>
						<time>2025-08-15T15:34:31Z</time>
					</trkpt>
					<trkpt lat="45.794660" lon="4.450770">
						<ele>727</ele>
						<time>2025-08-15T15:34:36Z</time>
					</trkpt>
					<trkpt lat="45.794750" lon="4.450940">
						<ele>727</ele>
						<time>2025-08-15T15:34:38Z</time>
					</trkpt>
					<trkpt lat="45.794900" lon="4.451030">
						<ele>728</ele>
						<time>2025-08-15T15:34:41Z</time>
					</trkpt>
					<trkpt lat="45.795070" lon="4.451030">
						<ele>729</ele>
						<time>2025-08-15T15:34:44Z</time>
					</trkpt>
					<trkpt lat="45.795500" lon="4.450860">
						<ele>731</ele>
						<time>2025-08-15T15:34:52Z</time>
					</trkpt>
					<trkpt lat="45.796080" lon="4.450390">
						<ele>740</ele>
						<time>2025-08-15T15:35:04Z</time>
					</trkpt>
					<trkpt lat="45.796740" lon="4.450150">
						<ele>738</ele>
						<time>2025-08-15T15:35:16Z</time>
					</trkpt>
					<trkpt lat="45.796960" lon="4.450150">
						<ele>735</ele>
						<time>2025-08-15T15:35:20Z</time>
					</trkpt>
					<trkpt lat="45.797170" lon="4.450240">
						<ele>730</ele>
						<time>2025-08-15T15:35:24Z</time>
					</trkpt>
					<trkpt lat="45.798350" lon="4.451010">
						<ele>719</ele>
						<time>2025-08-15T15:35:47Z</time>
					</trkpt>
					<trkpt lat="45.798610" lon="4.451480">
						<ele>718</ele>
						<time>2025-08-15T15:35:55Z</time>
					</trkpt>
					<trkpt lat="45.798760" lon="4.451840">
						<ele>718</ele>
						<time>2025-08-15T15:36:00Z</time>
					</trkpt>
					<trkpt lat="45.798870" lon="4.452170">
						<ele>718</ele>
						<time>2025-08-15T15:36:04Z</time>
					</trkpt>
					<trkpt lat="45.798910" lon="4.452450">
						<ele>718</ele>
						<time>2025-08-15T15:36:08Z</time>
					</trkpt>
					<trkpt lat="45.799130" lon="4.456030">
						<ele>706</ele>
						<time>2025-08-15T15:36:52Z</time>
					</trkpt>
					<trkpt lat="45.799130" lon="4.456590">
						<ele>705</ele>
						<time>2025-08-15T15:36:59Z</time>
					</trkpt>
					<trkpt lat="45.799210" lon="4.456740">
						<ele>707</ele>
						<time>2025-08-15T15:37:02Z</time>
					</trkpt>
					<trkpt lat="45.799210" lon="4.456910">
						<ele>708</ele>
						<time>2025-08-15T15:37:04Z</time>
					</trkpt>
					<trkpt lat="45.799110" lon="4.457360">
						<ele>707</ele>
						<time>2025-08-15T15:37:10Z</time>
					</trkpt>
					<trkpt lat="45.799060" lon="4.457750">
						<ele>707</ele>
						<time>2025-08-15T15:37:15Z</time>
					</trkpt>
					<trkpt lat="45.798910" lon="4.459550">
						<ele>712</ele>
						<time>2025-08-15T15:37:37Z</time>
					</trkpt>
					<trkpt lat="45.798890" lon="4.460060">
						<ele>712</ele>
						<time>2025-08-15T15:37:43Z</time>
					</trkpt>
					<trkpt lat="45.798930" lon="4.460300">
						<ele>712</ele>
						<time>2025-08-15T15:37:46Z</time>
					</trkpt>
					<trkpt lat="45.799190" lon="4.460920">
						<ele>710</ele>
						<time>2025-08-15T15:37:55Z</time>
					</trkpt>
					<trkpt lat="45.799830" lon="4.462190">
						<ele>711</ele>
						<time>2025-08-15T15:38:15Z</time>
					</trkpt>
					<trkpt lat="45.800240" lon="4.463320">
						<ele>703</ele>
						<time>2025-08-15T15:38:31Z</time>
					</trkpt>
					<trkpt lat="45.800390" lon="4.463560">
						<ele>699</ele>
						<time>2025-08-15T15:38:35Z</time>
					</trkpt>
					<trkpt lat="45.800560" lon="4.463710">
						<ele>698</ele>
						<time>2025-08-15T15:38:38Z</time>
					</trkpt>
					<trkpt lat="45.800710" lon="4.463710">
						<ele>699</ele>
						<time>2025-08-15T15:38:41Z</time>
					</trkpt>
					<trkpt lat="45.800860" lon="4.463620">
						<ele>703</ele>
						<time>2025-08-15T15:38:44Z</time>
					</trkpt>
					<trkpt lat="45.801060" lon="4.463430">
						<ele>703</ele>
						<time>2025-08-15T15:38:48Z</time>
					</trkpt>
					<trkpt lat="45.801380" lon="4.462900">
						<ele>704</ele>
						<time>2025-08-15T15:38:57Z</time>
					</trkpt>
					<trkpt lat="45.801620" lon="4.462640">
						<ele>702</ele>
						<time>2025-08-15T15:39:02Z</time>
					</trkpt>
					<trkpt lat="45.801890" lon="4.462490">
						<ele>702</ele>
						<time>2025-08-15T15:39:07Z</time>
					</trkpt>
					<trkpt lat="45.802370" lon="4.462380">
						<ele>701</ele>
						<time>2025-08-15T15:39:16Z</time>
					</trkpt>
					<trkpt lat="45.802580" lon="4.462380">
						<ele>701</ele>
						<time>2025-08-15T15:39:20Z</time>
					</trkpt>
					<trkpt lat="45.802800" lon="4.462570">
						<ele>702</ele>
						<time>2025-08-15T15:39:24Z</time>
					</trkpt>
					<trkpt lat="45.802900" lon="4.462920">
						<ele>702</ele>
						<time>2025-08-15T15:39:29Z</time>
					</trkpt>
					<trkpt lat="45.803350" lon="4.465510">
						<ele>704</ele>
						<time>2025-08-15T15:40:02Z</time>
					</trkpt>
					<trkpt lat="45.803350" lon="4.465810">
						<ele>703</ele>
						<time>2025-08-15T15:40:06Z</time>
					</trkpt>
					<trkpt lat="45.803290" lon="4.466590">
						<ele>696</ele>
						<time>2025-08-15T15:40:15Z</time>
					</trkpt>
					<trkpt lat="45.803400" lon="4.467020">
						<ele>697</ele>
						<time>2025-08-15T15:40:21Z</time>
					</trkpt>
					<trkpt lat="45.803460" lon="4.467140">
						<ele>698</ele>
						<time>2025-08-15T15:40:23Z</time>
					</trkpt>
					<trkpt lat="45.804380" lon="4.468240">
						<ele>703</ele>
						<time>2025-08-15T15:40:44Z</time>
					</trkpt>
					<trkpt lat="45.804470" lon="4.468430">
						<ele>704</ele>
						<time>2025-08-15T15:40:47Z</time>
					</trkpt>
					<trkpt lat="45.804510" lon="4.468600">
						<ele>705</ele>
						<time>2025-08-15T15:40:49Z</time>
					</trkpt>
					<trkpt lat="45.804450" lon="4.469030">
						<ele>701</ele>
						<time>2025-08-15T15:40:55Z</time>
					</trkpt>
					<trkpt lat="45.804320" lon="4.469290">
						<ele>698</ele>
						<time>2025-08-15T15:40:59Z</time>
					</trkpt>
					<trkpt lat="45.803950" lon="4.469830">
						<ele>694</ele>
						<time>2025-08-15T15:41:08Z</time>
					</trkpt>
					<trkpt lat="45.803910" lon="4.470060">
						<ele>695</ele>
						<time>2025-08-15T15:41:11Z</time>
					</trkpt>
					<trkpt lat="45.803910" lon="4.470340">
						<ele>696</ele>
						<time>2025-08-15T15:41:15Z</time>
					</trkpt>
					<trkpt lat="45.804130" lon="4.471050">
						<ele>696</ele>
						<time>2025-08-15T15:41:24Z</time>
					</trkpt>
					<trkpt lat="45.804280" lon="4.471290">
						<ele>695</ele>
						<time>2025-08-15T15:41:28Z</time>
					</trkpt>
					<trkpt lat="45.804560" lon="4.471590">
						<ele>698</ele>
						<time>2025-08-15T15:41:34Z</time>
					</trkpt>
					<trkpt lat="45.804680" lon="4.471780">
						<ele>699</ele>
						<time>2025-08-15T15:41:38Z</time>
					</trkpt>
					<trkpt lat="45.804830" lon="4.472360">
						<ele>693</ele>
						<time>2025-08-15T15:41:45Z</time>
					</trkpt>
					<trkpt lat="45.804920" lon="4.472890">
						<ele>688</ele>
						<time>2025-08-15T15:41:52Z</time>
					</trkpt>
					<trkpt lat="45.805010" lon="4.473130">
						<ele>686</ele>
						<time>2025-08-15T15:41:55Z</time>
					</trkpt>
					<trkpt lat="45.805130" lon="4.473260">
						<ele>684</ele>
						<time>2025-08-15T15:41:58Z</time>
					</trkpt>
					<trkpt lat="45.805280" lon="4.473280">
						<ele>684</ele>
						<time>2025-08-15T15:42:01Z</time>
					</trkpt>
					<trkpt lat="45.805540" lon="4.473220">
						<ele>685</ele>
						<time>2025-08-15T15:42:05Z</time>
					</trkpt>
					<trkpt lat="45.806470" lon="4.472660">
						<ele>700</ele>
						<time>2025-08-15T15:42:23Z</time>
					</trkpt>
					<trkpt lat="45.806680" lon="4.472590">
						<ele>700</ele>
						<time>2025-08-15T15:42:27Z</time>
					</trkpt>
					<trkpt lat="45.806830" lon="4.472590">
						<ele>698</ele>
						<time>2025-08-15T15:42:30Z</time>
					</trkpt>
					<trkpt lat="45.807240" lon="4.472680">
						<ele>692</ele>
						<time>2025-08-15T15:42:37Z</time>
					</trkpt>
					<trkpt lat="45.807470" lon="4.472640">
						<ele>690</ele>
						<time>2025-08-15T15:42:41Z</time>
					</trkpt>
					<trkpt lat="45.808290" lon="4.472140">
						<ele>686</ele>
						<time>2025-08-15T15:42:57Z</time>
					</trkpt>
					<trkpt lat="45.808530" lon="4.472100">
						<ele>685</ele>
						<time>2025-08-15T15:43:02Z</time>
					</trkpt>
					<trkpt lat="45.808720" lon="4.472100">
						<ele>684</ele>
						<time>2025-08-15T15:43:05Z</time>
					</trkpt>
					<trkpt lat="45.808830" lon="4.472140">
						<ele>684</ele>
						<time>2025-08-15T15:43:07Z</time>
					</trkpt>
					<trkpt lat="45.809100" lon="4.472380">
						<ele>684</ele>
						<time>2025-08-15T15:43:13Z</time>
					</trkpt>
					<trkpt lat="45.809190" lon="4.472420">
						<ele>685</ele>
						<time>2025-08-15T15:43:14Z</time>
					</trkpt>
					<trkpt lat="45.809900" lon="4.472270">
						<ele>684</ele>
						<time>2025-08-15T15:43:27Z</time>
					</trkpt>
					<trkpt lat="45.810130" lon="4.472320">
						<ele>684</ele>
						<time>2025-08-15T15:43:31Z</time>
					</trkpt>
					<trkpt lat="45.810560" lon="4.472570">
						<ele>684</ele>
						<time>2025-08-15T15:43:39Z</time>
					</trkpt>
					<trkpt lat="45.810780" lon="4.472640">
						<ele>684</ele>
						<time>2025-08-15T15:43:43Z</time>
					</trkpt>
					<trkpt lat="45.811060" lon="4.472640">
						<ele>686</ele>
						<time>2025-08-15T15:43:48Z</time>
					</trkpt>
					<trkpt lat="45.811230" lon="4.472570">
						<ele>687</ele>
						<time>2025-08-15T15:43:52Z</time>
					</trkpt>
					<trkpt lat="45.811530" lon="4.472230">
						<ele>687</ele>
						<time>2025-08-15T15:43:58Z</time>
					</trkpt>
					<trkpt lat="45.811700" lon="4.471890">
						<ele>685</ele>
						<time>2025-08-15T15:44:04Z</time>
					</trkpt>
					<trkpt lat="45.811870" lon="4.471370">
						<ele>681</ele>
						<time>2025-08-15T15:44:11Z</time>
					</trkpt>
					<trkpt lat="45.812170" lon="4.470940">
						<ele>677</ele>
						<time>2025-08-15T15:44:18Z</time>
					</trkpt>
					<trkpt lat="45.812410" lon="4.470830">
						<ele>677</ele>
						<time>2025-08-15T15:44:23Z</time>
					</trkpt>
					<trkpt lat="45.812710" lon="4.470770">
						<ele>677</ele>
						<time>2025-08-15T15:44:28Z</time>
					</trkpt>
					<trkpt lat="45.813930" lon="4.470750">
						<ele>681</ele>
						<time>2025-08-15T15:44:50Z</time>
					</trkpt>
					<trkpt lat="45.814700" lon="4.470510">
						<ele>682</ele>
						<time>2025-08-15T15:45:04Z</time>
					</trkpt>
					<trkpt lat="45.815240" lon="4.470210">
						<ele>679</ele>
						<time>2025-08-15T15:45:14Z</time>
					</trkpt>
					<trkpt lat="45.815430" lon="4.470000">
						<ele>676</ele>
						<time>2025-08-15T15:45:18Z</time>
					</trkpt>
					<trkpt lat="45.815840" lon="4.469400">
						<ele>672</ele>
						<time>2025-08-15T15:45:29Z</time>
					</trkpt>
					<trkpt lat="45.816010" lon="4.469250">
						<ele>671</ele>
						<time>2025-08-15T15:45:32Z</time>
					</trkpt>
					<trkpt lat="45.817300" lon="4.468730">
						<ele>671</ele>
						<time>2025-08-15T15:45:56Z</time>
					</trkpt>
					<trkpt lat="45.817640" lon="4.468690">
						<ele>670</ele>
						<time>2025-08-15T15:46:02Z</time>
					</trkpt>
					<trkpt lat="45.817840" lon="4.468770">
						<ele>671</ele>
						<time>2025-08-15T15:46:06Z</time>
					</trkpt>
					<trkpt lat="45.817970" lon="4.468860">
						<ele>671</ele>
						<time>2025-08-15T15:46:09Z</time>
					</trkpt>
					<trkpt lat="45.818290" lon="4.469230">
						<ele>674</ele>
						<time>2025-08-15T15:46:16Z</time>
					</trkpt>
					<trkpt lat="45.819060" lon="4.469910">
						<ele>672</ele>
						<time>2025-08-15T15:46:32Z</time>
					</trkpt>
					<trkpt lat="45.819300" lon="4.470430">
						<ele>676</ele>
						<time>2025-08-15T15:46:40Z</time>
					</trkpt>
					<trkpt lat="45.819470" lon="4.470600">
						<ele>677</ele>
						<time>2025-08-15T15:46:43Z</time>
					</trkpt>
					<trkpt lat="45.819640" lon="4.470680">
						<ele>677</ele>
						<time>2025-08-15T15:46:47Z</time>
					</trkpt>
					<trkpt lat="45.819880" lon="4.470710">
						<ele>676</ele>
						<time>2025-08-15T15:46:51Z</time>
					</trkpt>
					<trkpt lat="45.821010" lon="4.470280">
						<ele>672</ele>
						<time>2025-08-15T15:47:12Z</time>
					</trkpt>
					<trkpt lat="45.821270" lon="4.470150">
						<ele>671</ele>
						<time>2025-08-15T15:47:17Z</time>
					</trkpt>
					<trkpt lat="45.821830" lon="4.469720">
						<ele>667</ele>
						<time>2025-08-15T15:47:28Z</time>
					</trkpt>
					<trkpt lat="45.821960" lon="4.469680">
						<ele>667</ele>
						<time>2025-08-15T15:47:30Z</time>
					</trkpt>
					<trkpt lat="45.822090" lon="4.469720">
						<ele>667</ele>
						<time>2025-08-15T15:47:33Z</time>
					</trkpt>
					<trkpt lat="45.822430" lon="4.469980">
						<ele>671</ele>
						<time>2025-08-15T15:47:39Z</time>
					</trkpt>
					<trkpt lat="45.822560" lon="4.470150">
						<ele>672</ele>
						<time>2025-08-15T15:47:43Z</time>
					</trkpt>
					<trkpt lat="45.822670" lon="4.470430">
						<ele>673</ele>
						<time>2025-08-15T15:47:47Z</time>
					</trkpt>
					<trkpt lat="45.822820" lon="4.470620">
						<ele>674</ele>
						<time>2025-08-15T15:47:50Z</time>
					</trkpt>
					<trkpt lat="45.823160" lon="4.470900">
						<ele>673</ele>
						<time>2025-08-15T15:47:57Z</time>
					</trkpt>
					<trkpt lat="45.823630" lon="4.471110">
						<ele>673</ele>
						<time>2025-08-15T15:48:06Z</time>
					</trkpt>
					<trkpt lat="45.824770" lon="4.471290">
						<ele>671</ele>
						<time>2025-08-15T15:48:26Z</time>
					</trkpt>
					<trkpt lat="45.826230" lon="4.471140">
						<ele>672</ele>
						<time>2025-08-15T15:48:52Z</time>
					</trkpt>
					<trkpt lat="45.827540" lon="4.470280">
						<ele>672</ele>
						<time>2025-08-15T15:49:18Z</time>
					</trkpt>
					<trkpt lat="45.827860" lon="4.470130">
						<ele>671</ele>
						<time>2025-08-15T15:49:24Z</time>
					</trkpt>
					<trkpt lat="45.828290" lon="4.470080">
						<ele>673</ele>
						<time>2025-08-15T15:49:32Z</time>
					</trkpt>
					<trkpt lat="45.828870" lon="4.470230">
						<ele>674</ele>
						<time>2025-08-15T15:49:42Z</time>
					</trkpt>
					<trkpt lat="45.829360" lon="4.470410">
						<ele>674</ele>
						<time>2025-08-15T15:49:51Z</time>
					</trkpt>
					<trkpt lat="45.829770" lon="4.470660">
						<ele>675</ele>
						<time>2025-08-15T15:49:59Z</time>
					</trkpt>
					<trkpt lat="45.830030" lon="4.471050">
						<ele>677</ele>
						<time>2025-08-15T15:50:06Z</time>
					</trkpt>
					<trkpt lat="45.830480" lon="4.472790">
						<ele>689</ele>
						<time>2025-08-15T15:50:29Z</time>
					</trkpt>
					<trkpt lat="45.830730" lon="4.473470">
						<ele>688</ele>
						<time>2025-08-15T15:50:38Z</time>
					</trkpt>
					<trkpt lat="45.831080" lon="4.474050">
						<ele>687</ele>
						<time>2025-08-15T15:50:48Z</time>
					</trkpt>
					<trkpt lat="45.831700" lon="4.474720">
						<ele>689</ele>
						<time>2025-08-15T15:51:02Z</time>
					</trkpt>
					<trkpt lat="45.831870" lon="4.475020">
						<ele>690</ele>
						<time>2025-08-15T15:51:06Z</time>
					</trkpt>
					<trkpt lat="45.832020" lon="4.475470">
						<ele>688</ele>
						<time>2025-08-15T15:51:13Z</time>
					</trkpt>
					<trkpt lat="45.832020" lon="4.476200">
						<ele>691</ele>
						<time>2025-08-15T15:51:22Z</time>
					</trkpt>
					<trkpt lat="45.832090" lon="4.476610">
						<ele>690</ele>
						<time>2025-08-15T15:51:27Z</time>
					</trkpt>
					<trkpt lat="45.832540" lon="4.477920">
						<ele>691</ele>
						<time>2025-08-15T15:51:45Z</time>
					</trkpt>
					<trkpt lat="45.832560" lon="4.478090">
						<ele>692</ele>
						<time>2025-08-15T15:51:47Z</time>
					</trkpt>
					<trkpt lat="45.832450" lon="4.479120">
						<ele>690</ele>
						<time>2025-08-15T15:52:00Z</time>
					</trkpt>
					<trkpt lat="45.832470" lon="4.479290">
						<ele>688</ele>
						<time>2025-08-15T15:52:02Z</time>
					</trkpt>
					<trkpt lat="45.832540" lon="4.479480">
						<ele>686</ele>
						<time>2025-08-15T15:52:05Z</time>
					</trkpt>
					<trkpt lat="45.832790" lon="4.479780">
						<ele>683</ele>
						<time>2025-08-15T15:52:11Z</time>
					</trkpt>
					<trkpt lat="45.833670" lon="4.480060">
						<ele>684</ele>
						<time>2025-08-15T15:52:27Z</time>
					</trkpt>
					<trkpt lat="45.834810" lon="4.480680">
						<ele>674</ele>
						<time>2025-08-15T15:52:48Z</time>
					</trkpt>
					<trkpt lat="45.835330" lon="4.481090">
						<ele>670</ele>
						<time>2025-08-15T15:52:59Z</time>
					</trkpt>
					<trkpt lat="45.835690" lon="4.481500">
						<ele>667</ele>
						<time>2025-08-15T15:53:07Z</time>
					</trkpt>
					<trkpt lat="45.835800" lon="4.481860">
						<ele>665</ele>
						<time>2025-08-15T15:53:12Z</time>
					</trkpt>
					<trkpt lat="45.835970" lon="4.482940">
						<ele>660</ele>
						<time>2025-08-15T15:53:26Z</time>
					</trkpt>
					<trkpt lat="45.836230" lon="4.483800">
						<ele>659</ele>
						<time>2025-08-15T15:53:37Z</time>
					</trkpt>
					<trkpt lat="45.836250" lon="4.484460">
						<ele>657</ele>
						<time>2025-08-15T15:53:45Z</time>
					</trkpt>
					<trkpt lat="45.836160" lon="4.485400">
						<ele>653</ele>
						<time>2025-08-15T15:53:57Z</time>
					</trkpt>
					<trkpt lat="45.835880" lon="4.486890">
						<ele>644</ele>
						<time>2025-08-15T15:54:16Z</time>
					</trkpt>
					<trkpt lat="45.835840" lon="4.487190">
						<ele>643</ele>
						<time>2025-08-15T15:54:20Z</time>
					</trkpt>
					<trkpt lat="45.835840" lon="4.487640">
						<ele>640</ele>
						<time>2025-08-15T15:54:26Z</time>
					</trkpt>
					<trkpt lat="45.835950" lon="4.488090">
						<ele>636</ele>
						<time>2025-08-15T15:54:32Z</time>
					</trkpt>
					<trkpt lat="45.836210" lon="4.488410">
						<ele>638</ele>
						<time>2025-08-15T15:54:38Z</time>
					</trkpt>
					<trkpt lat="45.836380" lon="4.488540">
						<ele>641</ele>
						<time>2025-08-15T15:54:41Z</time>
					</trkpt>
					<trkpt lat="45.836420" lon="4.488640">
						<ele>641</ele>
						<time>2025-08-15T15:54:43Z</time>
					</trkpt>
					<trkpt lat="45.836420" lon="4.488860">
						<ele>640</ele>
						<time>2025-08-15T15:54:45Z</time>
					</trkpt>
					<trkpt lat="45.836310" lon="4.489180">
						<ele>636</ele>
						<time>2025-08-15T15:54:50Z</time>
					</trkpt>
					<trkpt lat="45.835970" lon="4.489850">
						<ele>631</ele>
						<time>2025-08-15T15:55:00Z</time>
					</trkpt>
					<trkpt lat="45.835880" lon="4.490150">
						<ele>628</ele>
						<time>2025-08-15T15:55:04Z</time>
					</trkpt>
					<trkpt lat="45.835860" lon="4.490400">
						<ele>626</ele>
						<time>2025-08-15T15:55:07Z</time>
					</trkpt>
					<trkpt lat="45.835910" lon="4.490620">
						<ele>625</ele>
						<time>2025-08-15T15:55:10Z</time>
					</trkpt>
					<trkpt lat="45.836230" lon="4.491180">
						<ele>627</ele>
						<time>2025-08-15T15:55:19Z</time>
					</trkpt>
					<trkpt lat="45.836310" lon="4.491430">
						<ele>627</ele>
						<time>2025-08-15T15:55:22Z</time>
					</trkpt>
					<trkpt lat="45.836330" lon="4.491670">
						<ele>625</ele>
						<time>2025-08-15T15:55:25Z</time>
					</trkpt>
					<trkpt lat="45.836230" lon="4.491910">
						<ele>625</ele>
						<time>2025-08-15T15:55:29Z</time>
					</trkpt>
					<trkpt lat="45.836100" lon="4.492060">
						<ele>624</ele>
						<time>2025-08-15T15:55:32Z</time>
					</trkpt>
					<trkpt lat="45.835710" lon="4.492310">
						<ele>619</ele>
						<time>2025-08-15T15:55:39Z</time>
					</trkpt>
					<trkpt lat="45.834510" lon="4.492740">
						<ele>607</ele>
						<time>2025-08-15T15:56:01Z</time>
					</trkpt>
					<trkpt lat="45.834250" lon="4.492940">
						<ele>606</ele>
						<time>2025-08-15T15:56:07Z</time>
					</trkpt>
					<trkpt lat="45.833760" lon="4.493410">
						<ele>603</ele>
						<time>2025-08-15T15:56:17Z</time>
					</trkpt>
					<trkpt lat="45.833570" lon="4.493690">
						<ele>602</ele>
						<time>2025-08-15T15:56:22Z</time>
					</trkpt>
					<trkpt lat="45.833140" lon="4.494460">
						<ele>600</ele>
						<time>2025-08-15T15:56:34Z</time>
					</trkpt>
					<trkpt lat="45.832940" lon="4.494760">
						<ele>597</ele>
						<time>2025-08-15T15:56:39Z</time>
					</trkpt>
					<trkpt lat="45.832560" lon="4.495230">
						<ele>591</ele>
						<time>2025-08-15T15:56:48Z</time>
					</trkpt>
					<trkpt lat="45.832340" lon="4.495620">
						<ele>591</ele>
						<time>2025-08-15T15:56:55Z</time>
					</trkpt>
					<trkpt lat="45.832150" lon="4.495850">
						<ele>589</ele>
						<time>2025-08-15T15:56:59Z</time>
					</trkpt>
					<trkpt lat="45.831680" lon="4.496260">
						<ele>583</ele>
						<time>2025-08-15T15:57:09Z</time>
					</trkpt>
					<trkpt lat="45.831460" lon="4.496520">
						<ele>580</ele>
						<time>2025-08-15T15:57:14Z</time>
					</trkpt>
					<trkpt lat="45.830880" lon="4.497960">
						<ele>576</ele>
						<time>2025-08-15T15:57:34Z</time>
					</trkpt>
					<trkpt lat="45.830780" lon="4.498360">
						<ele>575</ele>
						<time>2025-08-15T15:57:40Z</time>
					</trkpt>
					<trkpt lat="45.830710" lon="4.498770">
						<ele>574</ele>
						<time>2025-08-15T15:57:45Z</time>
					</trkpt>
					<trkpt lat="45.830690" lon="4.499390">
						<ele>575</ele>
						<time>2025-08-15T15:57:53Z</time>
					</trkpt>
					<trkpt lat="45.830800" lon="4.500210">
						<ele>576</ele>
						<time>2025-08-15T15:58:03Z</time>
					</trkpt>
					<trkpt lat="45.830950" lon="4.501650">
						<ele>566</ele>
						<time>2025-08-15T15:58:21Z</time>
					</trkpt>
					<trkpt lat="45.831120" lon="4.502120">
						<ele>562</ele>
						<time>2025-08-15T15:58:28Z</time>
					</trkpt>
					<trkpt lat="45.831210" lon="4.502210">
						<ele>562</ele>
						<time>2025-08-15T15:58:30Z</time>
					</trkpt>
					<trkpt lat="45.831790" lon="4.502310">
						<ele>574</ele>
						<time>2025-08-15T15:58:40Z</time>
					</trkpt>
					<trkpt lat="45.832060" lon="4.502640">
						<ele>571</ele>
						<time>2025-08-15T15:58:46Z</time>
					</trkpt>
					<trkpt lat="45.832240" lon="4.503060">
						<ele>564</ele>
						<time>2025-08-15T15:58:52Z</time>
					</trkpt>
					<trkpt lat="45.832510" lon="4.503430">
						<ele>559</ele>
						<time>2025-08-15T15:58:59Z</time>
					</trkpt>
					<trkpt lat="45.833200" lon="4.504090">
						<ele>549</ele>
						<time>2025-08-15T15:59:14Z</time>
					</trkpt>
					<trkpt lat="45.833930" lon="4.504440">
						<ele>548</ele>
						<time>2025-08-15T15:59:28Z</time>
					</trkpt>
					<trkpt lat="45.834340" lon="4.504850">
						<ele>543</ele>
						<time>2025-08-15T15:59:36Z</time>
					</trkpt>
					<trkpt lat="45.834490" lon="4.505060">
						<ele>541</ele>
						<time>2025-08-15T15:59:40Z</time>
					</trkpt>
					<trkpt lat="45.834770" lon="4.505720">
						<ele>530</ele>
						<time>2025-08-15T15:59:50Z</time>
					</trkpt>
					<trkpt lat="45.835030" lon="4.506130">
						<ele>525</ele>
						<time>2025-08-15T15:59:57Z</time>
					</trkpt>
					<trkpt lat="45.835130" lon="4.506240">
						<ele>523</ele>
						<time>2025-08-15T15:59:59Z</time>
					</trkpt>
					<trkpt lat="45.835220" lon="4.506240">
						<ele>522</ele>
						<time>2025-08-15T16:00:00Z</time>
					</trkpt>
					<trkpt lat="45.835260" lon="4.506200">
						<ele>523</ele>
						<time>2025-08-15T16:00:01Z</time>
					</trkpt>
					<trkpt lat="45.835580" lon="4.505680">
						<ele>531</ele>
						<time>2025-08-15T16:00:10Z</time>
					</trkpt>
					<trkpt lat="45.835860" lon="4.505640">
						<ele>531</ele>
						<time>2025-08-15T16:00:15Z</time>
					</trkpt>
					<trkpt lat="45.836120" lon="4.505700">
						<ele>531</ele>
						<time>2025-08-15T16:00:20Z</time>
					</trkpt>
					<trkpt lat="45.836230" lon="4.505810">
						<ele>528</ele>
						<time>2025-08-15T16:00:22Z</time>
					</trkpt>
					<trkpt lat="45.837040" lon="4.507100">
						<ele>518</ele>
						<time>2025-08-15T16:00:43Z</time>
					</trkpt>
					<trkpt lat="45.837190" lon="4.507270">
						<ele>517</ele>
						<time>2025-08-15T16:00:47Z</time>
					</trkpt>
					<trkpt lat="45.837560" lon="4.507480">
						<ele>516</ele>
						<time>2025-08-15T16:00:54Z</time>
					</trkpt>
					<trkpt lat="45.837730" lon="4.507700">
						<ele>515</ele>
						<time>2025-08-15T16:00:58Z</time>
					</trkpt>
					<trkpt lat="45.838420" lon="4.509760">
						<ele>509</ele>
						<time>2025-08-15T16:01:26Z</time>
					</trkpt>
					<trkpt lat="45.838840" lon="4.511650">
						<ele>501</ele>
						<time>2025-08-15T16:01:51Z</time>
					</trkpt>
					<trkpt lat="45.838820" lon="4.511820">
						<ele>502</ele>
						<time>2025-08-15T16:01:53Z</time>
					</trkpt>
					<trkpt lat="45.838480" lon="4.512570">
						<ele>500</ele>
						<time>2025-08-15T16:02:04Z</time>
					</trkpt>
					<trkpt lat="45.838240" lon="4.513300">
						<ele>500</ele>
						<time>2025-08-15T16:02:14Z</time>
					</trkpt>
					<trkpt lat="45.838200" lon="4.513600">
						<ele>500</ele>
						<time>2025-08-15T16:02:18Z</time>
					</trkpt>
					<trkpt lat="45.838220" lon="4.514570">
						<ele>501</ele>
						<time>2025-08-15T16:02:30Z</time>
					</trkpt>
					<trkpt lat="45.838270" lon="4.515300">
						<ele>498</ele>
						<time>2025-08-15T16:02:39Z</time>
					</trkpt>
					<trkpt lat="45.838780" lon="4.516990">
						<ele>493</ele>
						<time>2025-08-15T16:03:02Z</time>
					</trkpt>
					<trkpt lat="45.838820" lon="4.517230">
						<ele>492</ele>
						<time>2025-08-15T16:03:05Z</time>
					</trkpt>
					<trkpt lat="45.838760" lon="4.517460">
						<ele>490</ele>
						<time>2025-08-15T16:03:08Z</time>
					</trkpt>
					<trkpt lat="45.838370" lon="4.518150">
						<ele>486</ele>
						<time>2025-08-15T16:03:19Z</time>
					</trkpt>
					<trkpt lat="45.838120" lon="4.518710">
						<ele>484</ele>
						<time>2025-08-15T16:03:27Z</time>
					</trkpt>
					<trkpt lat="45.837790" lon="4.520660">
						<ele>480</ele>
						<time>2025-08-15T16:03:52Z</time>
					</trkpt>
					<trkpt lat="45.837790" lon="4.521070">
						<ele>479</ele>
						<time>2025-08-15T16:03:57Z</time>
					</trkpt>
					<trkpt lat="45.837880" lon="4.521710">
						<ele>480</ele>
						<time>2025-08-15T16:04:05Z</time>
					</trkpt>
					<trkpt lat="45.837900" lon="4.522010">
						<ele>481</ele>
						<time>2025-08-15T16:04:09Z</time>
					</trkpt>
					<trkpt lat="45.837860" lon="4.522290">
						<ele>480</ele>
						<time>2025-08-15T16:04:13Z</time>
					</trkpt>
					<trkpt lat="45.837750" lon="4.522530">
						<ele>478</ele>
						<time>2025-08-15T16:04:16Z</time>
					</trkpt>
					<trkpt lat="45.837410" lon="4.522980">
						<ele>476</ele>
						<time>2025-08-15T16:04:24Z</time>
					</trkpt>
					<trkpt lat="45.836850" lon="4.523940">
						<ele>472</ele>
						<time>2025-08-15T16:04:40Z</time>
					</trkpt>
					<trkpt lat="45.836140" lon="4.524950">
						<ele>466</ele>
						<time>2025-08-15T16:04:58Z</time>
					</trkpt>
					<trkpt lat="45.835950" lon="4.525490">
						<ele>464</ele>
						<time>2025-08-15T16:05:05Z</time>
					</trkpt>
					<trkpt lat="45.835880" lon="4.525770">
						<ele>464</ele>
						<time>2025-08-15T16:05:09Z</time>
					</trkpt>
					<trkpt lat="45.835860" lon="4.526090">
						<ele>463</ele>
						<time>2025-08-15T16:05:13Z</time>
					</trkpt>
					<trkpt lat="45.835880" lon="4.526430">
						<ele>463</ele>
						<time>2025-08-15T16:05:17Z</time>
					</trkpt>
					<trkpt lat="45.836030" lon="4.527460">
						<ele>462</ele>
						<time>2025-08-15T16:05:30Z</time>
					</trkpt>
					<trkpt lat="45.836060" lon="4.528150">
						<ele>461</ele>
						<time>2025-08-15T16:05:39Z</time>
					</trkpt>
					<trkpt lat="45.835750" lon="4.529350">
						<ele>453</ele>
						<time>2025-08-15T16:05:55Z</time>
					</trkpt>
					<trkpt lat="45.835600" lon="4.529710">
						<ele>452</ele>
						<time>2025-08-15T16:06:00Z</time>
					</trkpt>
					<trkpt lat="45.835350" lon="4.529990">
						<ele>449</ele>
						<time>2025-08-15T16:06:05Z</time>
					</trkpt>
					<trkpt lat="45.834920" lon="4.530190">
						<ele>447</ele>
						<time>2025-08-15T16:06:13Z</time>
					</trkpt>
					<trkpt lat="45.834680" lon="4.530400">
						<ele>446</ele>
						<time>2025-08-15T16:06:18Z</time>
					</trkpt>
					<trkpt lat="45.834190" lon="4.531110">
						<ele>446</ele>
						<time>2025-08-15T16:06:31Z</time>
					</trkpt>
					<trkpt lat="45.834020" lon="4.531240">
						<ele>445</ele>
						<time>2025-08-15T16:06:34Z</time>
					</trkpt>
					<trkpt lat="45.833720" lon="4.531370">
						<ele>441</ele>
						<time>2025-08-15T16:06:40Z</time>
					</trkpt>
					<trkpt lat="45.833440" lon="4.531580">
						<ele>438</ele>
						<time>2025-08-15T16:06:46Z</time>
					</trkpt>
					<trkpt lat="45.833290" lon="4.531860">
						<ele>438</ele>
						<time>2025-08-15T16:06:50Z</time>
					</trkpt>
					<trkpt lat="45.832690" lon="4.533470">
						<ele>435</ele>
						<time>2025-08-15T16:07:13Z</time>
					</trkpt>
					<trkpt lat="45.832600" lon="4.534710">
						<ele>434</ele>
						<time>2025-08-15T16:07:28Z</time>
					</trkpt>
					<trkpt lat="45.832560" lon="4.534990">
						<ele>433</ele>
						<time>2025-08-15T16:07:32Z</time>
					</trkpt>
					<trkpt lat="45.832450" lon="4.535400">
						<ele>431</ele>
						<time>2025-08-15T16:07:37Z</time>
					</trkpt>
					<trkpt lat="45.832260" lon="4.535660">
						<ele>430</ele>
						<time>2025-08-15T16:07:42Z</time>
					</trkpt>
					<trkpt lat="45.831610" lon="4.536280">
						<ele>427</ele>
						<time>2025-08-15T16:07:56Z</time>
					</trkpt>
					<trkpt lat="45.831210" lon="4.536800">
						<ele>426</ele>
						<time>2025-08-15T16:08:05Z</time>
					</trkpt>
					<trkpt lat="45.830910" lon="4.537250">
						<ele>424</ele>
						<time>2025-08-15T16:08:13Z</time>
					</trkpt>
					<trkpt lat="45.830520" lon="4.538100">
						<ele>420</ele>
						<time>2025-08-15T16:08:25Z</time>
					</trkpt>
					<trkpt lat="45.830430" lon="4.538560">
						<ele>420</ele>
						<time>2025-08-15T16:08:31Z</time>
					</trkpt>
					<trkpt lat="45.830410" lon="4.539010">
						<ele>420</ele>
						<time>2025-08-15T16:08:37Z</time>
					</trkpt>
					<trkpt lat="45.830350" lon="4.539220">
						<ele>421</ele>
						<time>2025-08-15T16:08:40Z</time>
					</trkpt>
					<trkpt lat="45.830300" lon="4.539280">
						<ele>421</ele>
						<time>2025-08-15T16:08:41Z</time>
					</trkpt>
					<trkpt lat="45.830150" lon="4.539330">
						<ele>421</ele>
						<time>2025-08-15T16:08:44Z</time>
					</trkpt>
					<trkpt lat="45.829700" lon="4.539200">
						<ele>416</ele>
						<time>2025-08-15T16:08:52Z</time>
					</trkpt>
					<trkpt lat="45.829420" lon="4.539200">
						<ele>415</ele>
						<time>2025-08-15T16:08:57Z</time>
					</trkpt>
					<trkpt lat="45.828610" lon="4.539460">
						<ele>415</ele>
						<time>2025-08-15T16:09:12Z</time>
					</trkpt>
					<trkpt lat="45.828420" lon="4.539560">
						<ele>415</ele>
						<time>2025-08-15T16:09:15Z</time>
					</trkpt>
					<trkpt lat="45.828050" lon="4.539970">
						<ele>416</ele>
						<time>2025-08-15T16:09:24Z</time>
					</trkpt>
					<trkpt lat="45.827730" lon="4.540570">
						<ele>418</ele>
						<time>2025-08-15T16:09:33Z</time>
					</trkpt>
					<trkpt lat="45.827520" lon="4.540890">
						<ele>417</ele>
						<time>2025-08-15T16:09:38Z</time>
					</trkpt>
					<trkpt lat="45.826830" lon="4.541560">
						<ele>408</ele>
						<time>2025-08-15T16:09:53Z</time>
					</trkpt>
					<trkpt lat="45.826510" lon="4.541990">
						<ele>406</ele>
						<time>2025-08-15T16:10:01Z</time>
					</trkpt>
					<trkpt lat="45.826270" lon="4.542420">
						<ele>406</ele>
						<time>2025-08-15T16:10:08Z</time>
					</trkpt>
					<trkpt lat="45.825410" lon="4.543810">
						<ele>401</ele>
						<time>2025-08-15T16:10:31Z</time>
					</trkpt>
					<trkpt lat="45.825150" lon="4.544330">
						<ele>401</ele>
						<time>2025-08-15T16:10:39Z</time>
					</trkpt>
					<trkpt lat="45.825030" lon="4.545530">
						<ele>402</ele>
						<time>2025-08-15T16:10:54Z</time>
					</trkpt>
					<trkpt lat="45.824980" lon="4.545700">
						<ele>402</ele>
						<time>2025-08-15T16:10:56Z</time>
					</trkpt>
					<trkpt lat="45.824920" lon="4.545810">
						<ele>402</ele>
						<time>2025-08-15T16:10:58Z</time>
					</trkpt>
					<trkpt lat="45.824830" lon="4.545870">
						<ele>402</ele>
						<time>2025-08-15T16:11:00Z</time>
					</trkpt>
					<trkpt lat="45.824700" lon="4.545850">
						<ele>401</ele>
						<time>2025-08-15T16:11:02Z</time>
					</trkpt>
					<trkpt lat="45.824280" lon="4.545590">
						<ele>399</ele>
						<time>2025-08-15T16:11:10Z</time>
					</trkpt>
					<trkpt lat="45.823910" lon="4.545460">
						<ele>397</ele>
						<time>2025-08-15T16:11:17Z</time>
					</trkpt>
					<trkpt lat="45.823330" lon="4.545400">
						<ele>395</ele>
						<time>2025-08-15T16:11:27Z</time>
					</trkpt>
					<trkpt lat="45.821740" lon="4.545870">
						<ele>389</ele>
						<time>2025-08-15T16:11:56Z</time>
					</trkpt>
					<trkpt lat="45.820610" lon="4.546040">
						<ele>391</ele>
						<time>2025-08-15T16:12:16Z</time>
					</trkpt>
					<trkpt lat="45.820110" lon="4.545920">
						<ele>389</ele>
						<time>2025-08-15T16:12:25Z</time>
					</trkpt>
					<trkpt lat="45.819830" lon="4.545700">
						<ele>385</ele>
						<time>2025-08-15T16:12:31Z</time>
					</trkpt>
					<trkpt lat="45.819100" lon="4.545360">
						<ele>381</ele>
						<time>2025-08-15T16:12:45Z</time>
					</trkpt>
					<trkpt lat="45.818910" lon="4.545340">
						<ele>380</ele>
						<time>2025-08-15T16:12:48Z</time>
					</trkpt>
					<trkpt lat="45.818740" lon="4.545400">
						<ele>379</ele>
						<time>2025-08-15T16:12:51Z</time>
					</trkpt>
					<trkpt lat="45.818420" lon="4.545570">
						<ele>378</ele>
						<time>2025-08-15T16:12:57Z</time>
					</trkpt>
					<trkpt lat="45.818120" lon="4.545790">
						<ele>376</ele>
						<time>2025-08-15T16:13:03Z</time>
					</trkpt>
					<trkpt lat="45.817970" lon="4.545960">
						<ele>375</ele>
						<time>2025-08-15T16:13:07Z</time>
					</trkpt>
					<trkpt lat="45.817820" lon="4.546430">
						<ele>377</ele>
						<time>2025-08-15T16:13:13Z</time>
					</trkpt>
					<trkpt lat="45.817620" lon="4.547310">
						<ele>377</ele>
						<time>2025-08-15T16:13:25Z</time>
					</trkpt>
					<trkpt lat="45.817600" lon="4.547980">
						<ele>380</ele>
						<time>2025-08-15T16:13:33Z</time>
					</trkpt>
					<trkpt lat="45.817540" lon="4.548230">
						<ele>379</ele>
						<time>2025-08-15T16:13:36Z</time>
					</trkpt>
					<trkpt lat="45.817450" lon="4.548300">
						<ele>377</ele>
						<time>2025-08-15T16:13:38Z</time>
					</trkpt>
					<trkpt lat="45.816980" lon="4.548400">
						<ele>372</ele>
						<time>2025-08-15T16:13:46Z</time>
					</trkpt>
					<trkpt lat="45.816720" lon="4.548530">
						<ele>371</ele>
						<time>2025-08-15T16:13:51Z</time>
					</trkpt>
					<trkpt lat="45.816460" lon="4.548770">
						<ele>368</ele>
						<time>2025-08-15T16:13:57Z</time>
					</trkpt>
					<trkpt lat="45.816160" lon="4.549220">
						<ele>365</ele>
						<time>2025-08-15T16:14:05Z</time>
					</trkpt>
					<trkpt lat="45.816040" lon="4.549580">
						<ele>364</ele>
						<time>2025-08-15T16:14:09Z</time>
					</trkpt>
					<trkpt lat="45.816010" lon="4.549800">
						<ele>364</ele>
						<time>2025-08-15T16:14:12Z</time>
					</trkpt>
					<trkpt lat="45.815990" lon="4.550270">
						<ele>364</ele>
						<time>2025-08-15T16:14:18Z</time>
					</trkpt>
					<trkpt lat="45.816010" lon="4.551620">
						<ele>366</ele>
						<time>2025-08-15T16:14:35Z</time>
					</trkpt>
					<trkpt lat="45.815890" lon="4.552440">
						<ele>368</ele>
						<time>2025-08-15T16:14:45Z</time>
					</trkpt>
					<trkpt lat="45.815730" lon="4.552800">
						<ele>366</ele>
						<time>2025-08-15T16:14:51Z</time>
					</trkpt>
					<trkpt lat="45.815330" lon="4.553550">
						<ele>359</ele>
						<time>2025-08-15T16:15:02Z</time>
					</trkpt>
					<trkpt lat="45.815280" lon="4.553730">
						<ele>358</ele>
						<time>2025-08-15T16:15:05Z</time>
					</trkpt>
					<trkpt lat="45.815280" lon="4.554220">
						<ele>359</ele>
						<time>2025-08-15T16:15:11Z</time>
					</trkpt>
					<trkpt lat="45.815330" lon="4.554480">
						<ele>358</ele>
						<time>2025-08-15T16:15:14Z</time>
					</trkpt>
					<trkpt lat="45.815540" lon="4.555010">
						<ele>360</ele>
						<time>2025-08-15T16:15:22Z</time>
					</trkpt>
					<trkpt lat="45.815580" lon="4.555180">
						<ele>361</ele>
						<time>2025-08-15T16:15:24Z</time>
					</trkpt>
					<trkpt lat="45.815350" lon="4.556320">
						<ele>352</ele>
						<time>2025-08-15T16:15:39Z</time>
					</trkpt>
					<trkpt lat="45.815350" lon="4.556620">
						<ele>352</ele>
						<time>2025-08-15T16:15:42Z</time>
					</trkpt>
					<trkpt lat="45.815460" lon="4.556940">
						<ele>353</ele>
						<time>2025-08-15T16:15:47Z</time>
					</trkpt>
					<trkpt lat="45.815780" lon="4.557520">
						<ele>356</ele>
						<time>2025-08-15T16:15:56Z</time>
					</trkpt>
					<trkpt lat="45.816040" lon="4.557820">
						<ele>354</ele>
						<time>2025-08-15T16:16:02Z</time>
					</trkpt>
					<trkpt lat="45.816400" lon="4.558020">
						<ele>356</ele>
						<time>2025-08-15T16:16:09Z</time>
					</trkpt>
					<trkpt lat="45.816720" lon="4.558100">
						<ele>359</ele>
						<time>2025-08-15T16:16:14Z</time>
					</trkpt>
					<trkpt lat="45.817020" lon="4.558270">
						<ele>360</ele>
						<time>2025-08-15T16:16:20Z</time>
					</trkpt>
					<trkpt lat="45.817070" lon="4.558380">
						<ele>360</ele>
						<time>2025-08-15T16:16:22Z</time>
					</trkpt>
					<trkpt lat="45.817070" lon="4.558580">
						<ele>361</ele>
						<time>2025-08-15T16:16:24Z</time>
					</trkpt>
					<trkpt lat="45.816940" lon="4.558730">
						<ele>358</ele>
						<time>2025-08-15T16:16:27Z</time>
					</trkpt>
					<trkpt lat="45.816190" lon="4.559330">
						<ele>344</ele>
						<time>2025-08-15T16:16:43Z</time>
					</trkpt>
					<trkpt lat="45.816040" lon="4.559710">
						<ele>343</ele>
						<time>2025-08-15T16:16:48Z</time>
					</trkpt>
					<trkpt lat="45.815950" lon="4.560120">
						<ele>343</ele>
						<time>2025-08-15T16:16:53Z</time>
					</trkpt>
					<trkpt lat="45.815930" lon="4.560530">
						<ele>342</ele>
						<time>2025-08-15T16:16:58Z</time>
					</trkpt>
					<trkpt lat="45.816140" lon="4.560960">
						<ele>347</ele>
						<time>2025-08-15T16:17:05Z</time>
					</trkpt>
					<trkpt lat="45.816160" lon="4.561110">
						<ele>349</ele>
						<time>2025-08-15T16:17:07Z</time>
					</trkpt>
					<trkpt lat="45.816140" lon="4.561300">
						<ele>349</ele>
						<time>2025-08-15T16:17:09Z</time>
					</trkpt>
					<trkpt lat="45.816100" lon="4.561360">
						<ele>348</ele>
						<time>2025-08-15T16:17:10Z</time>
					</trkpt>
					<trkpt lat="45.815560" lon="4.561750">
						<ele>338</ele>
						<time>2025-08-15T16:17:21Z</time>
					</trkpt>
					<trkpt lat="45.814550" lon="4.563000">
						<ele>335</ele>
						<time>2025-08-15T16:17:45Z</time>
					</trkpt>
					<trkpt lat="45.814150" lon="4.563000">
						<ele>328</ele>
						<time>2025-08-15T16:17:52Z</time>
					</trkpt>
					<trkpt lat="45.814000" lon="4.563100">
						<ele>326</ele>
						<time>2025-08-15T16:17:55Z</time>
					</trkpt>
					<trkpt lat="45.813890" lon="4.563250">
						<ele>325</ele>
						<time>2025-08-15T16:17:57Z</time>
					</trkpt>
					<trkpt lat="45.813740" lon="4.563770">
						<ele>325</ele>
						<time>2025-08-15T16:18:04Z</time>
					</trkpt>
					<trkpt lat="45.813670" lon="4.564300">
						<ele>325</ele>
						<time>2025-08-15T16:18:11Z</time>
					</trkpt>
					<trkpt lat="45.813700" lon="4.564690">
						<ele>326</ele>
						<time>2025-08-15T16:18:16Z</time>
					</trkpt>
					<trkpt lat="45.813780" lon="4.564990">
						<ele>328</ele>
						<time>2025-08-15T16:18:20Z</time>
					</trkpt>
					<trkpt lat="45.813740" lon="4.565230">
						<ele>327</ele>
						<time>2025-08-15T16:18:23Z</time>
					</trkpt>
					<trkpt lat="45.813670" lon="4.565380">
						<ele>325</ele>
						<time>2025-08-15T16:18:25Z</time>
					</trkpt>
					<trkpt lat="45.813520" lon="4.565550">
						<ele>322</ele>
						<time>2025-08-15T16:18:29Z</time>
					</trkpt>
					<trkpt lat="45.813440" lon="4.565780">
						<ele>320</ele>
						<time>2025-08-15T16:18:32Z</time>
					</trkpt>
					<trkpt lat="45.813460" lon="4.565960">
						<ele>320</ele>
						<time>2025-08-15T16:18:34Z</time>
					</trkpt>
					<trkpt lat="45.813650" lon="4.566510">
						<ele>320</ele>
						<time>2025-08-15T16:18:42Z</time>
					</trkpt>
					<trkpt lat="45.813780" lon="4.567200">
						<ele>316</ele>
						<time>2025-08-15T16:18:51Z</time>
					</trkpt>
					<trkpt lat="45.813830" lon="4.567290">
						<ele>317</ele>
						<time>2025-08-15T16:18:52Z</time>
					</trkpt>
					<trkpt lat="45.813910" lon="4.567350">
						<ele>318</ele>
						<time>2025-08-15T16:18:54Z</time>
					</trkpt>
					<trkpt lat="45.814170" lon="4.567350">
						<ele>324</ele>
						<time>2025-08-15T16:18:58Z</time>
					</trkpt>
					<trkpt lat="45.814490" lon="4.567270">
						<ele>329</ele>
						<time>2025-08-15T16:19:04Z</time>
					</trkpt>
					<trkpt lat="45.814620" lon="4.567350">
						<ele>329</ele>
						<time>2025-08-15T16:19:07Z</time>
					</trkpt>
					<trkpt lat="45.814660" lon="4.567540">
						<ele>329</ele>
						<time>2025-08-15T16:19:09Z</time>
					</trkpt>
					<trkpt lat="45.814620" lon="4.567650">
						<ele>328</ele>
						<time>2025-08-15T16:19:11Z</time>
					</trkpt>
					<trkpt lat="45.813290" lon="4.569240">
						<ele>313</ele>
						<time>2025-08-15T16:19:41Z</time>
					</trkpt>
					<trkpt lat="45.812900" lon="4.569390">
						<ele>307</ele>
						<time>2025-08-15T16:19:49Z</time>
					</trkpt>
					<trkpt lat="45.812800" lon="4.569480">
						<ele>306</ele>
						<time>2025-08-15T16:19:51Z</time>
					</trkpt>
					<trkpt lat="45.812690" lon="4.569690">
						<ele>305</ele>
						<time>2025-08-15T16:19:54Z</time>
					</trkpt>
					<trkpt lat="45.812640" lon="4.569990">
						<ele>306</ele>
						<time>2025-08-15T16:19:58Z</time>
					</trkpt>
					<trkpt lat="45.812710" lon="4.570420">
						<ele>308</ele>
						<time>2025-08-15T16:20:03Z</time>
					</trkpt>
					<trkpt lat="45.812900" lon="4.571280">
						<ele>310</ele>
						<time>2025-08-15T16:20:14Z</time>
					</trkpt>
					<trkpt lat="45.812990" lon="4.572010">
						<ele>305</ele>
						<time>2025-08-15T16:20:24Z</time>
					</trkpt>
					<trkpt lat="45.813120" lon="4.572500">
						<ele>300</ele>
						<time>2025-08-15T16:20:30Z</time>
					</trkpt>
					<trkpt lat="45.813220" lon="4.572720">
						<ele>299</ele>
						<time>2025-08-15T16:20:33Z</time>
					</trkpt>
					<trkpt lat="45.813370" lon="4.572930">
						<ele>298</ele>
						<time>2025-08-15T16:20:37Z</time>
					</trkpt>
					<trkpt lat="45.813670" lon="4.573020">
						<ele>299</ele>
						<time>2025-08-15T16:20:43Z</time>
					</trkpt>
					<trkpt lat="45.814150" lon="4.573020">
						<ele>303</ele>
						<time>2025-08-15T16:20:51Z</time>
					</trkpt>
					<trkpt lat="45.814380" lon="4.573060">
						<ele>303</ele>
						<time>2025-08-15T16:20:55Z</time>
					</trkpt>
					<trkpt lat="45.814580" lon="4.573190">
						<ele>301</ele>
						<time>2025-08-15T16:20:59Z</time>
					</trkpt>
					<trkpt lat="45.814750" lon="4.573360">
						<ele>298</ele>
						<time>2025-08-15T16:21:03Z</time>
					</trkpt>
					<trkpt lat="45.815200" lon="4.574050">
						<ele>295</ele>
						<time>2025-08-15T16:21:14Z</time>
					</trkpt>
					<trkpt lat="45.815690" lon="4.574600">
						<ele>295</ele>
						<time>2025-08-15T16:21:26Z</time>
					</trkpt>
					<trkpt lat="45.816440" lon="4.574900">
						<ele>297</ele>
						<time>2025-08-15T16:21:39Z</time>
					</trkpt>
					<trkpt lat="45.817600" lon="4.575080">
						<ele>296</ele>
						<time>2025-08-15T16:22:00Z</time>
					</trkpt>
					<trkpt lat="45.817860" lon="4.575080">
						<ele>297</ele>
						<time>2025-08-15T16:22:05Z</time>
					</trkpt>
					<trkpt lat="45.819040" lon="4.574690">
						<ele>306</ele>
						<time>2025-08-15T16:22:26Z</time>
					</trkpt>
					<trkpt lat="45.819250" lon="4.574690">
						<ele>308</ele>
						<time>2025-08-15T16:22:30Z</time>
					</trkpt>
					<trkpt lat="45.820350" lon="4.575160">
						<ele>312</ele>
						<time>2025-08-15T16:22:51Z</time>
					</trkpt>
					<trkpt lat="45.821440" lon="4.575570">
						<ele>317</ele>
						<time>2025-08-15T16:23:11Z</time>
					</trkpt>
					<trkpt lat="45.821720" lon="4.575530">
						<ele>318</ele>
						<time>2025-08-15T16:23:16Z</time>
					</trkpt>
					<trkpt lat="45.822020" lon="4.575310">
						<ele>320</ele>
						<time>2025-08-15T16:23:22Z</time>
					</trkpt>
					<trkpt lat="45.822170" lon="4.575140">
						<ele>321</ele>
						<time>2025-08-15T16:23:25Z</time>
					</trkpt>
					<trkpt lat="45.822540" lon="4.574480">
						<ele>324</ele>
						<time>2025-08-15T16:23:35Z</time>
					</trkpt>
					<trkpt lat="45.822970" lon="4.574990">
						<ele>320</ele>
						<time>2025-08-15T16:23:45Z</time>
					</trkpt>
					<trkpt lat="45.823160" lon="4.575400">
						<ele>318</ele>
						<time>2025-08-15T16:23:51Z</time>
					</trkpt>
					<trkpt lat="45.823160" lon="4.575630">
						<ele>318</ele>
						<time>2025-08-15T16:23:54Z</time>
					</trkpt>
					<trkpt lat="45.823120" lon="4.575960">
						<ele>316</ele>
						<time>2025-08-15T16:23:58Z</time>
					</trkpt>
					<trkpt lat="45.822970" lon="4.576490">
						<ele>314</ele>
						<time>2025-08-15T16:24:06Z</time>
					</trkpt>
					<trkpt lat="45.822750" lon="4.577140">
						<ele>313</ele>
						<time>2025-08-15T16:24:15Z</time>
					</trkpt>
					<trkpt lat="45.822520" lon="4.577720">
						<ele>313</ele>
						<time>2025-08-15T16:24:23Z</time>
					</trkpt>
					<trkpt lat="45.821120" lon="4.580330">
						<ele>315</ele>
						<time>2025-08-15T16:25:04Z</time>
					</trkpt>
					<trkpt lat="45.820390" lon="4.581110">
						<ele>320</ele>
						<time>2025-08-15T16:25:20Z</time>
					</trkpt>
					<trkpt lat="45.820220" lon="4.581320">
						<ele>321</ele>
						<time>2025-08-15T16:25:24Z</time>
					</trkpt>
					<trkpt lat="45.819940" lon="4.581860">
						<ele>323</ele>
						<time>2025-08-15T16:25:32Z</time>
					</trkpt>
					<trkpt lat="45.819850" lon="4.582310">
						<ele>322</ele>
						<time>2025-08-15T16:25:38Z</time>
					</trkpt>
					<trkpt lat="45.819830" lon="4.582760">
						<ele>322</ele>
						<time>2025-08-15T16:25:44Z</time>
					</trkpt>
					<trkpt lat="45.819850" lon="4.583040">
						<ele>323</ele>
						<time>2025-08-15T16:25:47Z</time>
					</trkpt>
					<trkpt lat="45.820110" lon="4.583790">
						<ele>321</ele>
						<time>2025-08-15T16:25:57Z</time>
					</trkpt>
					<trkpt lat="45.821440" lon="4.586040">
						<ele>311</ele>
						<time>2025-08-15T16:26:34Z</time>
					</trkpt>
					<trkpt lat="45.822220" lon="4.587930">
						<ele>306</ele>
						<time>2025-08-15T16:27:01Z</time>
					</trkpt>
					<trkpt lat="45.822790" lon="4.590350">
						<ele>300</ele>
						<time>2025-08-15T16:27:33Z</time>
					</trkpt>
					<trkpt lat="45.823310" lon="4.592330">
						<ele>296</ele>
						<time>2025-08-15T16:27:59Z</time>
					</trkpt>
					<trkpt lat="45.823500" lon="4.592890">
						<ele>297</ele>
						<time>2025-08-15T16:28:07Z</time>
					</trkpt>
					<trkpt lat="45.823850" lon="4.593570">
						<ele>296</ele>
						<time>2025-08-15T16:28:17Z</time>
					</trkpt>
					<trkpt lat="45.824230" lon="4.594580">
						<ele>295</ele>
						<time>2025-08-15T16:28:32Z</time>
					</trkpt>
					<trkpt lat="45.824280" lon="4.594840">
						<ele>295</ele>
						<time>2025-08-15T16:28:35Z</time>
					</trkpt>
					<trkpt lat="45.824250" lon="4.594990">
						<ele>296</ele>
						<time>2025-08-15T16:28:37Z</time>
					</trkpt>
					<trkpt lat="45.824340" lon="4.595100">
						<ele>296</ele>
						<time>2025-08-15T16:28:39Z</time>
					</trkpt>
					<trkpt lat="45.824380" lon="4.595070">
						<ele>295</ele>
						<time>2025-08-15T16:28:40Z</time>
					</trkpt>
					<trkpt lat="45.824550" lon="4.595290">
						<ele>295</ele>
						<time>2025-08-15T16:28:44Z</time>
					</trkpt>
					<trkpt lat="45.824830" lon="4.595740">
						<ele>295</ele>
						<time>2025-08-15T16:28:51Z</time>
					</trkpt>
					<trkpt lat="45.825840" lon="4.597930">
						<ele>292</ele>
						<time>2025-08-15T16:29:24Z</time>
					</trkpt>
					<trkpt lat="45.826030" lon="4.598400">
						<ele>292</ele>
						<time>2025-08-15T16:29:31Z</time>
					</trkpt>
					<trkpt lat="45.826180" lon="4.598940">
						<ele>292</ele>
						<time>2025-08-15T16:29:38Z</time>
					</trkpt>
					<trkpt lat="45.826210" lon="4.599090">
						<ele>292</ele>
						<time>2025-08-15T16:29:40Z</time>
					</trkpt>
					<trkpt lat="45.826180" lon="4.599110">
						<ele>292</ele>
						<time>2025-08-15T16:29:40Z</time>
					</trkpt>
					<trkpt lat="45.826160" lon="4.599260">
						<ele>291</ele>
						<time>2025-08-15T16:29:42Z</time>
					</trkpt>
					<trkpt lat="45.826510" lon="4.599750">
						<ele>290</ele>
						<time>2025-08-15T16:29:51Z</time>
					</trkpt>
					<trkpt lat="45.826570" lon="4.599800">
						<ele>290</ele>
						<time>2025-08-15T16:29:52Z</time>
					</trkpt>
					<trkpt lat="45.827600" lon="4.601300">
						<ele>280</ele>
						<time>2025-08-15T16:30:18Z</time>
					</trkpt>
					<trkpt lat="45.827840" lon="4.601900">
						<ele>277</ele>
						<time>2025-08-15T16:30:27Z</time>
					</trkpt>
					<trkpt lat="45.828050" lon="4.603230">
						<ele>272</ele>
						<time>2025-08-15T16:30:44Z</time>
					</trkpt>
					<trkpt lat="45.828140" lon="4.603550">
						<ele>272</ele>
						<time>2025-08-15T16:30:48Z</time>
					</trkpt>
					<trkpt lat="45.828310" lon="4.603870">
						<ele>273</ele>
						<time>2025-08-15T16:30:53Z</time>
					</trkpt>
					<trkpt lat="45.828460" lon="4.604220">
						<ele>273</ele>
						<time>2025-08-15T16:30:58Z</time>
					</trkpt>
					<trkpt lat="45.828480" lon="4.604320">
						<ele>272</ele>
						<time>2025-08-15T16:30:59Z</time>
					</trkpt>
					<trkpt lat="45.828550" lon="4.604370">
						<ele>272</ele>
						<time>2025-08-15T16:31:01Z</time>
					</trkpt>
					<trkpt lat="45.828740" lon="4.604770">
						<ele>272</ele>
						<time>2025-08-15T16:31:07Z</time>
					</trkpt>
					<trkpt lat="45.828850" lon="4.605290">
						<ele>270</ele>
						<time>2025-08-15T16:31:14Z</time>
					</trkpt>
					<trkpt lat="45.828850" lon="4.605520">
						<ele>270</ele>
						<time>2025-08-15T16:31:16Z</time>
					</trkpt>
					<trkpt lat="45.828800" lon="4.605780">
						<ele>268</ele>
						<time>2025-08-15T16:31:20Z</time>
					</trkpt>
					<trkpt lat="45.828550" lon="4.606320">
						<ele>264</ele>
						<time>2025-08-15T16:31:28Z</time>
					</trkpt>
					<trkpt lat="45.828240" lon="4.606580">
						<ele>260</ele>
						<time>2025-08-15T16:31:34Z</time>
					</trkpt>
					<trkpt lat="45.828010" lon="4.606640">
						<ele>257</ele>
						<time>2025-08-15T16:31:38Z</time>
					</trkpt>
					<trkpt lat="45.827640" lon="4.606580">
						<ele>252</ele>
						<time>2025-08-15T16:31:45Z</time>
					</trkpt>
					<trkpt lat="45.826360" lon="4.605700">
						<ele>244</ele>
						<time>2025-08-15T16:32:10Z</time>
					</trkpt>
					<trkpt lat="45.825480" lon="4.605140">
						<ele>242</ele>
						<time>2025-08-15T16:32:27Z</time>
					</trkpt>
					<trkpt lat="45.824900" lon="4.604840">
						<ele>245</ele>
						<time>2025-08-15T16:32:38Z</time>
					</trkpt>
					<trkpt lat="45.823780" lon="4.604340">
						<ele>245</ele>
						<time>2025-08-15T16:32:59Z</time>
					</trkpt>
					<trkpt lat="45.823400" lon="4.604320">
						<ele>244</ele>
						<time>2025-08-15T16:33:06Z</time>
					</trkpt>
					<trkpt lat="45.823270" lon="4.604430">
						<ele>242</ele>
						<time>2025-08-15T16:33:09Z</time>
					</trkpt>
					<trkpt lat="45.823140" lon="4.604690">
						<ele>238</ele>
						<time>2025-08-15T16:33:13Z</time>
					</trkpt>
					<trkpt lat="45.823050" lon="4.604770">
						<ele>237</ele>
						<time>2025-08-15T16:33:15Z</time>
					</trkpt>
					<trkpt lat="45.823010" lon="4.604900">
						<ele>236</ele>
						<time>2025-08-15T16:33:16Z</time>
					</trkpt>
					<trkpt lat="45.823030" lon="4.605050">
						<ele>234</ele>
						<time>2025-08-15T16:33:18Z</time>
					</trkpt>
					<trkpt lat="45.823090" lon="4.605160">
						<ele>234</ele>
						<time>2025-08-15T16:33:20Z</time>
					</trkpt>
					<trkpt lat="45.823140" lon="4.605460">
						<ele>233</ele>
						<time>2025-08-15T16:33:24Z</time>
					</trkpt>
					<trkpt lat="45.823120" lon="4.605760">
						<ele>233</ele>
						<time>2025-08-15T16:33:27Z</time>
					</trkpt>
					<trkpt lat="45.823140" lon="4.605980">
						<ele>233</ele>
						<time>2025-08-15T16:33:30Z</time>
					</trkpt>
					<trkpt lat="45.823350" lon="4.606510">
						<ele>233</ele>
						<time>2025-08-15T16:33:38Z</time>
					</trkpt>
					<trkpt lat="45.823310" lon="4.606530">
						<ele>233</ele>
						<time>2025-08-15T16:33:39Z</time>
					</trkpt>
					<trkpt lat="45.823290" lon="4.606640">
						<ele>233</ele>
						<time>2025-08-15T16:33:40Z</time>
					</trkpt>
					<trkpt lat="45.823350" lon="4.606730">
						<ele>233</ele>
						<time>2025-08-15T16:33:42Z</time>
					</trkpt>
					<trkpt lat="45.823440" lon="4.606700">
						<ele>233</ele>
						<time>2025-08-15T16:33:43Z</time>
					</trkpt>
					<trkpt lat="45.823460" lon="4.606660">
						<ele>233</ele>
						<time>2025-08-15T16:33:44Z</time>
					</trkpt>
					<trkpt lat="45.823760" lon="4.607050">
						<ele>232</ele>
						<time>2025-08-15T16:33:51Z</time>
					</trkpt>
					<trkpt lat="45.824680" lon="4.607860">
						<ele>231</ele>
						<time>2025-08-15T16:34:10Z</time>
					</trkpt>
					<trkpt lat="45.825310" lon="4.608380">
						<ele>230</ele>
						<time>2025-08-15T16:34:23Z</time>
					</trkpt>
					<trkpt lat="45.825280" lon="4.608440">
						<ele>230</ele>
						<time>2025-08-15T16:34:24Z</time>
					</trkpt>
					<trkpt lat="45.825330" lon="4.608530">
						<ele>229</ele>
						<time>2025-08-15T16:34:25Z</time>
					</trkpt>
					<trkpt lat="45.825430" lon="4.608640">
						<ele>229</ele>
						<time>2025-08-15T16:34:28Z</time>
					</trkpt>
					<trkpt lat="45.825520" lon="4.608610">
						<ele>229</ele>
						<time>2025-08-15T16:34:29Z</time>
					</trkpt>
					<trkpt lat="45.825740" lon="4.609040">
						<ele>228</ele>
						<time>2025-08-15T16:34:36Z</time>
					</trkpt>
					</trkseg>
				</trk>
			</gpx>